<?xml version='1.0' encoding='UTF-8'?>
<gpx version="1.1" creator="https://www.komoot.de" xmlns="http://www.topografix.com/GPX/1/1" xmlns:xsi="http://www.w3.org/2001/XMLSchema-instance" xsi:schemaLocation="http://www.topografix.com/GPX/1/1 http://www.topografix.com/GPX/1/1/gpx.xsd">
  <metadata>
    <name>55_750IttenthalBuerensteig</name>
    <author>
      <link href="https://www.komoot.de">
        <text>komoot</text>
        <type>text/html</type>
      </link>
    </author>
  </metadata>
  <trk>
    <name>55_750IttenthalBuerensteig</name>
    <trkseg>
      <trkpt lat="47.541418" lon="7.870785">
        <ele>341.092848</ele>
        <time>2021-11-14T14:55:30.753Z</time>
      </trkpt>
      <trkpt lat="47.541576" lon="7.870664">
        <ele>341.092848</ele>
        <time>2021-11-14T14:55:34.809Z</time>
      </trkpt>
      <trkpt lat="47.541796" lon="7.871042">
        <ele>341.092848</ele>
        <time>2021-11-14T14:55:42.114Z</time>
      </trkpt>
      <trkpt lat="47.541953" lon="7.871286">
        <ele>341.092848</ele>
        <time>2021-11-14T14:55:46.987Z</time>
      </trkpt>
      <trkpt lat="47.542039" lon="7.871556">
        <ele>341.269343</ele>
        <time>2021-11-14T14:55:51.650Z</time>
      </trkpt>
      <trkpt lat="47.542067" lon="7.871664">
        <ele>341.578792</ele>
        <time>2021-11-14T14:55:53.213Z</time>
      </trkpt>
      <trkpt lat="47.542091" lon="7.871721">
        <ele>341.758480</ele>
        <time>2021-11-14T14:55:53.808Z</time>
      </trkpt>
      <trkpt lat="47.542218" lon="7.871866">
        <ele>342.393815</ele>
        <time>2021-11-14T14:55:59.085Z</time>
      </trkpt>
      <trkpt lat="47.542251" lon="7.871955">
        <ele>342.665417</ele>
        <time>2021-11-14T14:56:01.070Z</time>
      </trkpt>
      <trkpt lat="47.542394" lon="7.872341">
        <ele>343.843138</ele>
        <time>2021-11-14T14:56:09.329Z</time>
      </trkpt>
      <trkpt lat="47.542436" lon="7.872494">
        <ele>344.284920</ele>
        <time>2021-11-14T14:56:12.750Z</time>
      </trkpt>
      <trkpt lat="47.542537" lon="7.872430">
        <ele>344.720192</ele>
        <time>2021-11-14T14:56:14.748Z</time>
      </trkpt>
      <trkpt lat="47.542714" lon="7.872334">
        <ele>345.467056</ele>
        <time>2021-11-14T14:56:21.895Z</time>
      </trkpt>
      <trkpt lat="47.542814" lon="7.872280">
        <ele>345.888795</ele>
        <time>2021-11-14T14:56:24.760Z</time>
      </trkpt>
      <trkpt lat="47.542919" lon="7.872226">
        <ele>346.329200</ele>
        <time>2021-11-14T14:56:28.562Z</time>
      </trkpt>
      <trkpt lat="47.543013" lon="7.872182">
        <ele>346.719812</ele>
        <time>2021-11-14T14:56:32.179Z</time>
      </trkpt>
      <trkpt lat="47.543233" lon="7.872082">
        <ele>347.631640</ele>
        <time>2021-11-14T14:56:39.301Z</time>
      </trkpt>
      <trkpt lat="47.543251" lon="7.872152">
        <ele>347.831995</ele>
        <time>2021-11-14T14:56:42.698Z</time>
      </trkpt>
      <trkpt lat="47.543332" lon="7.872237">
        <ele>348.228792</ele>
        <time>2021-11-14T14:56:46.130Z</time>
      </trkpt>
      <trkpt lat="47.544390" lon="7.872423">
        <ele>355.069495</ele>
        <time>2021-11-14T14:57:27.714Z</time>
      </trkpt>
      <trkpt lat="47.544883" lon="7.872555">
        <ele>358.286153</ele>
        <time>2021-11-14T14:57:50.056Z</time>
      </trkpt>
      <trkpt lat="47.545131" lon="7.872664">
        <ele>359.949796</ele>
        <time>2021-11-14T14:58:01.060Z</time>
      </trkpt>
      <trkpt lat="47.545375" lon="7.872836">
        <ele>361.711178</ele>
        <time>2021-11-14T14:58:12.001Z</time>
      </trkpt>
      <trkpt lat="47.545478" lon="7.872968">
        <ele>362.598934</ele>
        <time>2021-11-14T14:58:18.809Z</time>
      </trkpt>
      <trkpt lat="47.545515" lon="7.873015">
        <ele>362.916638</ele>
        <time>2021-11-14T14:58:20.765Z</time>
      </trkpt>
      <trkpt lat="47.545746" lon="7.873302">
        <ele>364.881833</ele>
        <time>2021-11-14T14:58:33.965Z</time>
      </trkpt>
      <trkpt lat="47.545934" lon="7.873549">
        <ele>366.519790</ele>
        <time>2021-11-14T14:58:44.065Z</time>
      </trkpt>
      <trkpt lat="47.546077" lon="7.873763">
        <ele>367.844735</ele>
        <time>2021-11-14T14:58:53.262Z</time>
      </trkpt>
      <trkpt lat="47.546135" lon="7.873859">
        <ele>368.411618</ele>
        <time>2021-11-14T14:58:56.501Z</time>
      </trkpt>
      <trkpt lat="47.546309" lon="7.874154">
        <ele>370.135334</ele>
        <time>2021-11-14T14:59:07.615Z</time>
      </trkpt>
      <trkpt lat="47.547126" lon="7.875801">
        <ele>375.827486</ele>
        <time>2021-11-14T14:59:53.376Z</time>
      </trkpt>
      <trkpt lat="47.547574" lon="7.876801">
        <ele>377.975599</ele>
        <time>2021-11-14T15:00:12.372Z</time>
      </trkpt>
      <trkpt lat="47.547992" lon="7.877974">
        <ele>377.128870</ele>
        <time>2021-11-14T15:00:25.173Z</time>
      </trkpt>
      <trkpt lat="47.548234" lon="7.878638">
        <ele>376.647167</ele>
        <time>2021-11-14T15:00:30.485Z</time>
      </trkpt>
      <trkpt lat="47.548422" lon="7.878959">
        <ele>376.130162</ele>
        <time>2021-11-14T15:00:33.328Z</time>
      </trkpt>
      <trkpt lat="47.548718" lon="7.879258">
        <ele>374.629622</ele>
        <time>2021-11-14T15:00:36.866Z</time>
      </trkpt>
      <trkpt lat="47.549140" lon="7.879391">
        <ele>372.822528</ele>
        <time>2021-11-14T15:00:41.053Z</time>
      </trkpt>
      <trkpt lat="47.549318" lon="7.879398">
        <ele>372.076714</ele>
        <time>2021-11-14T15:00:42.680Z</time>
      </trkpt>
      <trkpt lat="47.549327" lon="7.879547">
        <ele>371.653800</ele>
        <time>2021-11-14T15:00:43.666Z</time>
      </trkpt>
      <trkpt lat="47.549726" lon="7.880786">
        <ele>367.937335</ele>
        <time>2021-11-14T15:00:52.601Z</time>
      </trkpt>
      <trkpt lat="47.549927" lon="7.881490">
        <ele>366.087883</ele>
        <time>2021-11-14T15:00:57.633Z</time>
      </trkpt>
      <trkpt lat="47.550234" lon="7.883221">
        <ele>361.607092</ele>
        <time>2021-11-14T15:01:10.033Z</time>
      </trkpt>
      <trkpt lat="47.550332" lon="7.884727">
        <ele>357.169189</ele>
        <time>2021-11-14T15:01:19.878Z</time>
      </trkpt>
      <trkpt lat="47.550391" lon="7.885109">
        <ele>356.019739</ele>
        <time>2021-11-14T15:01:22.410Z</time>
      </trkpt>
      <trkpt lat="47.550548" lon="7.885799">
        <ele>353.649178</ele>
        <time>2021-11-14T15:01:27.013Z</time>
      </trkpt>
      <trkpt lat="47.550677" lon="7.886476">
        <ele>350.953252</ele>
        <time>2021-11-14T15:01:31.439Z</time>
      </trkpt>
      <trkpt lat="47.550758" lon="7.887295">
        <ele>347.781031</ele>
        <time>2021-11-14T15:01:36.583Z</time>
      </trkpt>
      <trkpt lat="47.550789" lon="7.887816">
        <ele>345.776629</ele>
        <time>2021-11-14T15:01:39.815Z</time>
      </trkpt>
      <trkpt lat="47.550804" lon="7.888105">
        <ele>344.665809</ele>
        <time>2021-11-14T15:01:41.620Z</time>
      </trkpt>
      <trkpt lat="47.550831" lon="7.888611">
        <ele>342.547039</ele>
        <time>2021-11-14T15:01:44.769Z</time>
      </trkpt>
      <trkpt lat="47.550833" lon="7.889069">
        <ele>340.614285</ele>
        <time>2021-11-14T15:01:47.579Z</time>
      </trkpt>
      <trkpt lat="47.550915" lon="7.890600">
        <ele>334.133317</ele>
        <time>2021-11-14T15:01:56.975Z</time>
      </trkpt>
      <trkpt lat="47.550904" lon="7.891725">
        <ele>330.709857</ele>
        <time>2021-11-14T15:02:03.980Z</time>
      </trkpt>
      <trkpt lat="47.550892" lon="7.893176">
        <ele>326.717378</ele>
        <time>2021-11-14T15:02:13.593Z</time>
      </trkpt>
      <trkpt lat="47.550908" lon="7.894308">
        <ele>325.161881</ele>
        <time>2021-11-14T15:02:22.798Z</time>
      </trkpt>
      <trkpt lat="47.550878" lon="7.895158">
        <ele>324.438446</ele>
        <time>2021-11-14T15:02:29.983Z</time>
      </trkpt>
      <trkpt lat="47.550838" lon="7.895509">
        <ele>324.135895</ele>
        <time>2021-11-14T15:02:33.147Z</time>
      </trkpt>
      <trkpt lat="47.550660" lon="7.896255">
        <ele>323.310951</ele>
        <time>2021-11-14T15:02:39.635Z</time>
      </trkpt>
      <trkpt lat="47.550639" lon="7.896345">
        <ele>323.135604</ele>
        <time>2021-11-14T15:02:40.822Z</time>
      </trkpt>
      <trkpt lat="47.550648" lon="7.896481">
        <ele>322.883977</ele>
        <time>2021-11-14T15:02:41.777Z</time>
      </trkpt>
      <trkpt lat="47.550819" lon="7.898109">
        <ele>319.850156</ele>
        <time>2021-11-14T15:02:53.525Z</time>
      </trkpt>
      <trkpt lat="47.550801" lon="7.900244">
        <ele>314.364789</ele>
        <time>2021-11-14T15:03:07.363Z</time>
      </trkpt>
      <trkpt lat="47.550769" lon="7.901362">
        <ele>311.147879</ele>
        <time>2021-11-14T15:03:14.634Z</time>
      </trkpt>
      <trkpt lat="47.550757" lon="7.901591">
        <ele>310.563417</ele>
        <time>2021-11-14T15:03:16.771Z</time>
      </trkpt>
      <trkpt lat="47.550688" lon="7.902451">
        <ele>308.424445</ele>
        <time>2021-11-14T15:03:25.205Z</time>
      </trkpt>
      <trkpt lat="47.550498" lon="7.903445">
        <ele>305.872918</ele>
        <time>2021-11-14T15:03:35.455Z</time>
      </trkpt>
      <trkpt lat="47.550302" lon="7.904164">
        <ele>303.955895</ele>
        <time>2021-11-14T15:03:42.714Z</time>
      </trkpt>
      <trkpt lat="47.550025" lon="7.904774">
        <ele>302.133102</ele>
        <time>2021-11-14T15:03:49.639Z</time>
      </trkpt>
      <trkpt lat="47.549868" lon="7.905010">
        <ele>301.311545</ele>
        <time>2021-11-14T15:03:52.771Z</time>
      </trkpt>
      <trkpt lat="47.549867" lon="7.905155">
        <ele>300.952028</ele>
        <time>2021-11-14T15:03:54.168Z</time>
      </trkpt>
      <trkpt lat="47.550067" lon="7.905245">
        <ele>300.184225</ele>
        <time>2021-11-14T15:03:57.093Z</time>
      </trkpt>
      <trkpt lat="47.550283" lon="7.905413">
        <ele>299.288105</ele>
        <time>2021-11-14T15:04:00.543Z</time>
      </trkpt>
      <trkpt lat="47.550497" lon="7.905558">
        <ele>298.423712</ele>
        <time>2021-11-14T15:04:03.902Z</time>
      </trkpt>
      <trkpt lat="47.549539" lon="7.908625">
        <ele>293.118482</ele>
        <time>2021-11-14T15:04:28.351Z</time>
      </trkpt>
      <trkpt lat="47.549520" lon="7.908678">
        <ele>293.062081</ele>
        <time>2021-11-14T15:04:28.847Z</time>
      </trkpt>
      <trkpt lat="47.549387" lon="7.909120">
        <ele>292.607268</ele>
        <time>2021-11-14T15:04:32.802Z</time>
      </trkpt>
      <trkpt lat="47.549315" lon="7.909358">
        <ele>292.362149</ele>
        <time>2021-11-14T15:04:34.896Z</time>
      </trkpt>
      <trkpt lat="47.549241" lon="7.909603">
        <ele>292.109888</ele>
        <time>2021-11-14T15:04:37.124Z</time>
      </trkpt>
      <trkpt lat="47.549195" lon="7.909756">
        <ele>291.952474</ele>
        <time>2021-11-14T15:04:38.474Z</time>
      </trkpt>
      <trkpt lat="47.549102" lon="7.910058">
        <ele>291.640500</ele>
        <time>2021-11-14T15:04:41.193Z</time>
      </trkpt>
      <trkpt lat="47.549012" lon="7.910340">
        <ele>291.347333</ele>
        <time>2021-11-14T15:04:43.694Z</time>
      </trkpt>
      <trkpt lat="47.548412" lon="7.912168">
        <ele>289.806457</ele>
        <time>2021-11-14T15:05:00.030Z</time>
      </trkpt>
      <trkpt lat="47.548027" lon="7.913334">
        <ele>289.056326</ele>
        <time>2021-11-14T15:05:10.791Z</time>
      </trkpt>
      <trkpt lat="47.547994" lon="7.913433">
        <ele>289.034613</ele>
        <time>2021-11-14T15:05:11.712Z</time>
      </trkpt>
      <trkpt lat="47.547423" lon="7.915080">
        <ele>288.670502</ele>
        <time>2021-11-14T15:05:29.200Z</time>
      </trkpt>
      <trkpt lat="47.547113" lon="7.915971">
        <ele>288.832670</ele>
        <time>2021-11-14T15:05:39.838Z</time>
      </trkpt>
      <trkpt lat="47.547091" lon="7.916039">
        <ele>288.858685</ele>
        <time>2021-11-14T15:05:40.888Z</time>
      </trkpt>
      <trkpt lat="47.547032" lon="7.916218">
        <ele>288.927408</ele>
        <time>2021-11-14T15:05:43.158Z</time>
      </trkpt>
      <trkpt lat="47.546821" lon="7.916867">
        <ele>289.175926</ele>
        <time>2021-11-14T15:05:51.573Z</time>
      </trkpt>
      <trkpt lat="47.546262" lon="7.919081">
        <ele>289.819905</ele>
        <time>2021-11-14T15:06:19.235Z</time>
      </trkpt>
      <trkpt lat="47.546128" lon="7.919617">
        <ele>289.944873</ele>
        <time>2021-11-14T15:06:24.663Z</time>
      </trkpt>
      <trkpt lat="47.545973" lon="7.920313">
        <ele>290.105112</ele>
        <time>2021-11-14T15:06:32.082Z</time>
      </trkpt>
      <trkpt lat="47.545913" lon="7.920765">
        <ele>290.469375</ele>
        <time>2021-11-14T15:06:36.840Z</time>
      </trkpt>
      <trkpt lat="47.545881" lon="7.921096">
        <ele>290.734943</ele>
        <time>2021-11-14T15:06:40.807Z</time>
      </trkpt>
      <trkpt lat="47.545810" lon="7.921755">
        <ele>291.264955</ele>
        <time>2021-11-14T15:06:49.417Z</time>
      </trkpt>
      <trkpt lat="47.545778" lon="7.921947">
        <ele>291.422023</ele>
        <time>2021-11-14T15:06:52.370Z</time>
      </trkpt>
      <trkpt lat="47.545714" lon="7.922249">
        <ele>291.673420</ele>
        <time>2021-11-14T15:06:56.224Z</time>
      </trkpt>
      <trkpt lat="47.545699" lon="7.922325">
        <ele>291.736307</ele>
        <time>2021-11-14T15:06:57.421Z</time>
      </trkpt>
      <trkpt lat="47.545690" lon="7.922369">
        <ele>291.772822</ele>
        <time>2021-11-14T15:06:58.493Z</time>
      </trkpt>
      <trkpt lat="47.545641" lon="7.922610">
        <ele>291.972723</ele>
        <time>2021-11-14T15:07:01.848Z</time>
      </trkpt>
      <trkpt lat="47.545587" lon="7.922895">
        <ele>292.207823</ele>
        <time>2021-11-14T15:07:06.680Z</time>
      </trkpt>
      <trkpt lat="47.545553" lon="7.923142">
        <ele>292.792258</ele>
        <time>2021-11-14T15:07:10.291Z</time>
      </trkpt>
      <trkpt lat="47.545536" lon="7.923407">
        <ele>293.440386</ele>
        <time>2021-11-14T15:07:15.167Z</time>
      </trkpt>
      <trkpt lat="47.545521" lon="7.923709">
        <ele>294.177683</ele>
        <time>2021-11-14T15:07:20.334Z</time>
      </trkpt>
      <trkpt lat="47.545481" lon="7.924396">
        <ele>295.856601</ele>
        <time>2021-11-14T15:07:34.937Z</time>
      </trkpt>
      <trkpt lat="47.545466" lon="7.924880">
        <ele>297.036286</ele>
        <time>2021-11-14T15:07:46.243Z</time>
      </trkpt>
      <trkpt lat="47.545446" lon="7.925350">
        <ele>298.182915</ele>
        <time>2021-11-14T15:07:56.618Z</time>
      </trkpt>
      <trkpt lat="47.545417" lon="7.925848">
        <ele>299.149187</ele>
        <time>2021-11-14T15:08:07.097Z</time>
      </trkpt>
      <trkpt lat="47.545409" lon="7.926773">
        <ele>300.583069</ele>
        <time>2021-11-14T15:08:24.298Z</time>
      </trkpt>
      <trkpt lat="47.545407" lon="7.927001">
        <ele>300.936502</ele>
        <time>2021-11-14T15:08:28.107Z</time>
      </trkpt>
      <trkpt lat="47.545406" lon="7.927306">
        <ele>301.409263</ele>
        <time>2021-11-14T15:08:32.712Z</time>
      </trkpt>
      <trkpt lat="47.545421" lon="7.927686">
        <ele>301.999275</ele>
        <time>2021-11-14T15:08:38.247Z</time>
      </trkpt>
      <trkpt lat="47.545475" lon="7.928419">
        <ele>302.657787</ele>
        <time>2021-11-14T15:08:47.565Z</time>
      </trkpt>
      <trkpt lat="47.545563" lon="7.929641">
        <ele>301.508043</ele>
        <time>2021-11-14T15:08:57.444Z</time>
      </trkpt>
      <trkpt lat="47.545661" lon="7.930955">
        <ele>300.278899</ele>
        <time>2021-11-14T15:09:06.840Z</time>
      </trkpt>
      <trkpt lat="47.545696" lon="7.931497">
        <ele>299.820917</ele>
        <time>2021-11-14T15:09:10.809Z</time>
      </trkpt>
      <trkpt lat="47.545721" lon="7.931992">
        <ele>299.403386</ele>
        <time>2021-11-14T15:09:14.601Z</time>
      </trkpt>
      <trkpt lat="47.545724" lon="7.932758">
        <ele>298.759058</ele>
        <time>2021-11-14T15:09:20.811Z</time>
      </trkpt>
      <trkpt lat="47.545702" lon="7.933290">
        <ele>298.310730</ele>
        <time>2021-11-14T15:09:25.454Z</time>
      </trkpt>
      <trkpt lat="47.545674" lon="7.933625">
        <ele>298.164112</ele>
        <time>2021-11-14T15:09:28.654Z</time>
      </trkpt>
      <trkpt lat="47.545457" lon="7.935110">
        <ele>299.106837</ele>
        <time>2021-11-14T15:09:46.811Z</time>
      </trkpt>
      <trkpt lat="47.545074" lon="7.936484">
        <ele>300.267140</ele>
        <time>2021-11-14T15:10:08.316Z</time>
      </trkpt>
      <trkpt lat="47.545017" lon="7.936630">
        <ele>300.463996</ele>
        <time>2021-11-14T15:10:10.815Z</time>
      </trkpt>
      <trkpt lat="47.544903" lon="7.936917">
        <ele>300.852668</ele>
        <time>2021-11-14T15:10:15.633Z</time>
      </trkpt>
      <trkpt lat="47.544705" lon="7.937395">
        <ele>301.507248</ele>
        <time>2021-11-14T15:10:23.817Z</time>
      </trkpt>
      <trkpt lat="47.544472" lon="7.937932">
        <ele>302.252340</ele>
        <time>2021-11-14T15:10:33.244Z</time>
      </trkpt>
      <trkpt lat="47.543826" lon="7.939433">
        <ele>304.287120</ele>
        <time>2021-11-14T15:10:59.899Z</time>
      </trkpt>
      <trkpt lat="47.543435" lon="7.940670">
        <ele>305.834509</ele>
        <time>2021-11-14T15:11:19.735Z</time>
      </trkpt>
      <trkpt lat="47.543190" lon="7.942046">
        <ele>306.408004</ele>
        <time>2021-11-14T15:11:38.305Z</time>
      </trkpt>
      <trkpt lat="47.543161" lon="7.942213">
        <ele>306.473197</ele>
        <time>2021-11-14T15:11:40.586Z</time>
      </trkpt>
      <trkpt lat="47.543007" lon="7.943867">
        <ele>306.385635</ele>
        <time>2021-11-14T15:11:56.201Z</time>
      </trkpt>
      <trkpt lat="47.542913" lon="7.945267">
        <ele>305.090871</ele>
        <time>2021-11-14T15:12:07.179Z</time>
      </trkpt>
      <trkpt lat="47.542872" lon="7.945781">
        <ele>304.614550</ele>
        <time>2021-11-14T15:12:10.996Z</time>
      </trkpt>
      <trkpt lat="47.542875" lon="7.946089">
        <ele>304.313030</ele>
        <time>2021-11-14T15:12:13.230Z</time>
      </trkpt>
      <trkpt lat="47.542902" lon="7.946514">
        <ele>303.856866</ele>
        <time>2021-11-14T15:12:16.324Z</time>
      </trkpt>
      <trkpt lat="47.542943" lon="7.946806">
        <ele>303.538155</ele>
        <time>2021-11-14T15:12:18.535Z</time>
      </trkpt>
      <trkpt lat="47.542974" lon="7.946965">
        <ele>303.361302</ele>
        <time>2021-11-14T15:12:19.843Z</time>
      </trkpt>
      <trkpt lat="47.542979" lon="7.946989">
        <ele>303.334462</ele>
        <time>2021-11-14T15:12:19.999Z</time>
      </trkpt>
      <trkpt lat="47.542989" lon="7.947104">
        <ele>303.210558</ele>
        <time>2021-11-14T15:12:20.870Z</time>
      </trkpt>
      <trkpt lat="47.542984" lon="7.947304">
        <ele>302.996691</ele>
        <time>2021-11-14T15:12:22.445Z</time>
      </trkpt>
      <trkpt lat="47.542979" lon="7.947370">
        <ele>302.925720</ele>
        <time>2021-11-14T15:12:22.947Z</time>
      </trkpt>
      <trkpt lat="47.542935" lon="7.947564">
        <ele>302.707023</ele>
        <time>2021-11-14T15:12:24.514Z</time>
      </trkpt>
      <trkpt lat="47.542892" lon="7.947789">
        <ele>302.457137</ele>
        <time>2021-11-14T15:12:26.432Z</time>
      </trkpt>
      <trkpt lat="47.542875" lon="7.948001">
        <ele>302.229000</ele>
        <time>2021-11-14T15:12:28.248Z</time>
      </trkpt>
      <trkpt lat="47.542838" lon="7.948225">
        <ele>301.982570</ele>
        <time>2021-11-14T15:12:30.033Z</time>
      </trkpt>
      <trkpt lat="47.542826" lon="7.948298">
        <ele>301.902282</ele>
        <time>2021-11-14T15:12:30.654Z</time>
      </trkpt>
      <trkpt lat="47.542719" lon="7.949175">
        <ele>301.396466</ele>
        <time>2021-11-14T15:12:37.879Z</time>
      </trkpt>
      <trkpt lat="47.542609" lon="7.949914">
        <ele>301.146967</ele>
        <time>2021-11-14T15:12:44.653Z</time>
      </trkpt>
      <trkpt lat="47.542560" lon="7.950202">
        <ele>301.049044</ele>
        <time>2021-11-14T15:12:47.522Z</time>
      </trkpt>
      <trkpt lat="47.542554" lon="7.950231">
        <ele>301.039044</ele>
        <time>2021-11-14T15:12:47.797Z</time>
      </trkpt>
      <trkpt lat="47.542546" lon="7.950274">
        <ele>301.024338</ele>
        <time>2021-11-14T15:12:48.202Z</time>
      </trkpt>
      <trkpt lat="47.542444" lon="7.950687">
        <ele>300.879346</ele>
        <time>2021-11-14T15:12:52.664Z</time>
      </trkpt>
      <trkpt lat="47.542357" lon="7.951037">
        <ele>300.756377</ele>
        <time>2021-11-14T15:12:56.308Z</time>
      </trkpt>
      <trkpt lat="47.542192" lon="7.951713">
        <ele>300.614228</ele>
        <time>2021-11-14T15:13:03.256Z</time>
      </trkpt>
      <trkpt lat="47.542169" lon="7.951815">
        <ele>300.595770</ele>
        <time>2021-11-14T15:13:04.184Z</time>
      </trkpt>
      <trkpt lat="47.541991" lon="7.952667">
        <ele>300.442687</ele>
        <time>2021-11-14T15:13:12.465Z</time>
      </trkpt>
      <trkpt lat="47.541791" lon="7.953601">
        <ele>300.274499</ele>
        <time>2021-11-14T15:13:21.516Z</time>
      </trkpt>
      <trkpt lat="47.541773" lon="7.953695">
        <ele>300.266167</ele>
        <time>2021-11-14T15:13:22.452Z</time>
      </trkpt>
      <trkpt lat="47.541735" lon="7.953892">
        <ele>300.367984</ele>
        <time>2021-11-14T15:13:24.335Z</time>
      </trkpt>
      <trkpt lat="47.541660" lon="7.954250">
        <ele>300.554261</ele>
        <time>2021-11-14T15:13:28.094Z</time>
      </trkpt>
      <trkpt lat="47.541530" lon="7.954936">
        <ele>300.908344</ele>
        <time>2021-11-14T15:13:35.315Z</time>
      </trkpt>
      <trkpt lat="47.541482" lon="7.955294">
        <ele>301.089727</ele>
        <time>2021-11-14T15:13:39.363Z</time>
      </trkpt>
      <trkpt lat="47.541465" lon="7.955512">
        <ele>301.198782</ele>
        <time>2021-11-14T15:13:41.698Z</time>
      </trkpt>
      <trkpt lat="47.541442" lon="7.955866">
        <ele>301.375514</ele>
        <time>2021-11-14T15:13:46.991Z</time>
      </trkpt>
      <trkpt lat="47.541410" lon="7.956569">
        <ele>302.185664</ele>
        <time>2021-11-14T15:13:58.291Z</time>
      </trkpt>
      <trkpt lat="47.541404" lon="7.956677">
        <ele>302.414357</ele>
        <time>2021-11-14T15:14:00.397Z</time>
      </trkpt>
      <trkpt lat="47.541280" lon="7.957569">
        <ele>304.336331</ele>
        <time>2021-11-14T15:14:16.045Z</time>
      </trkpt>
      <trkpt lat="47.541237" lon="7.957756">
        <ele>304.753242</ele>
        <time>2021-11-14T15:14:20.393Z</time>
      </trkpt>
      <trkpt lat="47.541141" lon="7.958127">
        <ele>305.591751</ele>
        <time>2021-11-14T15:14:27.944Z</time>
      </trkpt>
      <trkpt lat="47.540957" lon="7.959132">
        <ele>307.767648</ele>
        <time>2021-11-14T15:14:49.386Z</time>
      </trkpt>
      <trkpt lat="47.540954" lon="7.959705">
        <ele>308.931920</ele>
        <time>2021-11-14T15:15:00.813Z</time>
      </trkpt>
      <trkpt lat="47.540979" lon="7.959950">
        <ele>309.435373</ele>
        <time>2021-11-14T15:15:06.263Z</time>
      </trkpt>
      <trkpt lat="47.541002" lon="7.960092">
        <ele>309.732081</ele>
        <time>2021-11-14T15:15:08.857Z</time>
      </trkpt>
      <trkpt lat="47.541060" lon="7.960321">
        <ele>310.229040</ele>
        <time>2021-11-14T15:15:13.579Z</time>
      </trkpt>
      <trkpt lat="47.541153" lon="7.960814">
        <ele>311.269104</ele>
        <time>2021-11-14T15:15:22.148Z</time>
      </trkpt>
      <trkpt lat="47.541242" lon="7.961294">
        <ele>312.280496</ele>
        <time>2021-11-14T15:15:30.107Z</time>
      </trkpt>
      <trkpt lat="47.541316" lon="7.962197">
        <ele>313.169996</ele>
        <time>2021-11-14T15:15:43.223Z</time>
      </trkpt>
      <trkpt lat="47.541314" lon="7.962377">
        <ele>313.303248</ele>
        <time>2021-11-14T15:15:45.864Z</time>
      </trkpt>
      <trkpt lat="47.541308" lon="7.962513">
        <ele>313.404128</ele>
        <time>2021-11-14T15:15:47.214Z</time>
      </trkpt>
      <trkpt lat="47.541293" lon="7.962730">
        <ele>313.565589</ele>
        <time>2021-11-14T15:15:49.576Z</time>
      </trkpt>
      <trkpt lat="47.541258" lon="7.962975">
        <ele>313.750951</ele>
        <time>2021-11-14T15:15:52.968Z</time>
      </trkpt>
      <trkpt lat="47.541217" lon="7.963187">
        <ele>313.914183</ele>
        <time>2021-11-14T15:15:55.024Z</time>
      </trkpt>
      <trkpt lat="47.541123" lon="7.963520">
        <ele>314.181348</ele>
        <time>2021-11-14T15:15:59.806Z</time>
      </trkpt>
      <trkpt lat="47.541019" lon="7.963815">
        <ele>314.427687</ele>
        <time>2021-11-14T15:16:04.064Z</time>
      </trkpt>
      <trkpt lat="47.541129" lon="7.964008">
        <ele>314.609291</ele>
        <time>2021-11-14T15:16:06.796Z</time>
      </trkpt>
      <trkpt lat="47.541169" lon="7.964123">
        <ele>314.681591</ele>
        <time>2021-11-14T15:16:07.962Z</time>
      </trkpt>
      <trkpt lat="47.541095" lon="7.964204">
        <ele>314.757763</ele>
        <time>2021-11-14T15:16:10.361Z</time>
      </trkpt>
      <trkpt lat="47.540896" lon="7.964711">
        <ele>315.085523</ele>
        <time>2021-11-14T15:16:17.389Z</time>
      </trkpt>
      <trkpt lat="47.540214" lon="7.967628">
        <ele>317.197500</ele>
        <time>2021-11-14T15:16:55.236Z</time>
      </trkpt>
      <trkpt lat="47.539783" lon="7.969587">
        <ele>319.419614</ele>
        <time>2021-11-14T15:17:24.935Z</time>
      </trkpt>
      <trkpt lat="47.539262" lon="7.971768">
        <ele>322.939884</ele>
        <time>2021-11-14T15:18:03.886Z</time>
      </trkpt>
      <trkpt lat="47.538706" lon="7.974459">
        <ele>327.276617</ele>
        <time>2021-11-14T15:18:49.683Z</time>
      </trkpt>
      <trkpt lat="47.538242" lon="7.976347">
        <ele>330.036621</ele>
        <time>2021-11-14T15:19:20.501Z</time>
      </trkpt>
      <trkpt lat="47.538107" lon="7.977240">
        <ele>330.849215</ele>
        <time>2021-11-14T15:19:34.194Z</time>
      </trkpt>
      <trkpt lat="47.537955" lon="7.978125">
        <ele>331.569191</ele>
        <time>2021-11-14T15:19:47.738Z</time>
      </trkpt>
      <trkpt lat="47.537583" lon="7.979760">
        <ele>331.439413</ele>
        <time>2021-11-14T15:20:06.036Z</time>
      </trkpt>
      <trkpt lat="47.537461" lon="7.980118">
        <ele>330.941192</ele>
        <time>2021-11-14T15:20:09.045Z</time>
      </trkpt>
      <trkpt lat="47.537107" lon="7.981082">
        <ele>329.577831</ele>
        <time>2021-11-14T15:20:16.855Z</time>
      </trkpt>
      <trkpt lat="47.536959" lon="7.981602">
        <ele>328.725335</ele>
        <time>2021-11-14T15:20:20.666Z</time>
      </trkpt>
      <trkpt lat="47.536896" lon="7.981697">
        <ele>328.407448</ele>
        <time>2021-11-14T15:20:21.578Z</time>
      </trkpt>
      <trkpt lat="47.536842" lon="7.981878">
        <ele>327.935065</ele>
        <time>2021-11-14T15:20:22.888Z</time>
      </trkpt>
      <trkpt lat="47.536775" lon="7.982096">
        <ele>327.363279</ele>
        <time>2021-11-14T15:20:24.457Z</time>
      </trkpt>
      <trkpt lat="47.536764" lon="7.982225">
        <ele>327.052889</ele>
        <time>2021-11-14T15:20:25.328Z</time>
      </trkpt>
      <trkpt lat="47.536530" lon="7.982859">
        <ele>325.328025</ele>
        <time>2021-11-14T15:20:30.085Z</time>
      </trkpt>
      <trkpt lat="47.536410" lon="7.983244">
        <ele>324.315746</ele>
        <time>2021-11-14T15:20:32.928Z</time>
      </trkpt>
      <trkpt lat="47.536849" lon="7.983808">
        <ele>322.358823</ele>
        <time>2021-11-14T15:20:38.760Z</time>
      </trkpt>
      <trkpt lat="47.537175" lon="7.984220">
        <ele>321.196479</ele>
        <time>2021-11-14T15:20:43.315Z</time>
      </trkpt>
      <trkpt lat="47.537732" lon="7.984941">
        <ele>319.190100</ele>
        <time>2021-11-14T15:20:50.904Z</time>
      </trkpt>
      <trkpt lat="47.537773" lon="7.984992">
        <ele>319.044882</ele>
        <time>2021-11-14T15:20:51.568Z</time>
      </trkpt>
      <trkpt lat="47.538160" lon="7.985490">
        <ele>317.721375</ele>
        <time>2021-11-14T15:20:56.986Z</time>
      </trkpt>
      <trkpt lat="47.538208" lon="7.985592">
        <ele>317.596580</ele>
        <time>2021-11-14T15:20:57.877Z</time>
      </trkpt>
      <trkpt lat="47.537884" lon="7.985939">
        <ele>317.002156</ele>
        <time>2021-11-14T15:21:02.378Z</time>
      </trkpt>
      <trkpt lat="47.537812" lon="7.986127">
        <ele>316.785211</ele>
        <time>2021-11-14T15:21:04.374Z</time>
      </trkpt>
      <trkpt lat="47.537815" lon="7.986191">
        <ele>316.720820</ele>
        <time>2021-11-14T15:21:04.773Z</time>
      </trkpt>
      <trkpt lat="47.537821" lon="7.986433">
        <ele>316.477760</ele>
        <time>2021-11-14T15:21:06.555Z</time>
      </trkpt>
      <trkpt lat="47.537897" lon="7.986428">
        <ele>316.364656</ele>
        <time>2021-11-14T15:21:07.768Z</time>
      </trkpt>
      <trkpt lat="47.538277" lon="7.986431">
        <ele>315.799687</ele>
        <time>2021-11-14T15:21:12.100Z</time>
      </trkpt>
      <trkpt lat="47.538514" lon="7.986428">
        <ele>315.447317</ele>
        <time>2021-11-14T15:21:14.697Z</time>
      </trkpt>
      <trkpt lat="47.538630" lon="7.986438">
        <ele>315.274563</ele>
        <time>2021-11-14T15:21:16.632Z</time>
      </trkpt>
      <trkpt lat="47.539274" lon="7.986488">
        <ele>315.027462</ele>
        <time>2021-11-14T15:21:25.106Z</time>
      </trkpt>
      <trkpt lat="47.539415" lon="7.986507">
        <ele>315.001295</ele>
        <time>2021-11-14T15:21:27.826Z</time>
      </trkpt>
      <trkpt lat="47.539549" lon="7.986535">
        <ele>314.976284</ele>
        <time>2021-11-14T15:21:29.882Z</time>
      </trkpt>
      <trkpt lat="47.539952" lon="7.986630">
        <ele>314.900866</ele>
        <time>2021-11-14T15:21:36.534Z</time>
      </trkpt>
      <trkpt lat="47.540347" lon="7.986737">
        <ele>314.826653</ele>
        <time>2021-11-14T15:21:42.227Z</time>
      </trkpt>
      <trkpt lat="47.540335" lon="7.986933">
        <ele>314.802099</ele>
        <time>2021-11-14T15:21:44.065Z</time>
      </trkpt>
      <trkpt lat="47.540321" lon="7.987087">
        <ele>314.761481</ele>
        <time>2021-11-14T15:21:45.389Z</time>
      </trkpt>
      <trkpt lat="47.539978" lon="7.988189">
        <ele>314.369439</ele>
        <time>2021-11-14T15:21:56.575Z</time>
      </trkpt>
      <trkpt lat="47.539990" lon="7.989097">
        <ele>314.076035</ele>
        <time>2021-11-14T15:22:04.411Z</time>
      </trkpt>
      <trkpt lat="47.540011" lon="7.990131">
        <ele>313.802912</ele>
        <time>2021-11-14T15:22:13.508Z</time>
      </trkpt>
      <trkpt lat="47.540018" lon="7.990553">
        <ele>313.709594</ele>
        <time>2021-11-14T15:22:17.260Z</time>
      </trkpt>
      <trkpt lat="47.540056" lon="7.990982">
        <ele>313.613944</ele>
        <time>2021-11-14T15:22:21.176Z</time>
      </trkpt>
      <trkpt lat="47.540104" lon="7.991287">
        <ele>313.544711</ele>
        <time>2021-11-14T15:22:24.063Z</time>
      </trkpt>
      <trkpt lat="47.540140" lon="7.991504">
        <ele>313.495313</ele>
        <time>2021-11-14T15:22:40.679Z</time>
      </trkpt>
      <trkpt lat="47.540194" lon="7.991768">
        <ele>313.434331</ele>
        <time>2021-11-14T15:22:43.316Z</time>
      </trkpt>
      <trkpt lat="47.540262" lon="7.992244">
        <ele>313.388883</ele>
        <time>2021-11-14T15:22:48.111Z</time>
      </trkpt>
      <trkpt lat="47.540316" lon="7.993620">
        <ele>314.053641</ele>
        <time>2021-11-14T15:23:03.934Z</time>
      </trkpt>
      <trkpt lat="47.540089" lon="7.994896">
        <ele>314.871185</ele>
        <time>2021-11-14T15:23:20.659Z</time>
      </trkpt>
      <trkpt lat="47.540013" lon="7.995140">
        <ele>315.400333</ele>
        <time>2021-11-14T15:23:24.586Z</time>
      </trkpt>
      <trkpt lat="47.539876" lon="7.995796">
        <ele>316.752497</ele>
        <time>2021-11-14T15:23:34.213Z</time>
      </trkpt>
      <trkpt lat="47.539838" lon="7.996117">
        <ele>317.394240</ele>
        <time>2021-11-14T15:23:39.950Z</time>
      </trkpt>
      <trkpt lat="47.539726" lon="7.997265">
        <ele>319.678317</ele>
        <time>2021-11-14T15:24:04.099Z</time>
      </trkpt>
      <trkpt lat="47.539590" lon="7.998122">
        <ele>323.332897</ele>
        <time>2021-11-14T15:24:24.134Z</time>
      </trkpt>
      <trkpt lat="47.539569" lon="7.998315">
        <ele>324.199904</ele>
        <time>2021-11-14T15:24:29.826Z</time>
      </trkpt>
      <trkpt lat="47.539365" lon="8.001150">
        <ele>337.193184</ele>
        <time>2021-11-14T15:25:56.527Z</time>
      </trkpt>
      <trkpt lat="47.539400" lon="8.001871">
        <ele>340.616185</ele>
        <time>2021-11-14T15:26:18.503Z</time>
      </trkpt>
      <trkpt lat="47.539437" lon="8.002525">
        <ele>343.723956</ele>
        <time>2021-11-14T15:26:36.973Z</time>
      </trkpt>
      <trkpt lat="47.539437" lon="8.002963">
        <ele>344.958360</ele>
        <time>2021-11-14T15:26:47.970Z</time>
      </trkpt>
      <trkpt lat="47.539434" lon="8.003156">
        <ele>345.356415</ele>
        <time>2021-11-14T15:26:52.652Z</time>
      </trkpt>
      <trkpt lat="47.539492" lon="8.004516">
        <ele>348.166208</ele>
        <time>2021-11-14T15:27:19.525Z</time>
      </trkpt>
      <trkpt lat="47.539590" lon="8.005890">
        <ele>349.624035</ele>
        <time>2021-11-14T15:27:34.059Z</time>
      </trkpt>
      <trkpt lat="47.539569" lon="8.007914">
        <ele>349.002322</ele>
        <time>2021-11-14T15:27:50.833Z</time>
      </trkpt>
      <trkpt lat="47.539645" lon="8.009866">
        <ele>349.559827</ele>
        <time>2021-11-14T15:28:11.662Z</time>
      </trkpt>
      <trkpt lat="47.539703" lon="8.011107">
        <ele>350.182945</ele>
        <time>2021-11-14T15:28:28.275Z</time>
      </trkpt>
      <trkpt lat="47.539798" lon="8.012369">
        <ele>351.219166</ele>
        <time>2021-11-14T15:28:46.737Z</time>
      </trkpt>
      <trkpt lat="47.539903" lon="8.015200">
        <ele>351.911780</ele>
        <time>2021-11-14T15:29:20.851Z</time>
      </trkpt>
      <trkpt lat="47.539908" lon="8.015397">
        <ele>351.906439</ele>
        <time>2021-11-14T15:29:23.124Z</time>
      </trkpt>
      <trkpt lat="47.539918" lon="8.015722">
        <ele>351.897625</ele>
        <time>2021-11-14T15:29:25.627Z</time>
      </trkpt>
      <trkpt lat="47.539979" lon="8.017566">
        <ele>347.386620</ele>
        <time>2021-11-14T15:29:38.502Z</time>
      </trkpt>
      <trkpt lat="47.540012" lon="8.018657">
        <ele>344.247628</ele>
        <time>2021-11-14T15:29:45.238Z</time>
      </trkpt>
      <trkpt lat="47.540031" lon="8.019456">
        <ele>340.353499</ele>
        <time>2021-11-14T15:29:50.056Z</time>
      </trkpt>
      <trkpt lat="47.540052" lon="8.019825">
        <ele>338.549824</ele>
        <time>2021-11-14T15:29:52.280Z</time>
      </trkpt>
      <trkpt lat="47.540098" lon="8.020321">
        <ele>336.111252</ele>
        <time>2021-11-14T15:29:55.276Z</time>
      </trkpt>
      <trkpt lat="47.540134" lon="8.020585">
        <ele>334.799409</ele>
        <time>2021-11-14T15:29:56.871Z</time>
      </trkpt>
      <trkpt lat="47.540204" lon="8.020975">
        <ele>332.833834</ele>
        <time>2021-11-14T15:29:59.293Z</time>
      </trkpt>
      <trkpt lat="47.540354" lon="8.022332">
        <ele>327.972795</ele>
        <time>2021-11-14T15:30:07.738Z</time>
      </trkpt>
      <trkpt lat="47.540454" lon="8.023022">
        <ele>325.704337</ele>
        <time>2021-11-14T15:30:12.289Z</time>
      </trkpt>
      <trkpt lat="47.540537" lon="8.023536">
        <ele>324.005538</ele>
        <time>2021-11-14T15:30:15.903Z</time>
      </trkpt>
      <trkpt lat="47.540490" lon="8.024315">
        <ele>322.589134</ele>
        <time>2021-11-14T15:30:21.542Z</time>
      </trkpt>
      <trkpt lat="47.540408" lon="8.025334">
        <ele>321.735077</ele>
        <time>2021-11-14T15:30:29.735Z</time>
      </trkpt>
      <trkpt lat="47.540306" lon="8.026756">
        <ele>320.743108</ele>
        <time>2021-11-14T15:30:42.637Z</time>
      </trkpt>
      <trkpt lat="47.540273" lon="8.028579">
        <ele>320.655916</ele>
        <time>2021-11-14T15:31:00.506Z</time>
      </trkpt>
      <trkpt lat="47.540275" lon="8.029790">
        <ele>320.893851</ele>
        <time>2021-11-14T15:31:13.075Z</time>
      </trkpt>
      <trkpt lat="47.540324" lon="8.030594">
        <ele>321.238666</ele>
        <time>2021-11-14T15:31:22.076Z</time>
      </trkpt>
      <trkpt lat="47.540394" lon="8.031575">
        <ele>321.660022</ele>
        <time>2021-11-14T15:31:33.741Z</time>
      </trkpt>
      <trkpt lat="47.541006" lon="8.038351">
        <ele>330.844639</ele>
        <time>2021-11-14T15:33:14.471Z</time>
      </trkpt>
      <trkpt lat="47.541015" lon="8.038511">
        <ele>331.218733</ele>
        <time>2021-11-14T15:33:17.904Z</time>
      </trkpt>
      <trkpt lat="47.541029" lon="8.038776">
        <ele>331.838073</ele>
        <time>2021-11-14T15:33:25.035Z</time>
      </trkpt>
      <trkpt lat="47.540973" lon="8.039326">
        <ele>333.134074</ele>
        <time>2021-11-14T15:33:38.943Z</time>
      </trkpt>
      <trkpt lat="47.540755" lon="8.039911">
        <ele>334.380141</ele>
        <time>2021-11-14T15:33:54.445Z</time>
      </trkpt>
      <trkpt lat="47.540612" lon="8.040244">
        <ele>334.801403</ele>
        <time>2021-11-14T15:34:02.579Z</time>
      </trkpt>
      <trkpt lat="47.540564" lon="8.040358">
        <ele>334.944815</ele>
        <time>2021-11-14T15:34:04.500Z</time>
      </trkpt>
      <trkpt lat="47.540240" lon="8.040995">
        <ele>335.796139</ele>
        <time>2021-11-14T15:34:15.837Z</time>
      </trkpt>
      <trkpt lat="47.540116" lon="8.041253">
        <ele>336.134192</ele>
        <time>2021-11-14T15:34:19.319Z</time>
      </trkpt>
      <trkpt lat="47.540079" lon="8.041350">
        <ele>336.253115</ele>
        <time>2021-11-14T15:34:20.472Z</time>
      </trkpt>
      <trkpt lat="47.540031" lon="8.041477">
        <ele>336.408475</ele>
        <time>2021-11-14T15:34:21.668Z</time>
      </trkpt>
      <trkpt lat="47.539998" lon="8.041644">
        <ele>336.594211</ele>
        <time>2021-11-14T15:34:24.006Z</time>
      </trkpt>
      <trkpt lat="47.539983" lon="8.041866">
        <ele>336.832359</ele>
        <time>2021-11-14T15:34:27.350Z</time>
      </trkpt>
      <trkpt lat="47.539991" lon="8.042065">
        <ele>336.884179</ele>
        <time>2021-11-14T15:34:31.910Z</time>
      </trkpt>
      <trkpt lat="47.540021" lon="8.042268">
        <ele>336.680285</ele>
        <time>2021-11-14T15:34:37.039Z</time>
      </trkpt>
      <trkpt lat="47.540034" lon="8.042303">
        <ele>336.641089</ele>
        <time>2021-11-14T15:34:37.889Z</time>
      </trkpt>
      <trkpt lat="47.540072" lon="8.042391">
        <ele>336.538593</ele>
        <time>2021-11-14T15:34:40.196Z</time>
      </trkpt>
      <trkpt lat="47.540094" lon="8.042446">
        <ele>336.475867</ele>
        <time>2021-11-14T15:34:40.652Z</time>
      </trkpt>
      <trkpt lat="47.540115" lon="8.042499">
        <ele>336.415570</ele>
        <time>2021-11-14T15:34:41.054Z</time>
      </trkpt>
      <trkpt lat="47.540230" lon="8.042774">
        <ele>336.098174</ele>
        <time>2021-11-14T15:34:43.497Z</time>
      </trkpt>
      <trkpt lat="47.540311" lon="8.043099">
        <ele>335.758258</ele>
        <time>2021-11-14T15:34:45.905Z</time>
      </trkpt>
      <trkpt lat="47.540358" lon="8.043349">
        <ele>335.503633</ele>
        <time>2021-11-14T15:34:47.814Z</time>
      </trkpt>
      <trkpt lat="47.540392" lon="8.043542">
        <ele>335.307927</ele>
        <time>2021-11-14T15:34:49.120Z</time>
      </trkpt>
      <trkpt lat="47.540394" lon="8.043626">
        <ele>335.225459</ele>
        <time>2021-11-14T15:34:49.691Z</time>
      </trkpt>
      <trkpt lat="47.540360" lon="8.044061">
        <ele>334.795802</ele>
        <time>2021-11-14T15:34:52.844Z</time>
      </trkpt>
      <trkpt lat="47.540345" lon="8.044329">
        <ele>334.531948</ele>
        <time>2021-11-14T15:34:55.107Z</time>
      </trkpt>
      <trkpt lat="47.540316" lon="8.044416">
        <ele>334.436748</ele>
        <time>2021-11-14T15:34:56.217Z</time>
      </trkpt>
      <trkpt lat="47.540105" lon="8.044383">
        <ele>334.589144</ele>
        <time>2021-11-14T15:34:59.427Z</time>
      </trkpt>
      <trkpt lat="47.539769" lon="8.044372">
        <ele>335.129732</ele>
        <time>2021-11-14T15:35:06.408Z</time>
      </trkpt>
      <trkpt lat="47.539485" lon="8.044571">
        <ele>335.635076</ele>
        <time>2021-11-14T15:35:14.169Z</time>
      </trkpt>
      <trkpt lat="47.539357" lon="8.044726">
        <ele>335.901004</ele>
        <time>2021-11-14T15:35:18.244Z</time>
      </trkpt>
      <trkpt lat="47.539168" lon="8.044994">
        <ele>336.321848</ele>
        <time>2021-11-14T15:35:24.629Z</time>
      </trkpt>
      <trkpt lat="47.539049" lon="8.045146">
        <ele>336.574594</ele>
        <time>2021-11-14T15:35:28.747Z</time>
      </trkpt>
      <trkpt lat="47.538984" lon="8.045208">
        <ele>336.698948</ele>
        <time>2021-11-14T15:35:30.324Z</time>
      </trkpt>
      <trkpt lat="47.538912" lon="8.045281">
        <ele>336.839290</ele>
        <time>2021-11-14T15:35:32.424Z</time>
      </trkpt>
      <trkpt lat="47.538763" lon="8.045382">
        <ele>337.102859</ele>
        <time>2021-11-14T15:35:36.336Z</time>
      </trkpt>
      <trkpt lat="47.538479" lon="8.045444">
        <ele>337.522406</ele>
        <time>2021-11-14T15:35:42.587Z</time>
      </trkpt>
      <trkpt lat="47.538340" lon="8.045430">
        <ele>337.717351</ele>
        <time>2021-11-14T15:35:45.787Z</time>
      </trkpt>
      <trkpt lat="47.538294" lon="8.045418">
        <ele>337.782707</ele>
        <time>2021-11-14T15:35:46.626Z</time>
      </trkpt>
      <trkpt lat="47.538203" lon="8.045387">
        <ele>337.913362</ele>
        <time>2021-11-14T15:35:48.735Z</time>
      </trkpt>
      <trkpt lat="47.537686" lon="8.045112">
        <ele>338.682003</ele>
        <time>2021-11-14T15:36:00.374Z</time>
      </trkpt>
      <trkpt lat="47.537460" lon="8.044932">
        <ele>339.041049</ele>
        <time>2021-11-14T15:36:05.602Z</time>
      </trkpt>
      <trkpt lat="47.536844" lon="8.044412">
        <ele>339.925110</ele>
        <time>2021-11-14T15:36:18.474Z</time>
      </trkpt>
      <trkpt lat="47.536646" lon="8.044284">
        <ele>340.109161</ele>
        <time>2021-11-14T15:36:21.631Z</time>
      </trkpt>
      <trkpt lat="47.536508" lon="8.044238">
        <ele>340.229670</ele>
        <time>2021-11-14T15:36:24.372Z</time>
      </trkpt>
      <trkpt lat="47.536364" lon="8.044230">
        <ele>340.352436</ele>
        <time>2021-11-14T15:36:26.498Z</time>
      </trkpt>
      <trkpt lat="47.536130" lon="8.044277">
        <ele>340.553616</ele>
        <time>2021-11-14T15:36:30.933Z</time>
      </trkpt>
      <trkpt lat="47.534992" lon="8.044570">
        <ele>341.739249</ele>
        <time>2021-11-14T15:36:52.650Z</time>
      </trkpt>
      <trkpt lat="47.534737" lon="8.044640">
        <ele>342.139520</ele>
        <time>2021-11-14T15:36:58.059Z</time>
      </trkpt>
      <trkpt lat="47.534636" lon="8.044665">
        <ele>342.297566</ele>
        <time>2021-11-14T15:37:00.078Z</time>
      </trkpt>
      <trkpt lat="47.534374" lon="8.044734">
        <ele>342.708282</ele>
        <time>2021-11-14T15:37:05.611Z</time>
      </trkpt>
      <trkpt lat="47.534054" lon="8.044829">
        <ele>343.211996</ele>
        <time>2021-11-14T15:37:12.419Z</time>
      </trkpt>
      <trkpt lat="47.533961" lon="8.044883">
        <ele>343.366169</ele>
        <time>2021-11-14T15:37:14.524Z</time>
      </trkpt>
      <trkpt lat="47.533862" lon="8.044961">
        <ele>343.539239</ele>
        <time>2021-11-14T15:37:17.014Z</time>
      </trkpt>
      <trkpt lat="47.533634" lon="8.045197">
        <ele>343.968551</ele>
        <time>2021-11-14T15:37:23.221Z</time>
      </trkpt>
      <trkpt lat="47.533321" lon="8.045604">
        <ele>344.902375</ele>
        <time>2021-11-14T15:37:33.087Z</time>
      </trkpt>
      <trkpt lat="47.533268" lon="8.045675">
        <ele>345.071446</ele>
        <time>2021-11-14T15:37:34.923Z</time>
      </trkpt>
      <trkpt lat="47.532987" lon="8.046028">
        <ele>345.943179</ele>
        <time>2021-11-14T15:37:43.928Z</time>
      </trkpt>
      <trkpt lat="47.532368" lon="8.046806">
        <ele>347.863888</ele>
        <time>2021-11-14T15:38:04.004Z</time>
      </trkpt>
      <trkpt lat="47.532024" lon="8.047221">
        <ele>348.850552</ele>
        <time>2021-11-14T15:38:15.251Z</time>
      </trkpt>
      <trkpt lat="47.531748" lon="8.047580">
        <ele>349.627231</ele>
        <time>2021-11-14T15:38:24.332Z</time>
      </trkpt>
      <trkpt lat="47.531509" lon="8.047769">
        <ele>350.200096</ele>
        <time>2021-11-14T15:38:30.746Z</time>
      </trkpt>
      <trkpt lat="47.530578" lon="8.048313">
        <ele>352.334793</ele>
        <time>2021-11-14T15:38:52.543Z</time>
      </trkpt>
      <trkpt lat="47.530227" lon="8.048487">
        <ele>353.192721</ele>
        <time>2021-11-14T15:39:00.616Z</time>
      </trkpt>
      <trkpt lat="47.529656" lon="8.048773">
        <ele>354.589849</ele>
        <time>2021-11-14T15:39:14.276Z</time>
      </trkpt>
      <trkpt lat="47.528839" lon="8.049183">
        <ele>356.733575</ele>
        <time>2021-11-14T15:39:36.709Z</time>
      </trkpt>
      <trkpt lat="47.527953" lon="8.049615">
        <ele>359.947619</ele>
        <time>2021-11-14T15:40:04.349Z</time>
      </trkpt>
      <trkpt lat="47.527655" lon="8.049761">
        <ele>361.029152</ele>
        <time>2021-11-14T15:40:14.084Z</time>
      </trkpt>
      <trkpt lat="47.525100" lon="8.051220">
        <ele>369.628465</ele>
        <time>2021-11-14T15:41:29.370Z</time>
      </trkpt>
      <trkpt lat="47.524373" lon="8.051538">
        <ele>371.685948</ele>
        <time>2021-11-14T15:41:47.865Z</time>
      </trkpt>
      <trkpt lat="47.523941" lon="8.051728">
        <ele>372.909092</ele>
        <time>2021-11-14T15:41:59.106Z</time>
      </trkpt>
      <trkpt lat="47.523089" lon="8.052118">
        <ele>375.906297</ele>
        <time>2021-11-14T15:42:22.569Z</time>
      </trkpt>
      <trkpt lat="47.522238" lon="8.052476">
        <ele>378.931612</ele>
        <time>2021-11-14T15:42:49.413Z</time>
      </trkpt>
      <trkpt lat="47.521902" lon="8.052655">
        <ele>380.510141</ele>
        <time>2021-11-14T15:43:00.508Z</time>
      </trkpt>
      <trkpt lat="47.521761" lon="8.052748">
        <ele>381.249667</ele>
        <time>2021-11-14T15:43:05.302Z</time>
      </trkpt>
      <trkpt lat="47.521555" lon="8.052973">
        <ele>382.476068</ele>
        <time>2021-11-14T15:43:13.257Z</time>
      </trkpt>
      <trkpt lat="47.521510" lon="8.053033">
        <ele>382.766187</ele>
        <time>2021-11-14T15:43:15.470Z</time>
      </trkpt>
      <trkpt lat="47.521468" lon="8.053086">
        <ele>383.030568</ele>
        <time>2021-11-14T15:43:17.442Z</time>
      </trkpt>
      <trkpt lat="47.521342" lon="8.053276">
        <ele>383.892158</ele>
        <time>2021-11-14T15:43:23.468Z</time>
      </trkpt>
      <trkpt lat="47.520983" lon="8.054002">
        <ele>386.803534</ele>
        <time>2021-11-14T15:43:46.527Z</time>
      </trkpt>
      <trkpt lat="47.520622" lon="8.054507">
        <ele>389.144306</ele>
        <time>2021-11-14T15:44:03.170Z</time>
      </trkpt>
      <trkpt lat="47.520495" lon="8.054640">
        <ele>389.867528</ele>
        <time>2021-11-14T15:44:08.115Z</time>
      </trkpt>
      <trkpt lat="47.520447" lon="8.054686">
        <ele>390.133360</ele>
        <time>2021-11-14T15:44:11.260Z</time>
      </trkpt>
      <trkpt lat="47.520200" lon="8.054838">
        <ele>391.376985</ele>
        <time>2021-11-14T15:44:20.042Z</time>
      </trkpt>
      <trkpt lat="47.520138" lon="8.054877">
        <ele>391.690180</ele>
        <time>2021-11-14T15:44:22.820Z</time>
      </trkpt>
      <trkpt lat="47.520109" lon="8.054903">
        <ele>391.847801</ele>
        <time>2021-11-14T15:44:24.580Z</time>
      </trkpt>
      <trkpt lat="47.519792" lon="8.055311">
        <ele>393.800600</ele>
        <time>2021-11-14T15:44:37.914Z</time>
      </trkpt>
      <trkpt lat="47.519301" lon="8.056122">
        <ele>396.982403</ele>
        <time>2021-11-14T15:45:01.450Z</time>
      </trkpt>
      <trkpt lat="47.519217" lon="8.056276">
        <ele>397.452779</ele>
        <time>2021-11-14T15:45:05.129Z</time>
      </trkpt>
      <trkpt lat="47.519179" lon="8.056358">
        <ele>397.689086</ele>
        <time>2021-11-14T15:45:06.785Z</time>
      </trkpt>
      <trkpt lat="47.518693" lon="8.057336">
        <ele>400.574309</ele>
        <time>2021-11-14T15:45:28.056Z</time>
      </trkpt>
      <trkpt lat="47.518370" lon="8.058169">
        <ele>403.010883</ele>
        <time>2021-11-14T15:45:47.045Z</time>
      </trkpt>
      <trkpt lat="47.518297" lon="8.058380">
        <ele>403.877083</ele>
        <time>2021-11-14T15:45:53.762Z</time>
      </trkpt>
      <trkpt lat="47.518245" lon="8.058536">
        <ele>404.512705</ele>
        <time>2021-11-14T15:45:56.596Z</time>
      </trkpt>
      <trkpt lat="47.518181" lon="8.058723">
        <ele>405.278671</ele>
        <time>2021-11-14T15:46:01.685Z</time>
      </trkpt>
      <trkpt lat="47.518153" lon="8.058825">
        <ele>405.680958</ele>
        <time>2021-11-14T15:46:04.964Z</time>
      </trkpt>
      <trkpt lat="47.518126" lon="8.059042">
        <ele>406.487156</ele>
        <time>2021-11-14T15:46:09.129Z</time>
      </trkpt>
      <trkpt lat="47.518110" lon="8.059176">
        <ele>406.984345</ele>
        <time>2021-11-14T15:46:11.999Z</time>
      </trkpt>
      <trkpt lat="47.518111" lon="8.059250">
        <ele>407.254774</ele>
        <time>2021-11-14T15:46:14.342Z</time>
      </trkpt>
      <trkpt lat="47.518107" lon="8.059678">
        <ele>408.818710</ele>
        <time>2021-11-14T15:46:24.113Z</time>
      </trkpt>
      <trkpt lat="47.518115" lon="8.059928">
        <ele>409.733162</ele>
        <time>2021-11-14T15:46:31.476Z</time>
      </trkpt>
      <trkpt lat="47.518145" lon="8.060201">
        <ele>410.743741</ele>
        <time>2021-11-14T15:46:37.586Z</time>
      </trkpt>
      <trkpt lat="47.518185" lon="8.060410">
        <ele>411.537436</ele>
        <time>2021-11-14T15:46:44.529Z</time>
      </trkpt>
      <trkpt lat="47.518168" lon="8.060542">
        <ele>412.028416</ele>
        <time>2021-11-14T15:46:48.048Z</time>
      </trkpt>
      <trkpt lat="47.518153" lon="8.060621">
        <ele>412.337945</ele>
        <time>2021-11-14T15:46:50.213Z</time>
      </trkpt>
      <trkpt lat="47.518109" lon="8.060687">
        <ele>412.796150</ele>
        <time>2021-11-14T15:46:53.519Z</time>
      </trkpt>
      <trkpt lat="47.518058" lon="8.060729">
        <ele>413.223081</ele>
        <time>2021-11-14T15:46:57.073Z</time>
      </trkpt>
      <trkpt lat="47.518010" lon="8.060708">
        <ele>413.589247</ele>
        <time>2021-11-14T15:46:59.923Z</time>
      </trkpt>
      <trkpt lat="47.517920" lon="8.060669">
        <ele>414.275286</ele>
        <time>2021-11-14T15:47:04.581Z</time>
      </trkpt>
      <trkpt lat="47.517832" lon="8.060561">
        <ele>415.111469</ele>
        <time>2021-11-14T15:47:10.086Z</time>
      </trkpt>
      <trkpt lat="47.517774" lon="8.060359">
        <ele>416.195967</ele>
        <time>2021-11-14T15:47:19.012Z</time>
      </trkpt>
      <trkpt lat="47.517670" lon="8.060139">
        <ele>417.522770</ele>
        <time>2021-11-14T15:47:27.543Z</time>
      </trkpt>
      <trkpt lat="47.517603" lon="8.060042">
        <ele>418.208296</ele>
        <time>2021-11-14T15:47:33.431Z</time>
      </trkpt>
      <trkpt lat="47.517499" lon="8.059959">
        <ele>419.072620</ele>
        <time>2021-11-14T15:47:39.771Z</time>
      </trkpt>
      <trkpt lat="47.517045" lon="8.059678">
        <ele>422.672499</ele>
        <time>2021-11-14T15:48:03.406Z</time>
      </trkpt>
      <trkpt lat="47.516879" lon="8.059595">
        <ele>423.954295</ele>
        <time>2021-11-14T15:48:12.589Z</time>
      </trkpt>
      <trkpt lat="47.516592" lon="8.059424">
        <ele>426.144498</ele>
        <time>2021-11-14T15:48:26.437Z</time>
      </trkpt>
      <trkpt lat="47.515549" lon="8.058544">
        <ele>434.080734</ele>
        <time>2021-11-14T15:49:21.961Z</time>
      </trkpt>
      <trkpt lat="47.514980" lon="8.057838">
        <ele>439.573709</ele>
        <time>2021-11-14T15:49:54.953Z</time>
      </trkpt>
      <trkpt lat="47.514913" lon="8.057730">
        <ele>440.462306</ele>
        <time>2021-11-14T15:49:59.872Z</time>
      </trkpt>
      <trkpt lat="47.514860" lon="8.057684">
        <ele>441.013485</ele>
        <time>2021-11-14T15:50:04.582Z</time>
      </trkpt>
      <trkpt lat="47.513979" lon="8.057155">
        <ele>449.542869</ele>
        <time>2021-11-14T15:50:57.352Z</time>
      </trkpt>
      <trkpt lat="47.513766" lon="8.057043">
        <ele>451.570790</ele>
        <time>2021-11-14T15:51:11.778Z</time>
      </trkpt>
      <trkpt lat="47.513354" lon="8.056772">
        <ele>456.122143</ele>
        <time>2021-11-14T15:51:41.110Z</time>
      </trkpt>
      <trkpt lat="47.512855" lon="8.056583">
        <ele>461.843188</ele>
        <time>2021-11-14T15:52:14.658Z</time>
      </trkpt>
      <trkpt lat="47.512296" lon="8.056517">
        <ele>468.071893</ele>
        <time>2021-11-14T15:52:52.868Z</time>
      </trkpt>
      <trkpt lat="47.511847" lon="8.056597">
        <ele>473.095066</ele>
        <time>2021-11-14T15:53:21.122Z</time>
      </trkpt>
      <trkpt lat="47.510829" lon="8.056804">
        <ele>484.039708</ele>
        <time>2021-11-14T15:54:25.367Z</time>
      </trkpt>
      <trkpt lat="47.510082" lon="8.056966">
        <ele>492.069468</ele>
        <time>2021-11-14T15:55:13.087Z</time>
      </trkpt>
      <trkpt lat="47.509954" lon="8.057004">
        <ele>493.343210</ele>
        <time>2021-11-14T15:55:20.985Z</time>
      </trkpt>
      <trkpt lat="47.509761" lon="8.057079">
        <ele>495.183162</ele>
        <time>2021-11-14T15:55:33.695Z</time>
      </trkpt>
      <trkpt lat="47.509137" lon="8.057413">
        <ele>501.301628</ele>
        <time>2021-11-14T15:56:14.999Z</time>
      </trkpt>
      <trkpt lat="47.508257" lon="8.058324">
        <ele>510.236236</ele>
        <time>2021-11-14T15:57:11.673Z</time>
      </trkpt>
      <trkpt lat="47.508101" lon="8.058498">
        <ele>511.176151</ele>
        <time>2021-11-14T15:57:20.635Z</time>
      </trkpt>
      <trkpt lat="47.507796" lon="8.058923">
        <ele>513.191755</ele>
        <time>2021-11-14T15:57:36.398Z</time>
      </trkpt>
      <trkpt lat="47.507442" lon="8.059522">
        <ele>515.778855</ele>
        <time>2021-11-14T15:57:54.852Z</time>
      </trkpt>
      <trkpt lat="47.507282" lon="8.059981">
        <ele>517.457824</ele>
        <time>2021-11-14T15:58:06.930Z</time>
      </trkpt>
      <trkpt lat="47.507095" lon="8.060549">
        <ele>519.063993</ele>
        <time>2021-11-14T15:58:22.023Z</time>
      </trkpt>
      <trkpt lat="47.506868" lon="8.061294">
        <ele>521.010741</ele>
        <time>2021-11-14T15:58:40.918Z</time>
      </trkpt>
      <trkpt lat="47.506834" lon="8.061792">
        <ele>522.203010</ele>
        <time>2021-11-14T15:58:53.224Z</time>
      </trkpt>
      <trkpt lat="47.506799" lon="8.061960">
        <ele>522.621782</ele>
        <time>2021-11-14T15:58:58.030Z</time>
      </trkpt>
      <trkpt lat="47.506664" lon="8.062340">
        <ele>523.644485</ele>
        <time>2021-11-14T15:59:13.486Z</time>
      </trkpt>
      <trkpt lat="47.506276" lon="8.063954">
        <ele>524.774075</ele>
        <time>2021-11-14T16:00:05.966Z</time>
      </trkpt>
      <trkpt lat="47.506078" lon="8.064758">
        <ele>525.116370</ele>
        <time>2021-11-14T16:00:26.737Z</time>
      </trkpt>
      <trkpt lat="47.506010" lon="8.064980">
        <ele>525.213870</ele>
        <time>2021-11-14T16:00:31.781Z</time>
      </trkpt>
      <trkpt lat="47.505540" lon="8.066896">
        <ele>519.293523</ele>
        <time>2021-11-14T16:01:11.236Z</time>
      </trkpt>
      <trkpt lat="47.505473" lon="8.067198">
        <ele>518.330644</ele>
        <time>2021-11-14T16:01:17.079Z</time>
      </trkpt>
      <trkpt lat="47.505081" lon="8.067225">
        <ele>515.962696</ele>
        <time>2021-11-14T16:01:22.067Z</time>
      </trkpt>
      <trkpt lat="47.504397" lon="8.067358">
        <ele>509.769956</ele>
        <time>2021-11-14T16:01:30.691Z</time>
      </trkpt>
      <trkpt lat="47.504101" lon="8.067367">
        <ele>507.112320</ele>
        <time>2021-11-14T16:01:34.308Z</time>
      </trkpt>
      <trkpt lat="47.504036" lon="8.067372">
        <ele>506.528054</ele>
        <time>2021-11-14T16:01:35.130Z</time>
      </trkpt>
      <trkpt lat="47.503779" lon="8.067381">
        <ele>504.220421</ele>
        <time>2021-11-14T16:01:38.232Z</time>
      </trkpt>
      <trkpt lat="47.503632" lon="8.067340">
        <ele>502.877641</ele>
        <time>2021-11-14T16:01:40.081Z</time>
      </trkpt>
      <trkpt lat="47.503534" lon="8.067213">
        <ele>501.708453</ele>
        <time>2021-11-14T16:01:41.658Z</time>
      </trkpt>
      <trkpt lat="47.503405" lon="8.066731">
        <ele>498.249384</ele>
        <time>2021-11-14T16:01:45.922Z</time>
      </trkpt>
      <trkpt lat="47.503327" lon="8.066232">
        <ele>494.746806</ele>
        <time>2021-11-14T16:01:50.110Z</time>
      </trkpt>
      <trkpt lat="47.503323" lon="8.065713">
        <ele>491.197383</ele>
        <time>2021-11-14T16:01:54.344Z</time>
      </trkpt>
      <trkpt lat="47.503369" lon="8.065330">
        <ele>488.537160</ele>
        <time>2021-11-14T16:01:57.557Z</time>
      </trkpt>
      <trkpt lat="47.504942" lon="8.061411">
        <ele>457.588747</ele>
        <time>2021-11-14T16:02:35.362Z</time>
      </trkpt>
      <trkpt lat="47.505307" lon="8.059618">
        <ele>443.301756</ele>
        <time>2021-11-14T16:02:50.421Z</time>
      </trkpt>
      <trkpt lat="47.505370" lon="8.059258">
        <ele>440.327056</ele>
        <time>2021-11-14T16:02:53.402Z</time>
      </trkpt>
      <trkpt lat="47.505387" lon="8.059133">
        <ele>439.307119</ele>
        <time>2021-11-14T16:02:54.455Z</time>
      </trkpt>
      <trkpt lat="47.505424" lon="8.058918">
        <ele>437.532406</ele>
        <time>2021-11-14T16:02:56.240Z</time>
      </trkpt>
      <trkpt lat="47.505451" lon="8.058764">
        <ele>436.259749</ele>
        <time>2021-11-14T16:02:57.526Z</time>
      </trkpt>
      <trkpt lat="47.505517" lon="8.058346">
        <ele>432.826054</ele>
        <time>2021-11-14T16:03:00.958Z</time>
      </trkpt>
      <trkpt lat="47.505677" lon="8.056765">
        <ele>421.431232</ele>
        <time>2021-11-14T16:03:13.925Z</time>
      </trkpt>
      <trkpt lat="47.505625" lon="8.056515">
        <ele>420.044243</ele>
        <time>2021-11-14T16:03:16.171Z</time>
      </trkpt>
      <trkpt lat="47.505475" lon="8.056464">
        <ele>418.836204</ele>
        <time>2021-11-14T16:03:18.200Z</time>
      </trkpt>
      <trkpt lat="47.505441" lon="8.056483">
        <ele>418.550948</ele>
        <time>2021-11-14T16:03:18.612Z</time>
      </trkpt>
      <trkpt lat="47.505423" lon="8.056514">
        <ele>418.334200</ele>
        <time>2021-11-14T16:03:18.947Z</time>
      </trkpt>
      <trkpt lat="47.505291" lon="8.057302">
        <ele>414.029425</ele>
        <time>2021-11-14T16:03:26.148Z</time>
      </trkpt>
      <trkpt lat="47.504282" lon="8.059500">
        <ele>403.292257</ele>
        <time>2021-11-14T16:03:49.621Z</time>
      </trkpt>
      <trkpt lat="47.504169" lon="8.059693">
        <ele>402.387113</ele>
        <time>2021-11-14T16:03:52.056Z</time>
      </trkpt>
      <trkpt lat="47.504078" lon="8.059826">
        <ele>401.716225</ele>
        <time>2021-11-14T16:03:53.938Z</time>
      </trkpt>
      <trkpt lat="47.503958" lon="8.059935">
        <ele>400.977609</ele>
        <time>2021-11-14T16:03:55.902Z</time>
      </trkpt>
      <trkpt lat="47.503788" lon="8.060053">
        <ele>400.525612</ele>
        <time>2021-11-14T16:03:58.739Z</time>
      </trkpt>
      <trkpt lat="47.503390" lon="8.060324">
        <ele>400.193906</ele>
        <time>2021-11-14T16:04:05.253Z</time>
      </trkpt>
      <trkpt lat="47.503424" lon="8.060388">
        <ele>400.152259</ele>
        <time>2021-11-14T16:04:06.337Z</time>
      </trkpt>
      <trkpt lat="47.503422" lon="8.060609">
        <ele>400.039207</ele>
        <time>2021-11-14T16:04:08.645Z</time>
      </trkpt>
      <trkpt lat="47.502398" lon="8.062849">
        <ele>399.878108</ele>
        <time>2021-11-14T16:04:51.601Z</time>
      </trkpt>
      <trkpt lat="47.502143" lon="8.063616">
        <ele>400.334811</ele>
        <time>2021-11-14T16:05:06.460Z</time>
      </trkpt>
      <trkpt lat="47.502081" lon="8.063899">
        <ele>400.493756</ele>
        <time>2021-11-14T16:05:11.616Z</time>
      </trkpt>
      <trkpt lat="47.501830" lon="8.064383">
        <ele>400.437581</ele>
        <time>2021-11-14T16:05:20.682Z</time>
      </trkpt>
      <trkpt lat="47.501079" lon="8.065561">
        <ele>399.001442</ele>
        <time>2021-11-14T16:05:38.898Z</time>
      </trkpt>
      <trkpt lat="47.500642" lon="8.066114">
        <ele>398.209165</ele>
        <time>2021-11-14T16:05:47.715Z</time>
      </trkpt>
      <trkpt lat="47.500485" lon="8.066332">
        <ele>397.771177</ele>
        <time>2021-11-14T16:05:50.830Z</time>
      </trkpt>
      <trkpt lat="47.500368" lon="8.066586">
        <ele>397.348604</ele>
        <time>2021-11-14T16:05:54.133Z</time>
      </trkpt>
      <trkpt lat="47.499930" lon="8.068012">
        <ele>395.195387</ele>
        <time>2021-11-14T16:06:10.503Z</time>
      </trkpt>
      <trkpt lat="47.499748" lon="8.068841">
        <ele>394.488835</ele>
        <time>2021-11-14T16:06:20.475Z</time>
      </trkpt>
      <trkpt lat="47.499620" lon="8.069496">
        <ele>394.251216</ele>
        <time>2021-11-14T16:06:28.976Z</time>
      </trkpt>
      <trkpt lat="47.499538" lon="8.069838">
        <ele>394.124748</ele>
        <time>2021-11-14T16:06:33.568Z</time>
      </trkpt>
      <trkpt lat="47.499461" lon="8.070758">
        <ele>393.801684</ele>
        <time>2021-11-14T16:06:45.444Z</time>
      </trkpt>
      <trkpt lat="47.499601" lon="8.071817">
        <ele>394.292985</ele>
        <time>2021-11-14T16:07:01.591Z</time>
      </trkpt>
      <trkpt lat="47.499631" lon="8.072434">
        <ele>394.695763</ele>
        <time>2021-11-14T16:07:11.893Z</time>
      </trkpt>
      <trkpt lat="47.499618" lon="8.072678">
        <ele>394.855129</ele>
        <time>2021-11-14T16:07:16.349Z</time>
      </trkpt>
      <trkpt lat="47.499580" lon="8.073053">
        <ele>395.102029</ele>
        <time>2021-11-14T16:07:22.402Z</time>
      </trkpt>
      <trkpt lat="47.499525" lon="8.073287">
        <ele>395.263348</ele>
        <time>2021-11-14T16:07:27.350Z</time>
      </trkpt>
      <trkpt lat="47.499275" lon="8.073955">
        <ele>395.909478</ele>
        <time>2021-11-14T16:07:40.127Z</time>
      </trkpt>
      <trkpt lat="47.499163" lon="8.074206">
        <ele>396.202851</ele>
        <time>2021-11-14T16:07:46.128Z</time>
      </trkpt>
      <trkpt lat="47.498910" lon="8.074849">
        <ele>396.928572</ele>
        <time>2021-11-14T16:07:59.015Z</time>
      </trkpt>
      <trkpt lat="47.498145" lon="8.076850">
        <ele>399.081807</ele>
        <time>2021-11-14T16:08:39.014Z</time>
      </trkpt>
      <trkpt lat="47.497682" lon="8.077743">
        <ele>400.091727</ele>
        <time>2021-11-14T16:08:58.983Z</time>
      </trkpt>
      <trkpt lat="47.497198" lon="8.078441">
        <ele>400.697893</ele>
        <time>2021-11-14T16:09:15.295Z</time>
      </trkpt>
      <trkpt lat="47.497125" lon="8.078508">
        <ele>400.750738</ele>
        <time>2021-11-14T16:09:17.705Z</time>
      </trkpt>
      <trkpt lat="47.497038" lon="8.078610">
        <ele>400.819019</ele>
        <time>2021-11-14T16:09:20.360Z</time>
      </trkpt>
      <trkpt lat="47.496793" lon="8.078891">
        <ele>401.009704</ele>
        <time>2021-11-14T16:09:27.427Z</time>
      </trkpt>
      <trkpt lat="47.496446" lon="8.079280">
        <ele>401.277506</ele>
        <time>2021-11-14T16:09:36.839Z</time>
      </trkpt>
      <trkpt lat="47.496380" lon="8.079285">
        <ele>401.318163</ele>
        <time>2021-11-14T16:09:37.668Z</time>
      </trkpt>
      <trkpt lat="47.496040" lon="8.079701">
        <ele>401.588788</ele>
        <time>2021-11-14T16:09:44.435Z</time>
      </trkpt>
      <trkpt lat="47.495859" lon="8.079943">
        <ele>401.735695</ele>
        <time>2021-11-14T16:09:48.505Z</time>
      </trkpt>
      <trkpt lat="47.495681" lon="8.080229">
        <ele>401.893930</ele>
        <time>2021-11-14T16:09:52.468Z</time>
      </trkpt>
      <trkpt lat="47.495562" lon="8.080466">
        <ele>402.014089</ele>
        <time>2021-11-14T16:09:55.522Z</time>
      </trkpt>
      <trkpt lat="47.495515" lon="8.080558">
        <ele>402.061025</ele>
        <time>2021-11-14T16:09:56.755Z</time>
      </trkpt>
      <trkpt lat="47.495384" lon="8.080873">
        <ele>402.211545</ele>
        <time>2021-11-14T16:10:00.802Z</time>
      </trkpt>
      <trkpt lat="47.495292" lon="8.081144">
        <ele>402.334963</ele>
        <time>2021-11-14T16:10:04.574Z</time>
      </trkpt>
      <trkpt lat="47.495281" lon="8.081177">
        <ele>402.349937</ele>
        <time>2021-11-14T16:10:05.094Z</time>
      </trkpt>
      <trkpt lat="47.495207" lon="8.081445">
        <ele>402.467752</ele>
        <time>2021-11-14T16:10:08.500Z</time>
      </trkpt>
      <trkpt lat="47.495162" lon="8.081632">
        <ele>402.548531</ele>
        <time>2021-11-14T16:10:11.207Z</time>
      </trkpt>
      <trkpt lat="47.495132" lon="8.081754">
        <ele>402.601363</ele>
        <time>2021-11-14T16:10:12.888Z</time>
      </trkpt>
      <trkpt lat="47.495088" lon="8.082021">
        <ele>403.039805</ele>
        <time>2021-11-14T16:10:16.520Z</time>
      </trkpt>
      <trkpt lat="47.495034" lon="8.082354">
        <ele>403.771666</ele>
        <time>2021-11-14T16:10:21.359Z</time>
      </trkpt>
      <trkpt lat="47.495018" lon="8.082502">
        <ele>404.091979</ele>
        <time>2021-11-14T16:10:24.033Z</time>
      </trkpt>
      <trkpt lat="47.494982" lon="8.082826">
        <ele>404.793698</ele>
        <time>2021-11-14T16:10:28.768Z</time>
      </trkpt>
      <trkpt lat="47.494963" lon="8.083009">
        <ele>405.189377</ele>
        <time>2021-11-14T16:10:32.237Z</time>
      </trkpt>
      <trkpt lat="47.494933" lon="8.083243">
        <ele>405.698381</ele>
        <time>2021-11-14T16:10:37.300Z</time>
      </trkpt>
      <trkpt lat="47.494898" lon="8.083514">
        <ele>406.288020</ele>
        <time>2021-11-14T16:10:42.819Z</time>
      </trkpt>
      <trkpt lat="47.494822" lon="8.084015">
        <ele>407.385361</ele>
        <time>2021-11-14T16:10:53.745Z</time>
      </trkpt>
      <trkpt lat="47.494924" lon="8.084065">
        <ele>407.725222</ele>
        <time>2021-11-14T16:10:57.086Z</time>
      </trkpt>
      <trkpt lat="47.495055" lon="8.084135">
        <ele>408.165753</ele>
        <time>2021-11-14T16:11:01.922Z</time>
      </trkpt>
      <trkpt lat="47.495106" lon="8.084168">
        <ele>408.348387</ele>
        <time>2021-11-14T16:11:03.351Z</time>
      </trkpt>
      <trkpt lat="47.495171" lon="8.084232">
        <ele>408.694868</ele>
        <time>2021-11-14T16:11:05.861Z</time>
      </trkpt>
      <trkpt lat="47.495445" lon="8.084551">
        <ele>410.242045</ele>
        <time>2021-11-14T16:11:18.268Z</time>
      </trkpt>
      <trkpt lat="47.495549" lon="8.084639">
        <ele>410.773713</ele>
        <time>2021-11-14T16:11:22.537Z</time>
      </trkpt>
      <trkpt lat="47.495636" lon="8.084745">
        <ele>411.273827</ele>
        <time>2021-11-14T16:11:27.484Z</time>
      </trkpt>
      <trkpt lat="47.496002" lon="8.085400">
        <ele>413.822567</ele>
        <time>2021-11-14T16:11:45.478Z</time>
      </trkpt>
      <trkpt lat="47.496274" lon="8.085642">
        <ele>415.231047</ele>
        <time>2021-11-14T16:11:55.402Z</time>
      </trkpt>
      <trkpt lat="47.496373" lon="8.085787">
        <ele>415.849182</ele>
        <time>2021-11-14T16:12:00.544Z</time>
      </trkpt>
      <trkpt lat="47.496422" lon="8.086009">
        <ele>416.496972</ele>
        <time>2021-11-14T16:12:04.373Z</time>
      </trkpt>
      <trkpt lat="47.496519" lon="8.086234">
        <ele>417.123222</ele>
        <time>2021-11-14T16:12:09.948Z</time>
      </trkpt>
      <trkpt lat="47.496576" lon="8.086291">
        <ele>417.362119</ele>
        <time>2021-11-14T16:12:13.069Z</time>
      </trkpt>
      <trkpt lat="47.496752" lon="8.086468">
        <ele>418.101080</ele>
        <time>2021-11-14T16:12:18.097Z</time>
      </trkpt>
      <trkpt lat="47.496950" lon="8.086653">
        <ele>418.914247</ele>
        <time>2021-11-14T16:12:24.904Z</time>
      </trkpt>
      <trkpt lat="47.497376" lon="8.086991">
        <ele>420.592829</ele>
        <time>2021-11-14T16:12:37.635Z</time>
      </trkpt>
      <trkpt lat="47.497737" lon="8.087270">
        <ele>422.007137</ele>
        <time>2021-11-14T16:12:48.103Z</time>
      </trkpt>
      <trkpt lat="47.497928" lon="8.087452">
        <ele>422.872772</ele>
        <time>2021-11-14T16:12:55.575Z</time>
      </trkpt>
      <trkpt lat="47.498188" lon="8.087851">
        <ele>424.586665</ele>
        <time>2021-11-14T16:13:07.536Z</time>
      </trkpt>
      <trkpt lat="47.498481" lon="8.088558">
        <ele>427.150987</ele>
        <time>2021-11-14T16:13:26.655Z</time>
      </trkpt>
      <trkpt lat="47.498653" lon="8.088863">
        <ele>428.379290</ele>
        <time>2021-11-14T16:13:35.738Z</time>
      </trkpt>
      <trkpt lat="47.498666" lon="8.088885">
        <ele>428.469654</ele>
        <time>2021-11-14T16:13:36.638Z</time>
      </trkpt>
      <trkpt lat="47.498851" lon="8.089152">
        <ele>429.652086</ele>
        <time>2021-11-14T16:13:46.706Z</time>
      </trkpt>
      <trkpt lat="47.498994" lon="8.089359">
        <ele>430.567404</ele>
        <time>2021-11-14T16:13:53.804Z</time>
      </trkpt>
      <trkpt lat="47.500332" lon="8.091539">
        <ele>438.119019</ele>
        <time>2021-11-14T16:14:54.645Z</time>
      </trkpt>
      <trkpt lat="47.500507" lon="8.091877">
        <ele>438.588341</ele>
        <time>2021-11-14T16:15:01.654Z</time>
      </trkpt>
      <trkpt lat="47.500685" lon="8.092227">
        <ele>439.071153</ele>
        <time>2021-11-14T16:15:08.526Z</time>
      </trkpt>
      <trkpt lat="47.501149" lon="8.093186">
        <ele>440.371150</ele>
        <time>2021-11-14T16:15:23.193Z</time>
      </trkpt>
      <trkpt lat="47.501513" lon="8.093894">
        <ele>441.027912</ele>
        <time>2021-11-14T16:15:33.458Z</time>
      </trkpt>
      <trkpt lat="47.501590" lon="8.094043">
        <ele>441.108991</ele>
        <time>2021-11-14T16:15:34.927Z</time>
      </trkpt>
      <trkpt lat="47.502026" lon="8.094768">
        <ele>441.528504</ele>
        <time>2021-11-14T16:15:45.887Z</time>
      </trkpt>
      <trkpt lat="47.502110" lon="8.094873">
        <ele>441.598842</ele>
        <time>2021-11-14T16:15:47.192Z</time>
      </trkpt>
      <trkpt lat="47.502217" lon="8.094977">
        <ele>441.680735</ele>
        <time>2021-11-14T16:15:50.120Z</time>
      </trkpt>
      <trkpt lat="47.502282" lon="8.095019">
        <ele>441.726109</ele>
        <time>2021-11-14T16:15:51.773Z</time>
      </trkpt>
      <trkpt lat="47.502490" lon="8.095170">
        <ele>441.874321</ele>
        <time>2021-11-14T16:15:55.519Z</time>
      </trkpt>
      <trkpt lat="47.502574" lon="8.095231">
        <ele>441.934179</ele>
        <time>2021-11-14T16:15:57.893Z</time>
      </trkpt>
      <trkpt lat="47.502910" lon="8.095439">
        <ele>442.903854</ele>
        <time>2021-11-14T16:16:04.771Z</time>
      </trkpt>
      <trkpt lat="47.503482" lon="8.095792">
        <ele>444.779489</ele>
        <time>2021-11-14T16:16:19.168Z</time>
      </trkpt>
      <trkpt lat="47.503767" lon="8.095971">
        <ele>445.716497</ele>
        <time>2021-11-14T16:16:28.723Z</time>
      </trkpt>
      <trkpt lat="47.504630" lon="8.096527">
        <ele>448.868107</ele>
        <time>2021-11-14T16:17:00.471Z</time>
      </trkpt>
      <trkpt lat="47.504815" lon="8.096672">
        <ele>449.668364</ele>
        <time>2021-11-14T16:17:07.500Z</time>
      </trkpt>
      <trkpt lat="47.504977" lon="8.096829">
        <ele>450.408594</ele>
        <time>2021-11-14T16:17:14.399Z</time>
      </trkpt>
      <trkpt lat="47.505090" lon="8.096968">
        <ele>450.970263</ele>
        <time>2021-11-14T16:17:18.813Z</time>
      </trkpt>
      <trkpt lat="47.505224" lon="8.097111">
        <ele>451.601770</ele>
        <time>2021-11-14T16:17:24.059Z</time>
      </trkpt>
      <trkpt lat="47.505520" lon="8.097456">
        <ele>453.042006</ele>
        <time>2021-11-14T16:17:34.404Z</time>
      </trkpt>
      <trkpt lat="47.505811" lon="8.097796">
        <ele>454.366178</ele>
        <time>2021-11-14T16:17:43.280Z</time>
      </trkpt>
      <trkpt lat="47.505855" lon="8.097849">
        <ele>454.464104</ele>
        <time>2021-11-14T16:17:44.562Z</time>
      </trkpt>
      <trkpt lat="47.506023" lon="8.098051">
        <ele>454.837738</ele>
        <time>2021-11-14T16:17:50.097Z</time>
      </trkpt>
      <trkpt lat="47.506383" lon="8.098483">
        <ele>455.637750</ele>
        <time>2021-11-14T16:18:01.019Z</time>
      </trkpt>
      <trkpt lat="47.506485" lon="8.098597">
        <ele>455.858383</ele>
        <time>2021-11-14T16:18:03.060Z</time>
      </trkpt>
      <trkpt lat="47.506767" lon="8.098876">
        <ele>456.443916</ele>
        <time>2021-11-14T16:18:10.497Z</time>
      </trkpt>
      <trkpt lat="47.506874" lon="8.098948">
        <ele>456.646818</ele>
        <time>2021-11-14T16:18:13.400Z</time>
      </trkpt>
      <trkpt lat="47.506976" lon="8.099024">
        <ele>456.843948</ele>
        <time>2021-11-14T16:18:15.557Z</time>
      </trkpt>
      <trkpt lat="47.507131" lon="8.099082">
        <ele>457.119943</ele>
        <time>2021-11-14T16:18:17.714Z</time>
      </trkpt>
      <trkpt lat="47.507198" lon="8.099101">
        <ele>457.237709</ele>
        <time>2021-11-14T16:18:19.508Z</time>
      </trkpt>
      <trkpt lat="47.507495" lon="8.099134">
        <ele>457.882932</ele>
        <time>2021-11-14T16:18:24.384Z</time>
      </trkpt>
      <trkpt lat="47.507666" lon="8.099135">
        <ele>458.286426</ele>
        <time>2021-11-14T16:18:28.318Z</time>
      </trkpt>
      <trkpt lat="47.507728" lon="8.099150">
        <ele>458.434662</ele>
        <time>2021-11-14T16:18:29.642Z</time>
      </trkpt>
      <trkpt lat="47.508035" lon="8.099268">
        <ele>459.183075</ele>
        <time>2021-11-14T16:18:35.816Z</time>
      </trkpt>
      <trkpt lat="47.508341" lon="8.099423">
        <ele>459.946207</ele>
        <time>2021-11-14T16:18:43.562Z</time>
      </trkpt>
      <trkpt lat="47.508401" lon="8.099452">
        <ele>460.095137</ele>
        <time>2021-11-14T16:18:45.221Z</time>
      </trkpt>
      <trkpt lat="47.508511" lon="8.099532">
        <ele>460.384321</ele>
        <time>2021-11-14T16:18:48.192Z</time>
      </trkpt>
      <trkpt lat="47.508596" lon="8.099602">
        <ele>460.613830</ele>
        <time>2021-11-14T16:18:51.623Z</time>
      </trkpt>
      <trkpt lat="47.508688" lon="8.099702">
        <ele>460.883142</ele>
        <time>2021-11-14T16:18:55.602Z</time>
      </trkpt>
      <trkpt lat="47.509176" lon="8.100345">
        <ele>462.827296</ele>
        <time>2021-11-14T16:19:14.817Z</time>
      </trkpt>
      <trkpt lat="47.509343" lon="8.100494">
        <ele>463.523075</ele>
        <time>2021-11-14T16:19:20.320Z</time>
      </trkpt>
      <trkpt lat="47.509412" lon="8.100549">
        <ele>463.802715</ele>
        <time>2021-11-14T16:19:22.445Z</time>
      </trkpt>
      <trkpt lat="47.509622" lon="8.100692">
        <ele>464.627549</ele>
        <time>2021-11-14T16:19:29.025Z</time>
      </trkpt>
      <trkpt lat="47.509638" lon="8.100703">
        <ele>464.690499</ele>
        <time>2021-11-14T16:19:29.508Z</time>
      </trkpt>
      <trkpt lat="47.509944" lon="8.100887">
        <ele>465.869060</ele>
        <time>2021-11-14T16:19:39.021Z</time>
      </trkpt>
      <trkpt lat="47.510731" lon="8.101349">
        <ele>469.290537</ele>
        <time>2021-11-14T16:20:03.979Z</time>
      </trkpt>
      <trkpt lat="47.511350" lon="8.101444">
        <ele>472.578483</ele>
        <time>2021-11-14T16:20:22.481Z</time>
      </trkpt>
      <trkpt lat="47.511784" lon="8.101451">
        <ele>474.871611</ele>
        <time>2021-11-14T16:20:35.739Z</time>
      </trkpt>
      <trkpt lat="47.512294" lon="8.101446">
        <ele>477.573429</ele>
        <time>2021-11-14T16:21:00.290Z</time>
      </trkpt>
      <trkpt lat="47.513097" lon="8.101440">
        <ele>486.664857</ele>
        <time>2021-11-14T16:21:42.037Z</time>
      </trkpt>
      <trkpt lat="47.513213" lon="8.101454">
        <ele>487.982529</ele>
        <time>2021-11-14T16:21:48.364Z</time>
      </trkpt>
      <trkpt lat="47.513274" lon="8.101477">
        <ele>488.695195</ele>
        <time>2021-11-14T16:21:55.108Z</time>
      </trkpt>
      <trkpt lat="47.513402" lon="8.101592">
        <ele>490.390317</ele>
        <time>2021-11-14T16:22:02.216Z</time>
      </trkpt>
      <trkpt lat="47.514173" lon="8.102716">
        <ele>503.335350</ele>
        <time>2021-11-14T16:23:19.441Z</time>
      </trkpt>
      <trkpt lat="47.514667" lon="8.103702">
        <ele>514.105555</ele>
        <time>2021-11-14T16:24:16.354Z</time>
      </trkpt>
      <trkpt lat="47.514756" lon="8.103964">
        <ele>516.678389</ele>
        <time>2021-11-14T16:24:29.302Z</time>
      </trkpt>
      <trkpt lat="47.514931" lon="8.104527">
        <ele>521.889759</ele>
        <time>2021-11-14T16:24:55.349Z</time>
      </trkpt>
      <trkpt lat="47.515233" lon="8.105459">
        <ele>528.489602</ele>
        <time>2021-11-14T16:25:35.797Z</time>
      </trkpt>
      <trkpt lat="47.515271" lon="8.105582">
        <ele>529.353164</ele>
        <time>2021-11-14T16:25:41.084Z</time>
      </trkpt>
      <trkpt lat="47.515524" lon="8.106413">
        <ele>535.172872</ele>
        <time>2021-11-14T16:26:10.802Z</time>
      </trkpt>
      <trkpt lat="47.516180" lon="8.108478">
        <ele>546.996315</ele>
        <time>2021-11-14T16:27:18.649Z</time>
      </trkpt>
      <trkpt lat="47.516517" lon="8.109548">
        <ele>552.345438</ele>
        <time>2021-11-14T16:27:52.339Z</time>
      </trkpt>
      <trkpt lat="47.516730" lon="8.110266">
        <ele>555.191696</ele>
        <time>2021-11-14T16:28:14.570Z</time>
      </trkpt>
      <trkpt lat="47.516960" lon="8.110849">
        <ele>557.642209</ele>
        <time>2021-11-14T16:28:31.222Z</time>
      </trkpt>
      <trkpt lat="47.517126" lon="8.111099">
        <ele>558.914646</ele>
        <time>2021-11-14T16:28:39.371Z</time>
      </trkpt>
      <trkpt lat="47.517402" lon="8.111532">
        <ele>560.898239</ele>
        <time>2021-11-14T16:28:52.291Z</time>
      </trkpt>
      <trkpt lat="47.517585" lon="8.111839">
        <ele>561.029729</ele>
        <time>2021-11-14T16:28:59.183Z</time>
      </trkpt>
      <trkpt lat="47.517983" lon="8.112466">
        <ele>561.306042</ele>
        <time>2021-11-14T16:29:09.989Z</time>
      </trkpt>
      <trkpt lat="47.518295" lon="8.113056">
        <ele>561.546668</ele>
        <time>2021-11-14T16:29:16.687Z</time>
      </trkpt>
      <trkpt lat="47.518474" lon="8.113619">
        <ele>561.695916</ele>
        <time>2021-11-14T16:29:21.298Z</time>
      </trkpt>
      <trkpt lat="47.518892" lon="8.116720">
        <ele>557.956766</ele>
        <time>2021-11-14T16:29:44.848Z</time>
      </trkpt>
      <trkpt lat="47.518885" lon="8.117042">
        <ele>557.703390</ele>
        <time>2021-11-14T16:29:47.545Z</time>
      </trkpt>
      <trkpt lat="47.518740" lon="8.117714">
        <ele>557.148559</ele>
        <time>2021-11-14T16:29:53.008Z</time>
      </trkpt>
      <trkpt lat="47.518622" lon="8.118005">
        <ele>556.881608</ele>
        <time>2021-11-14T16:29:55.564Z</time>
      </trkpt>
      <trkpt lat="47.518325" lon="8.118433">
        <ele>556.398974</ele>
        <time>2021-11-14T16:30:00.200Z</time>
      </trkpt>
      <trkpt lat="47.518234" lon="8.118678">
        <ele>556.557347</ele>
        <time>2021-11-14T16:30:04.245Z</time>
      </trkpt>
      <trkpt lat="47.518226" lon="8.118790">
        <ele>556.801929</ele>
        <time>2021-11-14T16:30:05.512Z</time>
      </trkpt>
      <trkpt lat="47.518291" lon="8.118990">
        <ele>557.283936</ele>
        <time>2021-11-14T16:30:08.246Z</time>
      </trkpt>
      <trkpt lat="47.518372" lon="8.119045">
        <ele>557.570478</ele>
        <time>2021-11-14T16:30:10.895Z</time>
      </trkpt>
      <trkpt lat="47.518662" lon="8.118990">
        <ele>558.510614</ele>
        <time>2021-11-14T16:30:17.218Z</time>
      </trkpt>
      <trkpt lat="47.518865" lon="8.118958">
        <ele>559.167065</ele>
        <time>2021-11-14T16:30:22.214Z</time>
      </trkpt>
      <trkpt lat="47.519020" lon="8.118892">
        <ele>559.685679</ele>
        <time>2021-11-14T16:30:26.971Z</time>
      </trkpt>
      <trkpt lat="47.519187" lon="8.118830">
        <ele>560.239302</ele>
        <time>2021-11-14T16:30:32.013Z</time>
      </trkpt>
      <trkpt lat="47.519221" lon="8.118862">
        <ele>560.368848</ele>
        <time>2021-11-14T16:30:32.546Z</time>
      </trkpt>
      <trkpt lat="47.519180" lon="8.118910">
        <ele>560.536917</ele>
        <time>2021-11-14T16:30:34.009Z</time>
      </trkpt>
      <trkpt lat="47.519064" lon="8.119070">
        <ele>561.046684</ele>
        <time>2021-11-14T16:30:40.037Z</time>
      </trkpt>
      <trkpt lat="47.518824" lon="8.119333">
        <ele>562.006778</ele>
        <time>2021-11-14T16:30:51.575Z</time>
      </trkpt>
      <trkpt lat="47.517857" lon="8.119775">
        <ele>569.197284</ele>
        <time>2021-11-14T16:31:37.902Z</time>
      </trkpt>
      <trkpt lat="47.517621" lon="8.119982">
        <ele>571.165062</ele>
        <time>2021-11-14T16:31:51.381Z</time>
      </trkpt>
      <trkpt lat="47.517519" lon="8.120168">
        <ele>572.325890</ele>
        <time>2021-11-14T16:31:59.872Z</time>
      </trkpt>
      <trkpt lat="47.517437" lon="8.120369">
        <ele>573.463609</ele>
        <time>2021-11-14T16:32:05.626Z</time>
      </trkpt>
      <trkpt lat="47.517360" lon="8.120980">
        <ele>575.621794</ele>
        <time>2021-11-14T16:32:22.129Z</time>
      </trkpt>
      <trkpt lat="47.517380" lon="8.121126">
        <ele>575.935337</ele>
        <time>2021-11-14T16:32:27.054Z</time>
      </trkpt>
      <trkpt lat="47.517430" lon="8.121363">
        <ele>576.457919</ele>
        <time>2021-11-14T16:32:32.589Z</time>
      </trkpt>
      <trkpt lat="47.517595" lon="8.122024">
        <ele>577.941103</ele>
        <time>2021-11-14T16:32:48.450Z</time>
      </trkpt>
      <trkpt lat="47.517865" lon="8.123246">
        <ele>580.488805</ele>
        <time>2021-11-14T16:33:04.961Z</time>
      </trkpt>
      <trkpt lat="47.518043" lon="8.123755">
        <ele>579.162365</ele>
        <time>2021-11-14T16:33:09.415Z</time>
      </trkpt>
      <trkpt lat="47.518119" lon="8.123894">
        <ele>578.748499</ele>
        <time>2021-11-14T16:33:10.892Z</time>
      </trkpt>
      <trkpt lat="47.518224" lon="8.124020">
        <ele>578.285396</ele>
        <time>2021-11-14T16:33:12.217Z</time>
      </trkpt>
      <trkpt lat="47.518640" lon="8.124328">
        <ele>576.691697</ele>
        <time>2021-11-14T16:33:16.965Z</time>
      </trkpt>
      <trkpt lat="47.519000" lon="8.124585">
        <ele>575.322266</ele>
        <time>2021-11-14T16:33:20.784Z</time>
      </trkpt>
      <trkpt lat="47.519073" lon="8.124669">
        <ele>575.005480</ele>
        <time>2021-11-14T16:33:21.659Z</time>
      </trkpt>
      <trkpt lat="47.519641" lon="8.125947">
        <ele>565.037433</ele>
        <time>2021-11-14T16:33:30.797Z</time>
      </trkpt>
      <trkpt lat="47.519704" lon="8.126247">
        <ele>562.722871</ele>
        <time>2021-11-14T16:33:32.574Z</time>
      </trkpt>
      <trkpt lat="47.519714" lon="8.126761">
        <ele>558.934540</ele>
        <time>2021-11-14T16:33:35.484Z</time>
      </trkpt>
      <trkpt lat="47.519773" lon="8.127131">
        <ele>556.133707</ele>
        <time>2021-11-14T16:33:37.634Z</time>
      </trkpt>
      <trkpt lat="47.519948" lon="8.127803">
        <ele>549.665744</ele>
        <time>2021-11-14T16:33:41.655Z</time>
      </trkpt>
      <trkpt lat="47.520129" lon="8.128104">
        <ele>545.825297</ele>
        <time>2021-11-14T16:33:43.959Z</time>
      </trkpt>
      <trkpt lat="47.520230" lon="8.128176">
        <ele>544.243641</ele>
        <time>2021-11-14T16:33:44.870Z</time>
      </trkpt>
      <trkpt lat="47.520344" lon="8.128214">
        <ele>542.594852</ele>
        <time>2021-11-14T16:33:45.861Z</time>
      </trkpt>
      <trkpt lat="47.520467" lon="8.128201">
        <ele>540.854911</ele>
        <time>2021-11-14T16:33:46.934Z</time>
      </trkpt>
      <trkpt lat="47.520505" lon="8.128188">
        <ele>540.304608</ele>
        <time>2021-11-14T16:33:47.254Z</time>
      </trkpt>
      <trkpt lat="47.520650" lon="8.128120">
        <ele>538.158508</ele>
        <time>2021-11-14T16:33:48.503Z</time>
      </trkpt>
      <trkpt lat="47.520824" lon="8.128212">
        <ele>535.551555</ele>
        <time>2021-11-14T16:33:50.094Z</time>
      </trkpt>
      <trkpt lat="47.520851" lon="8.128363">
        <ele>534.063129</ele>
        <time>2021-11-14T16:33:50.953Z</time>
      </trkpt>
      <trkpt lat="47.520822" lon="8.128489">
        <ele>532.794690</ele>
        <time>2021-11-14T16:33:51.717Z</time>
      </trkpt>
      <trkpt lat="47.519957" lon="8.129855">
        <ele>519.506096</ele>
        <time>2021-11-14T16:34:02.479Z</time>
      </trkpt>
      <trkpt lat="47.519537" lon="8.130421">
        <ele>514.017678</ele>
        <time>2021-11-14T16:34:07.566Z</time>
      </trkpt>
      <trkpt lat="47.519115" lon="8.130853">
        <ele>510.087664</ele>
        <time>2021-11-14T16:34:12.164Z</time>
      </trkpt>
      <trkpt lat="47.519016" lon="8.130950">
        <ele>509.338079</ele>
        <time>2021-11-14T16:34:13.229Z</time>
      </trkpt>
      <trkpt lat="47.518939" lon="8.131029">
        <ele>508.746565</ele>
        <time>2021-11-14T16:34:14.101Z</time>
      </trkpt>
      <trkpt lat="47.518837" lon="8.131164">
        <ele>507.882712</ele>
        <time>2021-11-14T16:34:15.333Z</time>
      </trkpt>
      <trkpt lat="47.518696" lon="8.131473">
        <ele>506.292427</ele>
        <time>2021-11-14T16:34:17.651Z</time>
      </trkpt>
      <trkpt lat="47.518527" lon="8.131863">
        <ele>504.316388</ele>
        <time>2021-11-14T16:34:20.508Z</time>
      </trkpt>
      <trkpt lat="47.518221" lon="8.132565">
        <ele>500.753357</ele>
        <time>2021-11-14T16:34:25.639Z</time>
      </trkpt>
      <trkpt lat="47.517932" lon="8.133229">
        <ele>498.177370</ele>
        <time>2021-11-14T16:34:30.665Z</time>
      </trkpt>
      <trkpt lat="47.517646" lon="8.133904">
        <ele>495.599597</ele>
        <time>2021-11-14T16:34:35.831Z</time>
      </trkpt>
      <trkpt lat="47.517600" lon="8.134020">
        <ele>495.164431</ele>
        <time>2021-11-14T16:34:36.714Z</time>
      </trkpt>
      <trkpt lat="47.517506" lon="8.134288">
        <ele>494.187503</ele>
        <time>2021-11-14T16:34:38.665Z</time>
      </trkpt>
      <trkpt lat="47.517374" lon="8.134964">
        <ele>491.937790</ele>
        <time>2021-11-14T16:34:43.238Z</time>
      </trkpt>
      <trkpt lat="47.517380" lon="8.135284">
        <ele>491.097504</ele>
        <time>2021-11-14T16:34:45.318Z</time>
      </trkpt>
      <trkpt lat="47.517476" lon="8.135870">
        <ele>489.514717</ele>
        <time>2021-11-14T16:34:49.185Z</time>
      </trkpt>
      <trkpt lat="47.517541" lon="8.136103">
        <ele>488.852998</ele>
        <time>2021-11-14T16:34:50.831Z</time>
      </trkpt>
      <trkpt lat="47.517686" lon="8.136537">
        <ele>487.582029</ele>
        <time>2021-11-14T16:34:54.017Z</time>
      </trkpt>
      <trkpt lat="47.517845" lon="8.137000">
        <ele>486.218624</ele>
        <time>2021-11-14T16:34:57.535Z</time>
      </trkpt>
      <trkpt lat="47.517976" lon="8.137488">
        <ele>485.074297</ele>
        <time>2021-11-14T16:35:01.128Z</time>
      </trkpt>
      <trkpt lat="47.518030" lon="8.137790">
        <ele>485.119232</ele>
        <time>2021-11-14T16:35:03.270Z</time>
      </trkpt>
      <trkpt lat="47.518054" lon="8.137953">
        <ele>485.143228</ele>
        <time>2021-11-14T16:35:04.474Z</time>
      </trkpt>
      <trkpt lat="47.518104" lon="8.138332">
        <ele>485.198772</ele>
        <time>2021-11-14T16:35:07.438Z</time>
      </trkpt>
      <trkpt lat="47.518154" lon="8.138644">
        <ele>485.244895</ele>
        <time>2021-11-14T16:35:10.425Z</time>
      </trkpt>
      <trkpt lat="47.518444" lon="8.139763">
        <ele>485.417291</ele>
        <time>2021-11-14T16:35:26.363Z</time>
      </trkpt>
      <trkpt lat="47.518520" lon="8.140038">
        <ele>485.823025</ele>
        <time>2021-11-14T16:35:33.343Z</time>
      </trkpt>
      <trkpt lat="47.518621" lon="8.139978">
        <ele>486.413811</ele>
        <time>2021-11-14T16:35:36.034Z</time>
      </trkpt>
      <trkpt lat="47.518669" lon="8.139927">
        <ele>486.734535</ele>
        <time>2021-11-14T16:35:37.590Z</time>
      </trkpt>
      <trkpt lat="47.518769" lon="8.139831">
        <ele>487.381523</ele>
        <time>2021-11-14T16:35:42.362Z</time>
      </trkpt>
      <trkpt lat="47.519094" lon="8.139647">
        <ele>489.270437</ele>
        <time>2021-11-14T16:35:55.280Z</time>
      </trkpt>
      <trkpt lat="47.519420" lon="8.139752">
        <ele>491.081594</ele>
        <time>2021-11-14T16:36:08.014Z</time>
      </trkpt>
      <trkpt lat="47.519509" lon="8.139849">
        <ele>491.681522</ele>
        <time>2021-11-14T16:36:12.957Z</time>
      </trkpt>
      <trkpt lat="47.519606" lon="8.139968">
        <ele>492.365363</ele>
        <time>2021-11-14T16:36:17.240Z</time>
      </trkpt>
      <trkpt lat="47.519799" lon="8.140263">
        <ele>493.871188</ele>
        <time>2021-11-14T16:36:29.422Z</time>
      </trkpt>
      <trkpt lat="47.520010" lon="8.140561">
        <ele>495.470561</ele>
        <time>2021-11-14T16:36:41.771Z</time>
      </trkpt>
      <trkpt lat="47.520122" lon="8.140718">
        <ele>496.364052</ele>
        <time>2021-11-14T16:36:47.277Z</time>
      </trkpt>
      <trkpt lat="47.520231" lon="8.140864">
        <ele>497.215554</ele>
        <time>2021-11-14T16:36:52.771Z</time>
      </trkpt>
      <trkpt lat="47.520353" lon="8.141020">
        <ele>498.149401</ele>
        <time>2021-11-14T16:36:59.000Z</time>
      </trkpt>
      <trkpt lat="47.520494" lon="8.141123">
        <ele>499.060260</ele>
        <time>2021-11-14T16:37:04.770Z</time>
      </trkpt>
      <trkpt lat="47.520656" lon="8.141153">
        <ele>500.006099</ele>
        <time>2021-11-14T16:37:11.636Z</time>
      </trkpt>
      <trkpt lat="47.520728" lon="8.141141">
        <ele>500.425856</ele>
        <time>2021-11-14T16:37:14.173Z</time>
      </trkpt>
      <trkpt lat="47.520809" lon="8.141121">
        <ele>500.901599</ele>
        <time>2021-11-14T16:37:17.379Z</time>
      </trkpt>
      <trkpt lat="47.520979" lon="8.141091">
        <ele>501.893443</ele>
        <time>2021-11-14T16:37:23.498Z</time>
      </trkpt>
      <trkpt lat="47.521217" lon="8.141214">
        <ele>503.353831</ele>
        <time>2021-11-14T16:37:32.826Z</time>
      </trkpt>
      <trkpt lat="47.521323" lon="8.141385">
        <ele>504.261960</ele>
        <time>2021-11-14T16:37:38.244Z</time>
      </trkpt>
      <trkpt lat="47.521505" lon="8.142343">
        <ele>508.378732</ele>
        <time>2021-11-14T16:38:03.303Z</time>
      </trkpt>
      <trkpt lat="47.521571" lon="8.142474">
        <ele>509.074687</ele>
        <time>2021-11-14T16:38:07.215Z</time>
      </trkpt>
      <trkpt lat="47.522534" lon="8.143857">
        <ele>517.593355</ele>
        <time>2021-11-14T16:39:02.182Z</time>
      </trkpt>
      <trkpt lat="47.522611" lon="8.144805">
        <ele>522.091870</ele>
        <time>2021-11-14T16:39:32.021Z</time>
      </trkpt>
      <trkpt lat="47.522731" lon="8.145171">
        <ele>524.008699</ele>
        <time>2021-11-14T16:39:43.388Z</time>
      </trkpt>
      <trkpt lat="47.522791" lon="8.145287">
        <ele>524.697101</ele>
        <time>2021-11-14T16:39:48.661Z</time>
      </trkpt>
      <trkpt lat="47.522931" lon="8.145526">
        <ele>526.187694</ele>
        <time>2021-11-14T16:39:57.193Z</time>
      </trkpt>
      <trkpt lat="47.523143" lon="8.145922">
        <ele>528.568507</ele>
        <time>2021-11-14T16:40:11.745Z</time>
      </trkpt>
      <trkpt lat="47.523253" lon="8.146107">
        <ele>529.657493</ele>
        <time>2021-11-14T16:40:19.602Z</time>
      </trkpt>
      <trkpt lat="47.523819" lon="8.147090">
        <ele>533.650206</ele>
        <time>2021-11-14T16:40:49.833Z</time>
      </trkpt>
      <trkpt lat="47.523983" lon="8.147357">
        <ele>534.765748</ele>
        <time>2021-11-14T16:40:57.043Z</time>
      </trkpt>
      <trkpt lat="47.524101" lon="8.147621">
        <ele>535.744250</ele>
        <time>2021-11-14T16:41:03.065Z</time>
      </trkpt>
      <trkpt lat="47.524184" lon="8.147870">
        <ele>536.602495</ele>
        <time>2021-11-14T16:41:08.579Z</time>
      </trkpt>
      <trkpt lat="47.524236" lon="8.148019">
        <ele>537.120878</ele>
        <time>2021-11-14T16:41:12.432Z</time>
      </trkpt>
      <trkpt lat="47.524342" lon="8.148337">
        <ele>538.124151</ele>
        <time>2021-11-14T16:41:18.130Z</time>
      </trkpt>
      <trkpt lat="47.524426" lon="8.148623">
        <ele>538.895743</ele>
        <time>2021-11-14T16:41:24.991Z</time>
      </trkpt>
      <trkpt lat="47.524468" lon="8.148740">
        <ele>539.223558</ele>
        <time>2021-11-14T16:41:26.779Z</time>
      </trkpt>
      <trkpt lat="47.524547" lon="8.149022">
        <ele>539.978878</ele>
        <time>2021-11-14T16:41:34.018Z</time>
      </trkpt>
      <trkpt lat="47.524838" lon="8.149751">
        <ele>542.073959</ele>
        <time>2021-11-14T16:41:49.606Z</time>
      </trkpt>
      <trkpt lat="47.524850" lon="8.149772">
        <ele>542.142018</ele>
        <time>2021-11-14T16:41:51.379Z</time>
      </trkpt>
      <trkpt lat="47.525250" lon="8.150500">
        <ele>544.474943</ele>
        <time>2021-11-14T16:42:09.019Z</time>
      </trkpt>
      <trkpt lat="47.525477" lon="8.150925">
        <ele>545.935900</ele>
        <time>2021-11-14T16:42:21.292Z</time>
      </trkpt>
      <trkpt lat="47.525631" lon="8.151281">
        <ele>547.075767</ele>
        <time>2021-11-14T16:42:30.253Z</time>
      </trkpt>
      <trkpt lat="47.525712" lon="8.151526">
        <ele>547.811229</ele>
        <time>2021-11-14T16:42:37.459Z</time>
      </trkpt>
      <trkpt lat="47.525781" lon="8.151732">
        <ele>548.431195</ele>
        <time>2021-11-14T16:42:41.582Z</time>
      </trkpt>
      <trkpt lat="47.525929" lon="8.152237">
        <ele>549.915415</ele>
        <time>2021-11-14T16:42:52.713Z</time>
      </trkpt>
      <trkpt lat="47.525986" lon="8.152431">
        <ele>550.485819</ele>
        <time>2021-11-14T16:42:57.117Z</time>
      </trkpt>
      <trkpt lat="47.526015" lon="8.152528">
        <ele>550.771824</ele>
        <time>2021-11-14T16:42:59.798Z</time>
      </trkpt>
      <trkpt lat="47.526233" lon="8.152973">
        <ele>551.997179</ele>
        <time>2021-11-14T16:43:10.404Z</time>
      </trkpt>
      <trkpt lat="47.526376" lon="8.153143">
        <ele>552.472104</ele>
        <time>2021-11-14T16:43:14.630Z</time>
      </trkpt>
      <trkpt lat="47.526455" lon="8.153308">
        <ele>552.825839</ele>
        <time>2021-11-14T16:43:19.004Z</time>
      </trkpt>
      <trkpt lat="47.526505" lon="8.153493">
        <ele>553.174327</ele>
        <time>2021-11-14T16:43:25.353Z</time>
      </trkpt>
      <trkpt lat="47.526521" lon="8.153700">
        <ele>553.538700</ele>
        <time>2021-11-14T16:43:31.590Z</time>
      </trkpt>
      <trkpt lat="47.526555" lon="8.153923">
        <ele>553.938508</ele>
        <time>2021-11-14T16:43:39.398Z</time>
      </trkpt>
      <trkpt lat="47.526626" lon="8.154250">
        <ele>554.539214</ele>
        <time>2021-11-14T16:43:44.868Z</time>
      </trkpt>
      <trkpt lat="47.526984" lon="8.155261">
        <ele>556.261813</ele>
        <time>2021-11-14T16:44:04.247Z</time>
      </trkpt>
      <trkpt lat="47.527439" lon="8.157168">
        <ele>557.065911</ele>
        <time>2021-11-14T16:44:26.025Z</time>
      </trkpt>
      <trkpt lat="47.527713" lon="8.157956">
        <ele>557.174707</ele>
        <time>2021-11-14T16:44:34.511Z</time>
      </trkpt>
      <trkpt lat="47.527755" lon="8.158037">
        <ele>557.159761</ele>
        <time>2021-11-14T16:44:35.279Z</time>
      </trkpt>
      <trkpt lat="47.527831" lon="8.158278">
        <ele>557.120832</ele>
        <time>2021-11-14T16:44:38.477Z</time>
      </trkpt>
      <trkpt lat="47.527937" lon="8.159204">
        <ele>556.983375</ele>
        <time>2021-11-14T16:44:49.637Z</time>
      </trkpt>
      <trkpt lat="47.527947" lon="8.159230">
        <ele>556.978996</ele>
        <time>2021-11-14T16:44:49.814Z</time>
      </trkpt>
      <trkpt lat="47.527958" lon="8.159243">
        <ele>556.975945</ele>
        <time>2021-11-14T16:44:50.155Z</time>
      </trkpt>
      <trkpt lat="47.527983" lon="8.159252">
        <ele>556.970369</ele>
        <time>2021-11-14T16:44:51.497Z</time>
      </trkpt>
      <trkpt lat="47.528287" lon="8.159214">
        <ele>556.904244</ele>
        <time>2021-11-14T16:44:55.029Z</time>
      </trkpt>
      <trkpt lat="47.528358" lon="8.159233">
        <ele>556.888606</ele>
        <time>2021-11-14T16:44:56.742Z</time>
      </trkpt>
      <trkpt lat="47.528551" lon="8.159101">
        <ele>556.664427</ele>
        <time>2021-11-14T16:44:59.241Z</time>
      </trkpt>
      <trkpt lat="47.528696" lon="8.159009">
        <ele>555.856650</ele>
        <time>2021-11-14T16:45:01.147Z</time>
      </trkpt>
      <trkpt lat="47.528773" lon="8.158954">
        <ele>555.418890</ele>
        <time>2021-11-14T16:45:02.253Z</time>
      </trkpt>
      <trkpt lat="47.528873" lon="8.158872">
        <ele>554.833566</ele>
        <time>2021-11-14T16:45:03.368Z</time>
      </trkpt>
      <trkpt lat="47.528962" lon="8.158795">
        <ele>554.305754</ele>
        <time>2021-11-14T16:45:04.338Z</time>
      </trkpt>
      <trkpt lat="47.529013" lon="8.158747">
        <ele>553.996323</ele>
        <time>2021-11-14T16:45:05.630Z</time>
      </trkpt>
      <trkpt lat="47.529039" lon="8.158720">
        <ele>553.833716</ele>
        <time>2021-11-14T16:45:05.993Z</time>
      </trkpt>
      <trkpt lat="47.529091" lon="8.158660">
        <ele>553.496163</ele>
        <time>2021-11-14T16:45:06.635Z</time>
      </trkpt>
      <trkpt lat="47.529235" lon="8.158441">
        <ele>552.439230</ele>
        <time>2021-11-14T16:45:08.516Z</time>
      </trkpt>
      <trkpt lat="47.529315" lon="8.158315">
        <ele>551.841220</ele>
        <time>2021-11-14T16:45:10.013Z</time>
      </trkpt>
      <trkpt lat="47.529437" lon="8.158073">
        <ele>550.796994</ele>
        <time>2021-11-14T16:45:11.878Z</time>
      </trkpt>
      <trkpt lat="47.529679" lon="8.157567">
        <ele>548.653047</ele>
        <time>2021-11-14T16:45:15.639Z</time>
      </trkpt>
      <trkpt lat="47.529810" lon="8.157300">
        <ele>547.385123</ele>
        <time>2021-11-14T16:45:17.599Z</time>
      </trkpt>
      <trkpt lat="47.529856" lon="8.157192">
        <ele>546.506845</ele>
        <time>2021-11-14T16:45:18.320Z</time>
      </trkpt>
      <trkpt lat="47.530071" lon="8.156701">
        <ele>542.481717</ele>
        <time>2021-11-14T16:45:21.682Z</time>
      </trkpt>
      <trkpt lat="47.530199" lon="8.156282">
        <ele>539.318574</ele>
        <time>2021-11-14T16:45:24.336Z</time>
      </trkpt>
      <trkpt lat="47.530239" lon="8.155804">
        <ele>536.005722</ele>
        <time>2021-11-14T16:45:27.139Z</time>
      </trkpt>
      <trkpt lat="47.530234" lon="8.155720">
        <ele>535.425727</ele>
        <time>2021-11-14T16:45:27.610Z</time>
      </trkpt>
      <trkpt lat="47.530211" lon="8.155580">
        <ele>534.434710</ele>
        <time>2021-11-14T16:45:28.429Z</time>
      </trkpt>
      <trkpt lat="47.530058" lon="8.154979">
        <ele>530.016951</ele>
        <time>2021-11-14T16:45:32.158Z</time>
      </trkpt>
      <trkpt lat="47.529728" lon="8.154087">
        <ele>524.759430</ele>
        <time>2021-11-14T16:45:38.158Z</time>
      </trkpt>
      <trkpt lat="47.529587" lon="8.153510">
        <ele>521.703987</ele>
        <time>2021-11-14T16:45:41.867Z</time>
      </trkpt>
      <trkpt lat="47.529529" lon="8.153239">
        <ele>520.288422</ele>
        <time>2021-11-14T16:45:43.630Z</time>
      </trkpt>
      <trkpt lat="47.529405" lon="8.152475">
        <ele>516.375843</ele>
        <time>2021-11-14T16:45:48.519Z</time>
      </trkpt>
      <trkpt lat="47.529292" lon="8.151912">
        <ele>514.405851</ele>
        <time>2021-11-14T16:45:52.174Z</time>
      </trkpt>
      <trkpt lat="47.529120" lon="8.151400">
        <ele>512.602776</ele>
        <time>2021-11-14T16:45:55.728Z</time>
      </trkpt>
      <trkpt lat="47.529014" lon="8.151078">
        <ele>511.473290</ele>
        <time>2021-11-14T16:45:58.005Z</time>
      </trkpt>
      <trkpt lat="47.528964" lon="8.150888">
        <ele>510.830336</ele>
        <time>2021-11-14T16:45:59.313Z</time>
      </trkpt>
      <trkpt lat="47.528852" lon="8.149954">
        <ele>507.839380</ele>
        <time>2021-11-14T16:46:05.703Z</time>
      </trkpt>
      <trkpt lat="47.528834" lon="8.149583">
        <ele>507.234736</ele>
        <time>2021-11-14T16:46:08.284Z</time>
      </trkpt>
      <trkpt lat="47.528815" lon="8.149196">
        <ele>506.714578</ele>
        <time>2021-11-14T16:46:11.035Z</time>
      </trkpt>
      <trkpt lat="47.528722" lon="8.148418">
        <ele>505.655419</ele>
        <time>2021-11-14T16:46:16.893Z</time>
      </trkpt>
      <trkpt lat="47.528534" lon="8.147807">
        <ele>504.755313</ele>
        <time>2021-11-14T16:46:22.314Z</time>
      </trkpt>
      <trkpt lat="47.528477" lon="8.147642">
        <ele>504.506855</ele>
        <time>2021-11-14T16:46:23.913Z</time>
      </trkpt>
      <trkpt lat="47.528291" lon="8.147059">
        <ele>502.825205</ele>
        <time>2021-11-14T16:46:29.154Z</time>
      </trkpt>
      <trkpt lat="47.528185" lon="8.146699">
        <ele>501.324261</ele>
        <time>2021-11-14T16:46:32.390Z</time>
      </trkpt>
      <trkpt lat="47.528149" lon="8.146523">
        <ele>500.621451</ele>
        <time>2021-11-14T16:46:33.669Z</time>
      </trkpt>
      <trkpt lat="47.528029" lon="8.145634">
        <ele>497.156699</ele>
        <time>2021-11-14T16:46:39.435Z</time>
      </trkpt>
      <trkpt lat="47.528031" lon="8.145045">
        <ele>494.905661</ele>
        <time>2021-11-14T16:46:42.862Z</time>
      </trkpt>
      <trkpt lat="47.528102" lon="8.144463">
        <ele>490.737545</ele>
        <time>2021-11-14T16:46:46.271Z</time>
      </trkpt>
      <trkpt lat="47.528165" lon="8.144175">
        <ele>487.826540</ele>
        <time>2021-11-14T16:46:48.005Z</time>
      </trkpt>
      <trkpt lat="47.528319" lon="8.143633">
        <ele>482.172251</ele>
        <time>2021-11-14T16:46:51.339Z</time>
      </trkpt>
      <trkpt lat="47.528529" lon="8.143139">
        <ele>476.559166</ele>
        <time>2021-11-14T16:46:54.606Z</time>
      </trkpt>
      <trkpt lat="47.529056" lon="8.142203">
        <ele>464.985778</ele>
        <time>2021-11-14T16:47:01.381Z</time>
      </trkpt>
      <trkpt lat="47.529206" lon="8.141942">
        <ele>461.828836</ele>
        <time>2021-11-14T16:47:03.290Z</time>
      </trkpt>
      <trkpt lat="47.529330" lon="8.141745">
        <ele>459.348156</ele>
        <time>2021-11-14T16:47:04.793Z</time>
      </trkpt>
      <trkpt lat="47.529595" lon="8.141302">
        <ele>453.896795</ele>
        <time>2021-11-14T16:47:08.145Z</time>
      </trkpt>
      <trkpt lat="47.529775" lon="8.140977">
        <ele>450.025081</ele>
        <time>2021-11-14T16:47:10.547Z</time>
      </trkpt>
      <trkpt lat="47.530071" lon="8.140473">
        <ele>443.872518</ele>
        <time>2021-11-14T16:47:14.373Z</time>
      </trkpt>
      <trkpt lat="47.530742" lon="8.139379">
        <ele>436.654071</ele>
        <time>2021-11-14T16:47:23.092Z</time>
      </trkpt>
      <trkpt lat="47.531156" lon="8.138865">
        <ele>432.776788</ele>
        <time>2021-11-14T16:47:28.238Z</time>
      </trkpt>
      <trkpt lat="47.531239" lon="8.138781">
        <ele>432.055283</ele>
        <time>2021-11-14T16:47:29.148Z</time>
      </trkpt>
      <trkpt lat="47.531239" lon="8.138781">
        <ele>432.055283</ele>
        <time>2021-11-14T16:47:29.153Z</time>
      </trkpt>
      <trkpt lat="47.531239" lon="8.138781">
        <ele>432.055283</ele>
        <time>2021-11-14T16:47:29.177Z</time>
      </trkpt>
      <trkpt lat="47.531449" lon="8.138596">
        <ele>430.521764</ele>
        <time>2021-11-14T16:47:31.745Z</time>
      </trkpt>
      <trkpt lat="47.531896" lon="8.138317">
        <ele>428.450979</ele>
        <time>2021-11-14T16:47:36.386Z</time>
      </trkpt>
      <trkpt lat="47.532062" lon="8.138249">
        <ele>427.715715</ele>
        <time>2021-11-14T16:47:38.175Z</time>
      </trkpt>
      <trkpt lat="47.532251" lon="8.138188">
        <ele>426.889934</ele>
        <time>2021-11-14T16:47:39.976Z</time>
      </trkpt>
      <trkpt lat="47.532921" lon="8.138051">
        <ele>424.002556</ele>
        <time>2021-11-14T16:47:46.578Z</time>
      </trkpt>
      <trkpt lat="47.533257" lon="8.137990">
        <ele>422.451746</ele>
        <time>2021-11-14T16:47:49.864Z</time>
      </trkpt>
      <trkpt lat="47.533600" lon="8.137926">
        <ele>420.719816</ele>
        <time>2021-11-14T16:47:53.143Z</time>
      </trkpt>
      <trkpt lat="47.533889" lon="8.137879">
        <ele>419.263294</ele>
        <time>2021-11-14T16:47:55.876Z</time>
      </trkpt>
      <trkpt lat="47.534074" lon="8.137846">
        <ele>418.329791</ele>
        <time>2021-11-14T16:47:57.633Z</time>
      </trkpt>
      <trkpt lat="47.534107" lon="8.137840">
        <ele>418.163228</ele>
        <time>2021-11-14T16:47:57.965Z</time>
      </trkpt>
      <trkpt lat="47.534213" lon="8.137821">
        <ele>417.628319</ele>
        <time>2021-11-14T16:47:58.939Z</time>
      </trkpt>
      <trkpt lat="47.534814" lon="8.137722">
        <ele>414.598890</ele>
        <time>2021-11-14T16:48:04.569Z</time>
      </trkpt>
      <trkpt lat="47.535048" lon="8.137685">
        <ele>413.498629</ele>
        <time>2021-11-14T16:48:06.748Z</time>
      </trkpt>
      <trkpt lat="47.535119" lon="8.137674">
        <ele>413.179240</ele>
        <time>2021-11-14T16:48:07.421Z</time>
      </trkpt>
      <trkpt lat="47.535263" lon="8.137663">
        <ele>412.534125</ele>
        <time>2021-11-14T16:48:08.801Z</time>
      </trkpt>
      <trkpt lat="47.535322" lon="8.137658">
        <ele>412.269726</ele>
        <time>2021-11-14T16:48:09.352Z</time>
      </trkpt>
      <trkpt lat="47.535430" lon="8.137649">
        <ele>411.785768</ele>
        <time>2021-11-14T16:48:10.371Z</time>
      </trkpt>
      <trkpt lat="47.535502" lon="8.137652">
        <ele>411.463511</ele>
        <time>2021-11-14T16:48:11.062Z</time>
      </trkpt>
      <trkpt lat="47.535749" lon="8.137651">
        <ele>410.358423</ele>
        <time>2021-11-14T16:48:13.417Z</time>
      </trkpt>
      <trkpt lat="47.536065" lon="8.137655">
        <ele>408.944581</ele>
        <time>2021-11-14T16:48:16.520Z</time>
      </trkpt>
      <trkpt lat="47.536180" lon="8.137660">
        <ele>408.429847</ele>
        <time>2021-11-14T16:48:17.601Z</time>
      </trkpt>
      <trkpt lat="47.536373" lon="8.137663">
        <ele>407.566314</ele>
        <time>2021-11-14T16:48:19.476Z</time>
      </trkpt>
      <trkpt lat="47.537303" lon="8.137605">
        <ele>404.315252</ele>
        <time>2021-11-14T16:48:28.607Z</time>
      </trkpt>
      <trkpt lat="47.537561" lon="8.137544">
        <ele>403.540819</ele>
        <time>2021-11-14T16:48:31.344Z</time>
      </trkpt>
      <trkpt lat="47.537646" lon="8.137515">
        <ele>403.282269</ele>
        <time>2021-11-14T16:48:32.208Z</time>
      </trkpt>
      <trkpt lat="47.537673" lon="8.137505">
        <ele>403.199773</ele>
        <time>2021-11-14T16:48:32.494Z</time>
      </trkpt>
      <trkpt lat="47.537954" lon="8.137399">
        <ele>402.340261</ele>
        <time>2021-11-14T16:48:35.637Z</time>
      </trkpt>
      <trkpt lat="47.538245" lon="8.137269">
        <ele>401.439317</ele>
        <time>2021-11-14T16:48:38.957Z</time>
      </trkpt>
      <trkpt lat="47.538326" lon="8.137234">
        <ele>401.189214</ele>
        <time>2021-11-14T16:48:39.837Z</time>
      </trkpt>
      <trkpt lat="47.539177" lon="8.136833">
        <ele>398.946853</ele>
        <time>2021-11-14T16:48:49.501Z</time>
      </trkpt>
      <trkpt lat="47.539418" lon="8.136710">
        <ele>398.328095</ele>
        <time>2021-11-14T16:48:52.276Z</time>
      </trkpt>
      <trkpt lat="47.539754" lon="8.136528">
        <ele>397.459662</ele>
        <time>2021-11-14T16:48:56.054Z</time>
      </trkpt>
      <trkpt lat="47.540238" lon="8.136236">
        <ele>396.121334</ele>
        <time>2021-11-14T16:49:01.454Z</time>
      </trkpt>
      <trkpt lat="47.540569" lon="8.135993">
        <ele>394.940217</ele>
        <time>2021-11-14T16:49:05.264Z</time>
      </trkpt>
      <trkpt lat="47.540731" lon="8.135878">
        <ele>394.365864</ele>
        <time>2021-11-14T16:49:07.171Z</time>
      </trkpt>
      <trkpt lat="47.540869" lon="8.135758">
        <ele>393.854246</ele>
        <time>2021-11-14T16:49:08.695Z</time>
      </trkpt>
      <trkpt lat="47.541466" lon="8.135315">
        <ele>391.719416</ele>
        <time>2021-11-14T16:49:15.489Z</time>
      </trkpt>
      <trkpt lat="47.541516" lon="8.135303">
        <ele>391.557470</ele>
        <time>2021-11-14T16:49:15.947Z</time>
      </trkpt>
      <trkpt lat="47.541574" lon="8.135288">
        <ele>391.369226</ele>
        <time>2021-11-14T16:49:16.526Z</time>
      </trkpt>
      <trkpt lat="47.541750" lon="8.135267">
        <ele>390.804692</ele>
        <time>2021-11-14T16:49:18.344Z</time>
      </trkpt>
      <trkpt lat="47.541919" lon="8.135253">
        <ele>390.318100</ele>
        <time>2021-11-14T16:49:19.976Z</time>
      </trkpt>
      <trkpt lat="47.542003" lon="8.135244">
        <ele>390.085866</ele>
        <time>2021-11-14T16:49:20.860Z</time>
      </trkpt>
      <trkpt lat="47.542148" lon="8.135197">
        <ele>389.676572</ele>
        <time>2021-11-14T16:49:22.389Z</time>
      </trkpt>
      <trkpt lat="47.542698" lon="8.134836">
        <ele>388.017759</ele>
        <time>2021-11-14T16:49:28.611Z</time>
      </trkpt>
      <trkpt lat="47.542844" lon="8.134643">
        <ele>387.478183</ele>
        <time>2021-11-14T16:49:30.658Z</time>
      </trkpt>
      <trkpt lat="47.542894" lon="8.134525">
        <ele>387.218850</ele>
        <time>2021-11-14T16:49:31.599Z</time>
      </trkpt>
      <trkpt lat="47.542926" lon="8.134419">
        <ele>387.002709</ele>
        <time>2021-11-14T16:49:32.549Z</time>
      </trkpt>
      <trkpt lat="47.543005" lon="8.134187">
        <ele>386.519031</ele>
        <time>2021-11-14T16:49:34.438Z</time>
      </trkpt>
      <trkpt lat="47.543075" lon="8.134036">
        <ele>386.178063</ele>
        <time>2021-11-14T16:49:35.716Z</time>
      </trkpt>
      <trkpt lat="47.543149" lon="8.133918">
        <ele>385.878261</ele>
        <time>2021-11-14T16:49:36.961Z</time>
      </trkpt>
      <trkpt lat="47.543220" lon="8.133852">
        <ele>385.655992</ele>
        <time>2021-11-14T16:49:37.820Z</time>
      </trkpt>
      <trkpt lat="47.543321" lon="8.133795">
        <ele>385.407328</ele>
        <time>2021-11-14T16:49:38.919Z</time>
      </trkpt>
      <trkpt lat="47.543505" lon="8.133721">
        <ele>384.968673</ele>
        <time>2021-11-14T16:49:41.132Z</time>
      </trkpt>
      <trkpt lat="47.543619" lon="8.133664">
        <ele>384.691854</ele>
        <time>2021-11-14T16:49:42.417Z</time>
      </trkpt>
      <trkpt lat="47.543708" lon="8.133619">
        <ele>384.475492</ele>
        <time>2021-11-14T16:49:43.358Z</time>
      </trkpt>
      <trkpt lat="47.543845" lon="8.133524">
        <ele>384.127472</ele>
        <time>2021-11-14T16:49:45.228Z</time>
      </trkpt>
      <trkpt lat="47.544105" lon="8.133316">
        <ele>383.447634</ele>
        <time>2021-11-14T16:49:48.338Z</time>
      </trkpt>
      <trkpt lat="47.544222" lon="8.133222">
        <ele>383.141412</ele>
        <time>2021-11-14T16:49:49.797Z</time>
      </trkpt>
      <trkpt lat="47.544453" lon="8.133038">
        <ele>382.537993</ele>
        <time>2021-11-14T16:49:52.726Z</time>
      </trkpt>
      <trkpt lat="47.544650" lon="8.132899">
        <ele>382.035969</ele>
        <time>2021-11-14T16:49:54.957Z</time>
      </trkpt>
      <trkpt lat="47.544810" lon="8.132765">
        <ele>381.613102</ele>
        <time>2021-11-14T16:49:56.997Z</time>
      </trkpt>
      <trkpt lat="47.545059" lon="8.132589">
        <ele>380.803708</ele>
        <time>2021-11-14T16:49:59.888Z</time>
      </trkpt>
      <trkpt lat="47.545184" lon="8.132503">
        <ele>380.391808</ele>
        <time>2021-11-14T16:50:01.303Z</time>
      </trkpt>
      <trkpt lat="47.545331" lon="8.132442">
        <ele>379.935569</ele>
        <time>2021-11-14T16:50:02.864Z</time>
      </trkpt>
      <trkpt lat="47.545734" lon="8.132329">
        <ele>378.709765</ele>
        <time>2021-11-14T16:50:07.093Z</time>
      </trkpt>
      <trkpt lat="47.545962" lon="8.132304">
        <ele>378.026491</ele>
        <time>2021-11-14T16:50:09.403Z</time>
      </trkpt>
      <trkpt lat="47.546023" lon="8.132300">
        <ele>377.844006</ele>
        <time>2021-11-14T16:50:10.007Z</time>
      </trkpt>
      <trkpt lat="47.546602" lon="8.132235">
        <ele>376.116454</ele>
        <time>2021-11-14T16:50:15.893Z</time>
      </trkpt>
      <trkpt lat="47.546938" lon="8.132181">
        <ele>375.207326</ele>
        <time>2021-11-14T16:50:19.267Z</time>
      </trkpt>
      <trkpt lat="47.547951" lon="8.132055">
        <ele>372.472813</ele>
        <time>2021-11-14T16:50:29.754Z</time>
      </trkpt>
      <trkpt lat="47.548544" lon="8.131974">
        <ele>371.139694</ele>
        <time>2021-11-14T16:50:36.318Z</time>
      </trkpt>
      <trkpt lat="47.549752" lon="8.131786">
        <ele>369.710423</ele>
        <time>2021-11-14T16:50:50.967Z</time>
      </trkpt>
      <trkpt lat="47.550488" lon="8.131671">
        <ele>368.839548</ele>
        <time>2021-11-14T16:51:00.451Z</time>
      </trkpt>
      <trkpt lat="47.550614" lon="8.131652">
        <ele>368.690509</ele>
        <time>2021-11-14T16:51:02.140Z</time>
      </trkpt>
      <trkpt lat="47.550712" lon="8.131637">
        <ele>368.574572</ele>
        <time>2021-11-14T16:51:03.324Z</time>
      </trkpt>
      <trkpt lat="47.551029" lon="8.131586">
        <ele>368.199345</ele>
        <time>2021-11-14T16:51:07.238Z</time>
      </trkpt>
      <trkpt lat="47.551383" lon="8.131531">
        <ele>367.780486</ele>
        <time>2021-11-14T16:51:11.383Z</time>
      </trkpt>
      <trkpt lat="47.551749" lon="8.131479">
        <ele>367.347814</ele>
        <time>2021-11-14T16:51:15.654Z</time>
      </trkpt>
      <trkpt lat="47.551784" lon="8.131474">
        <ele>367.306436</ele>
        <time>2021-11-14T16:51:16.035Z</time>
      </trkpt>
      <trkpt lat="47.551873" lon="8.131469">
        <ele>367.201628</ele>
        <time>2021-11-14T16:51:17.013Z</time>
      </trkpt>
      <trkpt lat="47.552293" lon="8.131579">
        <ele>366.489618</ele>
        <time>2021-11-14T16:51:21.981Z</time>
      </trkpt>
      <trkpt lat="47.552326" lon="8.131597">
        <ele>366.427333</ele>
        <time>2021-11-14T16:51:22.317Z</time>
      </trkpt>
      <trkpt lat="47.552402" lon="8.131645">
        <ele>366.281003</ele>
        <time>2021-11-14T16:51:23.271Z</time>
      </trkpt>
      <trkpt lat="47.552493" lon="8.131722">
        <ele>366.095392</ele>
        <time>2021-11-14T16:51:24.461Z</time>
      </trkpt>
      <trkpt lat="47.552602" lon="8.131831">
        <ele>365.862476</ele>
        <time>2021-11-14T16:51:25.898Z</time>
      </trkpt>
      <trkpt lat="47.553483" lon="8.132756">
        <ele>363.949993</ele>
        <time>2021-11-14T16:51:37.872Z</time>
      </trkpt>
      <trkpt lat="47.553541" lon="8.132821">
        <ele>363.816939</ele>
        <time>2021-11-14T16:51:38.600Z</time>
      </trkpt>
      <trkpt lat="47.553641" lon="8.132928">
        <ele>363.589926</ele>
        <time>2021-11-14T16:51:40.103Z</time>
      </trkpt>
      <trkpt lat="47.553708" lon="8.133003">
        <ele>363.435384</ele>
        <time>2021-11-14T16:51:41.099Z</time>
      </trkpt>
      <trkpt lat="47.553759" lon="8.133056">
        <ele>363.320738</ele>
        <time>2021-11-14T16:51:41.792Z</time>
      </trkpt>
      <trkpt lat="47.553847" lon="8.133128">
        <ele>363.135730</ele>
        <time>2021-11-14T16:51:42.868Z</time>
      </trkpt>
      <trkpt lat="47.554071" lon="8.133239">
        <ele>362.701033</ele>
        <time>2021-11-14T16:51:45.661Z</time>
      </trkpt>
      <trkpt lat="47.554467" lon="8.133300">
        <ele>361.968299</ele>
        <time>2021-11-14T16:51:50.187Z</time>
      </trkpt>
      <trkpt lat="47.554619" lon="8.133314">
        <ele>361.688015</ele>
        <time>2021-11-14T16:51:51.815Z</time>
      </trkpt>
      <trkpt lat="47.554855" lon="8.133333">
        <ele>361.253035</ele>
        <time>2021-11-14T16:51:54.406Z</time>
      </trkpt>
      <trkpt lat="47.555303" lon="8.133375">
        <ele>360.395871</ele>
        <time>2021-11-14T16:51:59.355Z</time>
      </trkpt>
      <trkpt lat="47.555444" lon="8.133390">
        <ele>360.093857</ele>
        <time>2021-11-14T16:52:00.905Z</time>
      </trkpt>
      <trkpt lat="47.555690" lon="8.133401">
        <ele>359.568051</ele>
        <time>2021-11-14T16:52:03.633Z</time>
      </trkpt>
      <trkpt lat="47.555896" lon="8.133399">
        <ele>359.127933</ele>
        <time>2021-11-14T16:52:05.855Z</time>
      </trkpt>
      <trkpt lat="47.556093" lon="8.133383">
        <ele>358.706420</ele>
        <time>2021-11-14T16:52:08.016Z</time>
      </trkpt>
      <trkpt lat="47.556204" lon="8.133369">
        <ele>358.468417</ele>
        <time>2021-11-14T16:52:09.178Z</time>
      </trkpt>
      <trkpt lat="47.556513" lon="8.133340">
        <ele>357.806931</ele>
        <time>2021-11-14T16:52:12.560Z</time>
      </trkpt>
      <trkpt lat="47.557021" lon="8.133293">
        <ele>356.721518</ele>
        <time>2021-11-14T16:52:18.027Z</time>
      </trkpt>
      <trkpt lat="47.557237" lon="8.133273">
        <ele>356.275383</ele>
        <time>2021-11-14T16:52:20.319Z</time>
      </trkpt>
      <trkpt lat="47.557846" lon="8.133209">
        <ele>355.016823</ele>
        <time>2021-11-14T16:52:26.936Z</time>
      </trkpt>
      <trkpt lat="47.558277" lon="8.133165">
        <ele>354.126244</ele>
        <time>2021-11-14T16:52:31.551Z</time>
      </trkpt>
      <trkpt lat="47.558609" lon="8.133121">
        <ele>353.439120</ele>
        <time>2021-11-14T16:52:35.206Z</time>
      </trkpt>
      <trkpt lat="47.559286" lon="8.133042">
        <ele>352.566165</ele>
        <time>2021-11-14T16:52:43.174Z</time>
      </trkpt>
      <trkpt lat="47.559423" lon="8.133034">
        <ele>352.428132</ele>
        <time>2021-11-14T16:52:44.803Z</time>
      </trkpt>
      <trkpt lat="47.559553" lon="8.133012">
        <ele>352.296403</ele>
        <time>2021-11-14T16:52:49.254Z</time>
      </trkpt>
      <trkpt lat="47.559972" lon="8.132981">
        <ele>351.874046</ele>
        <time>2021-11-14T16:53:03.716Z</time>
      </trkpt>
      <trkpt lat="47.560046" lon="8.132973">
        <ele>351.799348</ele>
        <time>2021-11-14T16:53:06.142Z</time>
      </trkpt>
      <trkpt lat="47.560143" lon="8.132963">
        <ele>351.701456</ele>
        <time>2021-11-14T16:53:07.403Z</time>
      </trkpt>
      <trkpt lat="47.560243" lon="8.132948">
        <ele>351.600266</ele>
        <time>2021-11-14T16:53:08.639Z</time>
      </trkpt>
      <trkpt lat="47.560335" lon="8.132935">
        <ele>351.507224</ele>
        <time>2021-11-14T16:53:10.155Z</time>
      </trkpt>
      <trkpt lat="47.560777" lon="8.132722">
        <ele>351.089910</ele>
        <time>2021-11-14T16:53:16.027Z</time>
      </trkpt>
      <trkpt lat="47.560827" lon="8.132679">
        <ele>351.045155</ele>
        <time>2021-11-14T16:53:16.850Z</time>
      </trkpt>
      <trkpt lat="47.560889" lon="8.132614">
        <ele>350.986358</ele>
        <time>2021-11-14T16:53:17.776Z</time>
      </trkpt>
      <trkpt lat="47.561056" lon="8.132422">
        <ele>350.822722</ele>
        <time>2021-11-14T16:53:20.574Z</time>
      </trkpt>
      <trkpt lat="47.561185" lon="8.132211">
        <ele>350.673978</ele>
        <time>2021-11-14T16:53:23.059Z</time>
      </trkpt>
      <trkpt lat="47.561796" lon="8.130897">
        <ele>349.821710</ele>
        <time>2021-11-14T16:53:36.748Z</time>
      </trkpt>
      <trkpt lat="47.562119" lon="8.130197">
        <ele>349.056225</ele>
        <time>2021-11-14T16:53:43.323Z</time>
      </trkpt>
      <trkpt lat="47.562169" lon="8.130101">
        <ele>348.946757</ele>
        <time>2021-11-14T16:53:44.324Z</time>
      </trkpt>
      <trkpt lat="47.562200" lon="8.130042">
        <ele>348.879258</ele>
        <time>2021-11-14T16:53:44.952Z</time>
      </trkpt>
      <trkpt lat="47.562419" lon="8.129559">
        <ele>348.353981</ele>
        <time>2021-11-14T16:53:49.564Z</time>
      </trkpt>
      <trkpt lat="47.562839" lon="8.128684">
        <ele>347.375539</ele>
        <time>2021-11-14T16:53:57.846Z</time>
      </trkpt>
      <trkpt lat="47.562984" lon="8.128403">
        <ele>347.017297</ele>
        <time>2021-11-14T16:54:00.592Z</time>
      </trkpt>
      <trkpt lat="47.563096" lon="8.128178">
        <ele>346.734147</ele>
        <time>2021-11-14T16:54:02.784Z</time>
      </trkpt>
      <trkpt lat="47.563232" lon="8.127932">
        <ele>346.412086</ele>
        <time>2021-11-14T16:54:05.375Z</time>
      </trkpt>
      <trkpt lat="47.563398" lon="8.127697">
        <ele>346.067552</ele>
        <time>2021-11-14T16:54:08.126Z</time>
      </trkpt>
      <trkpt lat="47.563589" lon="8.127466">
        <ele>345.697560</ele>
        <time>2021-11-14T16:54:11.098Z</time>
      </trkpt>
      <trkpt lat="47.563627" lon="8.127420">
        <ele>345.623922</ele>
        <time>2021-11-14T16:54:11.640Z</time>
      </trkpt>
      <trkpt lat="47.563751" lon="8.127247">
        <ele>345.368332</ele>
        <time>2021-11-14T16:54:13.502Z</time>
      </trkpt>
      <trkpt lat="47.563829" lon="8.127101">
        <ele>345.179747</ele>
        <time>2021-11-14T16:54:14.979Z</time>
      </trkpt>
      <trkpt lat="47.563898" lon="8.126936">
        <ele>344.983166</ele>
        <time>2021-11-14T16:54:19.220Z</time>
      </trkpt>
      <trkpt lat="47.563932" lon="8.126822">
        <ele>344.856946</ele>
        <time>2021-11-14T16:54:21.711Z</time>
      </trkpt>
      <trkpt lat="47.563935" lon="8.126813">
        <ele>344.846780</ele>
        <time>2021-11-14T16:54:21.952Z</time>
      </trkpt>
      <trkpt lat="47.563988" lon="8.126616">
        <ele>344.567227</ele>
        <time>2021-11-14T16:54:26.684Z</time>
      </trkpt>
      <trkpt lat="47.564016" lon="8.126515">
        <ele>344.400865</ele>
        <time>2021-11-14T16:54:29.083Z</time>
      </trkpt>
      <trkpt lat="47.564050" lon="8.126343">
        <ele>344.127797</ele>
        <time>2021-11-14T16:54:32.775Z</time>
      </trkpt>
      <trkpt lat="47.564078" lon="8.126253">
        <ele>343.976803</ele>
        <time>2021-11-14T16:54:34.980Z</time>
      </trkpt>
      <trkpt lat="47.564142" lon="8.126069">
        <ele>343.661412</ele>
        <time>2021-11-14T16:54:39.388Z</time>
      </trkpt>
      <trkpt lat="47.564204" lon="8.125933">
        <ele>343.411349</ele>
        <time>2021-11-14T16:54:40.596Z</time>
      </trkpt>
      <trkpt lat="47.564281" lon="8.125780">
        <ele>343.120547</ele>
        <time>2021-11-14T16:54:41.977Z</time>
      </trkpt>
      <trkpt lat="47.564404" lon="8.125557">
        <ele>342.681725</ele>
        <time>2021-11-14T16:54:44.189Z</time>
      </trkpt>
      <trkpt lat="47.564445" lon="8.125480">
        <ele>342.532284</ele>
        <time>2021-11-14T16:54:44.822Z</time>
      </trkpt>
      <trkpt lat="47.564862" lon="8.124663">
        <ele>340.971542</ele>
        <time>2021-11-14T16:54:52.210Z</time>
      </trkpt>
      <trkpt lat="47.565033" lon="8.124341">
        <ele>340.371041</ele>
        <time>2021-11-14T16:54:55.149Z</time>
      </trkpt>
      <trkpt lat="47.565098" lon="8.124202">
        <ele>340.130803</ele>
        <time>2021-11-14T16:54:56.270Z</time>
      </trkpt>
      <trkpt lat="47.565268" lon="8.123888">
        <ele>339.558921</ele>
        <time>2021-11-14T16:54:59.049Z</time>
      </trkpt>
      <trkpt lat="47.565326" lon="8.123776">
        <ele>339.358366</ele>
        <time>2021-11-14T16:54:59.968Z</time>
      </trkpt>
      <trkpt lat="47.565434" lon="8.123568">
        <ele>338.985540</ele>
        <time>2021-11-14T16:55:01.870Z</time>
      </trkpt>
      <trkpt lat="47.565629" lon="8.123189">
        <ele>338.308498</ele>
        <time>2021-11-14T16:55:05.375Z</time>
      </trkpt>
      <trkpt lat="47.565954" lon="8.122541">
        <ele>337.161563</ele>
        <time>2021-11-14T16:55:11.715Z</time>
      </trkpt>
      <trkpt lat="47.566102" lon="8.122133">
        <ele>336.732223</ele>
        <time>2021-11-14T16:55:15.583Z</time>
      </trkpt>
      <trkpt lat="47.566119" lon="8.122027">
        <ele>336.663979</ele>
        <time>2021-11-14T16:55:16.428Z</time>
      </trkpt>
      <trkpt lat="47.566151" lon="8.121930">
        <ele>336.596350</ele>
        <time>2021-11-14T16:55:17.522Z</time>
      </trkpt>
      <trkpt lat="47.566318" lon="8.120964">
        <ele>335.971748</ele>
        <time>2021-11-14T16:55:25.726Z</time>
      </trkpt>
      <trkpt lat="47.566366" lon="8.120637">
        <ele>335.762140</ele>
        <time>2021-11-14T16:55:28.549Z</time>
      </trkpt>
      <trkpt lat="47.566398" lon="8.120421">
        <ele>335.623625</ele>
        <time>2021-11-14T16:55:30.659Z</time>
      </trkpt>
      <trkpt lat="47.566431" lon="8.120180">
        <ele>335.469598</ele>
        <time>2021-11-14T16:55:32.658Z</time>
      </trkpt>
      <trkpt lat="47.566474" lon="8.119870">
        <ele>335.271368</ele>
        <time>2021-11-14T16:55:35.519Z</time>
      </trkpt>
      <trkpt lat="47.566566" lon="8.119245">
        <ele>334.723334</ele>
        <time>2021-11-14T16:55:40.841Z</time>
      </trkpt>
      <trkpt lat="47.566580" lon="8.119152">
        <ele>334.640023</ele>
        <time>2021-11-14T16:55:41.512Z</time>
      </trkpt>
      <trkpt lat="47.566644" lon="8.118715">
        <ele>334.249051</ele>
        <time>2021-11-14T16:55:45.124Z</time>
      </trkpt>
      <trkpt lat="47.566733" lon="8.118099">
        <ele>333.698265</ele>
        <time>2021-11-14T16:55:49.788Z</time>
      </trkpt>
      <trkpt lat="47.566811" lon="8.117556">
        <ele>333.212874</ele>
        <time>2021-11-14T16:55:53.960Z</time>
      </trkpt>
      <trkpt lat="47.566944" lon="8.116530">
        <ele>332.819553</ele>
        <time>2021-11-14T16:56:03.003Z</time>
      </trkpt>
      <trkpt lat="47.566983" lon="8.116203">
        <ele>332.775641</ele>
        <time>2021-11-14T16:56:05.945Z</time>
      </trkpt>
      <trkpt lat="47.567009" lon="8.116010">
        <ele>332.749615</ele>
        <time>2021-11-14T16:56:08.620Z</time>
      </trkpt>
      <trkpt lat="47.567157" lon="8.115310">
        <ele>332.652611</ele>
        <time>2021-11-14T16:56:15.353Z</time>
      </trkpt>
      <trkpt lat="47.567411" lon="8.114753">
        <ele>332.563710</ele>
        <time>2021-11-14T16:56:22.537Z</time>
      </trkpt>
      <trkpt lat="47.567654" lon="8.114290">
        <ele>332.284876</ele>
        <time>2021-11-14T16:56:29.535Z</time>
      </trkpt>
      <trkpt lat="47.567881" lon="8.113862">
        <ele>332.015987</ele>
        <time>2021-11-14T16:56:36.153Z</time>
      </trkpt>
      <trkpt lat="47.568167" lon="8.113323">
        <ele>331.677307</ele>
        <time>2021-11-14T16:56:42.770Z</time>
      </trkpt>
      <trkpt lat="47.568835" lon="8.112063">
        <ele>329.279960</ele>
        <time>2021-11-14T16:56:54.106Z</time>
      </trkpt>
      <trkpt lat="47.569083" lon="8.111567">
        <ele>327.604298</ele>
        <time>2021-11-14T16:56:58.198Z</time>
      </trkpt>
      <trkpt lat="47.569107" lon="8.111522">
        <ele>327.448604</ele>
        <time>2021-11-14T16:56:58.523Z</time>
      </trkpt>
      <trkpt lat="47.569423" lon="8.110628">
        <ele>324.709227</ele>
        <time>2021-11-14T16:57:05.022Z</time>
      </trkpt>
      <trkpt lat="47.569495" lon="8.110499">
        <ele>324.254811</ele>
        <time>2021-11-14T16:57:06.005Z</time>
      </trkpt>
      <trkpt lat="47.569574" lon="8.110385">
        <ele>323.946934</ele>
        <time>2021-11-14T16:57:07.035Z</time>
      </trkpt>
      <trkpt lat="47.569664" lon="8.110262">
        <ele>323.795347</ele>
        <time>2021-11-14T16:57:08.736Z</time>
      </trkpt>
      <trkpt lat="47.569787" lon="8.110094">
        <ele>323.588234</ele>
        <time>2021-11-14T16:57:10.252Z</time>
      </trkpt>
      <trkpt lat="47.569974" lon="8.109825">
        <ele>323.265557</ele>
        <time>2021-11-14T16:57:12.975Z</time>
      </trkpt>
      <trkpt lat="47.570263" lon="8.109376">
        <ele>322.747131</ele>
        <time>2021-11-14T16:57:17.556Z</time>
      </trkpt>
      <trkpt lat="47.570283" lon="8.109343">
        <ele>322.710072</ele>
        <time>2021-11-14T16:57:17.855Z</time>
      </trkpt>
      <trkpt lat="47.570582" lon="8.108889">
        <ele>322.180044</ele>
        <time>2021-11-14T16:57:23.440Z</time>
      </trkpt>
      <trkpt lat="47.570830" lon="8.108502">
        <ele>321.862101</ele>
        <time>2021-11-14T16:57:33.765Z</time>
      </trkpt>
      <trkpt lat="47.571253" lon="8.107823">
        <ele>323.239504</ele>
        <time>2021-11-14T16:57:53.127Z</time>
      </trkpt>
      <trkpt lat="47.571440" lon="8.107260">
        <ele>324.174760</ele>
        <time>2021-11-14T16:58:05.965Z</time>
      </trkpt>
      <trkpt lat="47.571458" lon="8.107087">
        <ele>324.435643</ele>
        <time>2021-11-14T16:58:10.090Z</time>
      </trkpt>
      <trkpt lat="47.571460" lon="8.106995">
        <ele>324.572829</ele>
        <time>2021-11-14T16:58:11.722Z</time>
      </trkpt>
      <trkpt lat="47.571461" lon="8.106820">
        <ele>324.833654</ele>
        <time>2021-11-14T16:58:13.308Z</time>
      </trkpt>
      <trkpt lat="47.571440" lon="8.106588">
        <ele>325.182519</ele>
        <time>2021-11-14T16:58:16.135Z</time>
      </trkpt>
      <trkpt lat="47.571298" lon="8.105561">
        <ele>325.120653</ele>
        <time>2021-11-14T16:58:24.448Z</time>
      </trkpt>
      <trkpt lat="47.571251" lon="8.105188">
        <ele>324.759786</ele>
        <time>2021-11-14T16:58:27.355Z</time>
      </trkpt>
      <trkpt lat="47.571234" lon="8.105037">
        <ele>324.614195</ele>
        <time>2021-11-14T16:58:28.993Z</time>
      </trkpt>
      <trkpt lat="47.571214" lon="8.104836">
        <ele>324.420970</ele>
        <time>2021-11-14T16:58:30.639Z</time>
      </trkpt>
      <trkpt lat="47.571252" lon="8.104668">
        <ele>324.252457</ele>
        <time>2021-11-14T16:58:32.142Z</time>
      </trkpt>
      <trkpt lat="47.571285" lon="8.104547">
        <ele>324.128336</ele>
        <time>2021-11-14T16:58:33.063Z</time>
      </trkpt>
      <trkpt lat="47.571319" lon="8.104520">
        <ele>324.073964</ele>
        <time>2021-11-14T16:58:33.481Z</time>
      </trkpt>
      <trkpt lat="47.571345" lon="8.104476">
        <ele>324.018338</ele>
        <time>2021-11-14T16:58:33.869Z</time>
      </trkpt>
      <trkpt lat="47.571359" lon="8.104422">
        <ele>323.963321</ele>
        <time>2021-11-14T16:58:34.242Z</time>
      </trkpt>
      <trkpt lat="47.571359" lon="8.104365">
        <ele>323.909113</ele>
        <time>2021-11-14T16:58:34.678Z</time>
      </trkpt>
      <trkpt lat="47.571346" lon="8.104311">
        <ele>323.854586</ele>
        <time>2021-11-14T16:58:35.062Z</time>
      </trkpt>
      <trkpt lat="47.571354" lon="8.104222">
        <ele>323.769196</ele>
        <time>2021-11-14T16:58:36.092Z</time>
      </trkpt>
      <trkpt lat="47.571310" lon="8.104135">
        <ele>323.665791</ele>
        <time>2021-11-14T16:58:36.833Z</time>
      </trkpt>
      <trkpt lat="47.571041" lon="8.104109">
        <ele>323.285799</ele>
        <time>2021-11-14T16:58:39.705Z</time>
      </trkpt>
      <trkpt lat="47.570788" lon="8.103933">
        <ele>323.414348</ele>
        <time>2021-11-14T16:58:42.683Z</time>
      </trkpt>
      <trkpt lat="47.570667" lon="8.103884">
        <ele>323.520800</ele>
        <time>2021-11-14T16:58:44.386Z</time>
      </trkpt>
      <trkpt lat="47.570391" lon="8.103841">
        <ele>323.756322</ele>
        <time>2021-11-14T16:58:53.238Z</time>
      </trkpt>
      <trkpt lat="47.570159" lon="8.103813">
        <ele>323.953865</ele>
        <time>2021-11-14T16:58:57.327Z</time>
      </trkpt>
      <trkpt lat="47.569557" lon="8.103677">
        <ele>324.470663</ele>
        <time>2021-11-14T16:59:13.667Z</time>
      </trkpt>
      <trkpt lat="47.567683" lon="8.103272">
        <ele>328.983370</ele>
        <time>2021-11-14T17:00:01.932Z</time>
      </trkpt>
      <trkpt lat="47.566684" lon="8.102974">
        <ele>331.565286</ele>
        <time>2021-11-14T17:00:28.081Z</time>
      </trkpt>
      <trkpt lat="47.565727" lon="8.102512">
        <ele>334.067954</ele>
        <time>2021-11-14T17:00:53.353Z</time>
      </trkpt>
      <trkpt lat="47.564165" lon="8.101615">
        <ele>337.116341</ele>
        <time>2021-11-14T17:01:28.544Z</time>
      </trkpt>
      <trkpt lat="47.563202" lon="8.101042">
        <ele>339.955897</ele>
        <time>2021-11-14T17:01:54.001Z</time>
      </trkpt>
      <trkpt lat="47.563031" lon="8.100935">
        <ele>340.486909</ele>
        <time>2021-11-14T17:02:00.517Z</time>
      </trkpt>
      <trkpt lat="47.562207" lon="8.100413">
        <ele>342.903367</ele>
        <time>2021-11-14T17:02:30.606Z</time>
      </trkpt>
      <trkpt lat="47.561509" lon="8.099738">
        <ele>344.664488</ele>
        <time>2021-11-14T17:02:59.666Z</time>
      </trkpt>
      <trkpt lat="47.561466" lon="8.099697">
        <ele>344.772529</ele>
        <time>2021-11-14T17:03:01.894Z</time>
      </trkpt>
      <trkpt lat="47.560787" lon="8.098864">
        <ele>345.763465</ele>
        <time>2021-11-14T17:03:21.241Z</time>
      </trkpt>
      <trkpt lat="47.560171" lon="8.097877">
        <ele>342.865903</ele>
        <time>2021-11-14T17:03:35.067Z</time>
      </trkpt>
      <trkpt lat="47.559606" lon="8.096837">
        <ele>339.608601</ele>
        <time>2021-11-14T17:03:47.078Z</time>
      </trkpt>
      <trkpt lat="47.558983" lon="8.095482">
        <ele>333.657669</ele>
        <time>2021-11-14T17:04:01.606Z</time>
      </trkpt>
      <trkpt lat="47.558857" lon="8.095293">
        <ele>332.693403</ele>
        <time>2021-11-14T17:04:04.098Z</time>
      </trkpt>
      <trkpt lat="47.558776" lon="8.095210">
        <ele>332.163741</ele>
        <time>2021-11-14T17:04:05.347Z</time>
      </trkpt>
      <trkpt lat="47.558531" lon="8.094661">
        <ele>330.101489</ele>
        <time>2021-11-14T17:04:09.629Z</time>
      </trkpt>
      <trkpt lat="47.557677" lon="8.092776">
        <ele>324.319644</ele>
        <time>2021-11-14T17:04:25.054Z</time>
      </trkpt>
      <trkpt lat="47.556850" lon="8.091457">
        <ele>318.648164</ele>
        <time>2021-11-14T17:04:36.678Z</time>
      </trkpt>
      <trkpt lat="47.556692" lon="8.091113">
        <ele>317.323641</ele>
        <time>2021-11-14T17:04:39.281Z</time>
      </trkpt>
      <trkpt lat="47.556527" lon="8.090721">
        <ele>315.853058</ele>
        <time>2021-11-14T17:04:42.162Z</time>
      </trkpt>
      <trkpt lat="47.556259" lon="8.090058">
        <ele>314.088022</ele>
        <time>2021-11-14T17:04:47.074Z</time>
      </trkpt>
      <trkpt lat="47.556193" lon="8.089926">
        <ele>313.729876</ele>
        <time>2021-11-14T17:04:48.205Z</time>
      </trkpt>
      <trkpt lat="47.556110" lon="8.089809">
        <ele>313.359808</ele>
        <time>2021-11-14T17:04:49.284Z</time>
      </trkpt>
      <trkpt lat="47.556137" lon="8.089730">
        <ele>313.166755</ele>
        <time>2021-11-14T17:04:49.837Z</time>
      </trkpt>
      <trkpt lat="47.556151" lon="8.089459">
        <ele>312.574224</ele>
        <time>2021-11-14T17:04:51.680Z</time>
      </trkpt>
      <trkpt lat="47.556111" lon="8.089266">
        <ele>312.134073</ele>
        <time>2021-11-14T17:04:52.968Z</time>
      </trkpt>
      <trkpt lat="47.556065" lon="8.089084">
        <ele>311.710384</ele>
        <time>2021-11-14T17:04:54.279Z</time>
      </trkpt>
      <trkpt lat="47.555997" lon="8.088801">
        <ele>311.055480</ele>
        <time>2021-11-14T17:04:56.588Z</time>
      </trkpt>
      <trkpt lat="47.555991" lon="8.088778">
        <ele>311.001722</ele>
        <time>2021-11-14T17:04:56.826Z</time>
      </trkpt>
      <trkpt lat="47.555939" lon="8.088552">
        <ele>310.481173</ele>
        <time>2021-11-14T17:04:58.656Z</time>
      </trkpt>
      <trkpt lat="47.555887" lon="8.088299">
        <ele>309.904596</ele>
        <time>2021-11-14T17:05:01.167Z</time>
      </trkpt>
      <trkpt lat="47.555829" lon="8.087941">
        <ele>310.302071</ele>
        <time>2021-11-14T17:05:04.983Z</time>
      </trkpt>
      <trkpt lat="47.555809" lon="8.087783">
        <ele>310.564480</ele>
        <time>2021-11-14T17:05:06.594Z</time>
      </trkpt>
      <trkpt lat="47.555780" lon="8.087557">
        <ele>310.940002</ele>
        <time>2021-11-14T17:05:08.771Z</time>
      </trkpt>
      <trkpt lat="47.555737" lon="8.087083">
        <ele>311.720698</ele>
        <time>2021-11-14T17:05:16.398Z</time>
      </trkpt>
      <trkpt lat="47.555733" lon="8.086819">
        <ele>312.151749</ele>
        <time>2021-11-14T17:05:21.420Z</time>
      </trkpt>
      <trkpt lat="47.555764" lon="8.085769">
        <ele>313.867363</ele>
        <time>2021-11-14T17:05:43.256Z</time>
      </trkpt>
      <trkpt lat="47.555899" lon="8.084472">
        <ele>317.881368</ele>
        <time>2021-11-14T17:06:12.667Z</time>
      </trkpt>
      <trkpt lat="47.555956" lon="8.084115">
        <ele>319.079349</ele>
        <time>2021-11-14T17:06:21.421Z</time>
      </trkpt>
      <trkpt lat="47.556083" lon="8.083354">
        <ele>321.639278</ele>
        <time>2021-11-14T17:06:39.619Z</time>
      </trkpt>
      <trkpt lat="47.556470" lon="8.081563">
        <ele>327.686623</ele>
        <time>2021-11-14T17:07:26.348Z</time>
      </trkpt>
      <trkpt lat="47.556853" lon="8.080477">
        <ele>331.455866</ele>
        <time>2021-11-14T17:07:52.421Z</time>
      </trkpt>
      <trkpt lat="47.557099" lon="8.079786">
        <ele>332.273477</ele>
        <time>2021-11-14T17:08:06.746Z</time>
      </trkpt>
      <trkpt lat="47.557256" lon="8.079416">
        <ele>332.730877</ele>
        <time>2021-11-14T17:08:13.465Z</time>
      </trkpt>
      <trkpt lat="47.557793" lon="8.078299">
        <ele>334.166138</ele>
        <time>2021-11-14T17:08:29.767Z</time>
      </trkpt>
      <trkpt lat="47.558613" lon="8.076826">
        <ele>332.346183</ele>
        <time>2021-11-14T17:08:44.331Z</time>
      </trkpt>
      <trkpt lat="47.559046" lon="8.076086">
        <ele>331.394744</ele>
        <time>2021-11-14T17:08:51.711Z</time>
      </trkpt>
      <trkpt lat="47.559426" lon="8.075372">
        <ele>330.464103</ele>
        <time>2021-11-14T17:08:58.708Z</time>
      </trkpt>
      <trkpt lat="47.559811" lon="8.074398">
        <ele>329.308869</ele>
        <time>2021-11-14T17:09:07.602Z</time>
      </trkpt>
      <trkpt lat="47.560318" lon="8.072316">
        <ele>326.765908</ele>
        <time>2021-11-14T17:09:24.874Z</time>
      </trkpt>
      <trkpt lat="47.560524" lon="8.071179">
        <ele>325.271155</ele>
        <time>2021-11-14T17:09:33.440Z</time>
      </trkpt>
      <trkpt lat="47.560553" lon="8.071099">
        <ele>325.133205</ele>
        <time>2021-11-14T17:09:34.051Z</time>
      </trkpt>
      <trkpt lat="47.560584" lon="8.070919">
        <ele>324.851008</ele>
        <time>2021-11-14T17:09:35.361Z</time>
      </trkpt>
      <trkpt lat="47.560739" lon="8.070551">
        <ele>324.192035</ele>
        <time>2021-11-14T17:09:38.448Z</time>
      </trkpt>
      <trkpt lat="47.560864" lon="8.070015">
        <ele>323.330565</ele>
        <time>2021-11-14T17:09:42.470Z</time>
      </trkpt>
      <trkpt lat="47.560904" lon="8.069780">
        <ele>322.962405</ele>
        <time>2021-11-14T17:09:44.215Z</time>
      </trkpt>
      <trkpt lat="47.560998" lon="8.069237">
        <ele>322.110846</ele>
        <time>2021-11-14T17:09:48.295Z</time>
      </trkpt>
      <trkpt lat="47.561130" lon="8.068650">
        <ele>321.529336</ele>
        <time>2021-11-14T17:09:52.965Z</time>
      </trkpt>
      <trkpt lat="47.561187" lon="8.068256">
        <ele>321.326992</ele>
        <time>2021-11-14T17:09:56.240Z</time>
      </trkpt>
      <trkpt lat="47.561229" lon="8.067903">
        <ele>321.146999</ele>
        <time>2021-11-14T17:09:59.278Z</time>
      </trkpt>
      <trkpt lat="47.561265" lon="8.067435">
        <ele>320.910470</ele>
        <time>2021-11-14T17:10:03.260Z</time>
      </trkpt>
      <trkpt lat="47.561276" lon="8.067022">
        <ele>320.702920</ele>
        <time>2021-11-14T17:10:07.177Z</time>
      </trkpt>
      <trkpt lat="47.561253" lon="8.066385">
        <ele>320.382592</ele>
        <time>2021-11-14T17:10:13.692Z</time>
      </trkpt>
      <trkpt lat="47.561108" lon="8.065242">
        <ele>320.236610</ele>
        <time>2021-11-14T17:10:26.058Z</time>
      </trkpt>
      <trkpt lat="47.561017" lon="8.064820">
        <ele>320.185322</ele>
        <time>2021-11-14T17:10:30.698Z</time>
      </trkpt>
      <trkpt lat="47.560887" lon="8.064271">
        <ele>320.117965</ele>
        <time>2021-11-14T17:10:35.895Z</time>
      </trkpt>
      <trkpt lat="47.560806" lon="8.064037">
        <ele>320.087519</ele>
        <time>2021-11-14T17:10:38.164Z</time>
      </trkpt>
      <trkpt lat="47.560719" lon="8.063873">
        <ele>320.063368</ele>
        <time>2021-11-14T17:10:39.948Z</time>
      </trkpt>
      <trkpt lat="47.560392" lon="8.063300">
        <ele>319.654708</ele>
        <time>2021-11-14T17:10:46.245Z</time>
      </trkpt>
      <trkpt lat="47.560335" lon="8.063169">
        <ele>319.566525</ele>
        <time>2021-11-14T17:10:47.592Z</time>
      </trkpt>
      <trkpt lat="47.560443" lon="8.063042">
        <ele>319.450937</ele>
        <time>2021-11-14T17:10:49.261Z</time>
      </trkpt>
      <trkpt lat="47.560545" lon="8.062928">
        <ele>319.343829</ele>
        <time>2021-11-14T17:10:50.827Z</time>
      </trkpt>
      <trkpt lat="47.560580" lon="8.062890">
        <ele>319.307454</ele>
        <time>2021-11-14T17:10:51.363Z</time>
      </trkpt>
      <trkpt lat="47.560673" lon="8.062786">
        <ele>319.209776</ele>
        <time>2021-11-14T17:10:53.434Z</time>
      </trkpt>
      <trkpt lat="47.560765" lon="8.062729">
        <ele>319.126177</ele>
        <time>2021-11-14T17:10:55.186Z</time>
      </trkpt>
      <trkpt lat="47.560570" lon="8.061926">
        <ele>318.643367</ele>
        <time>2021-11-14T17:11:02.542Z</time>
      </trkpt>
      <trkpt lat="47.560335" lon="8.060984">
        <ele>318.246362</ele>
        <time>2021-11-14T17:11:10.871Z</time>
      </trkpt>
      <trkpt lat="47.560293" lon="8.060828">
        <ele>318.185500</ele>
        <time>2021-11-14T17:11:12.301Z</time>
      </trkpt>
      <trkpt lat="47.560262" lon="8.060729">
        <ele>318.145951</ele>
        <time>2021-11-14T17:11:13.256Z</time>
      </trkpt>
      <trkpt lat="47.560130" lon="8.060196">
        <ele>317.940214</ele>
        <time>2021-11-14T17:11:18.456Z</time>
      </trkpt>
      <trkpt lat="47.560069" lon="8.059943">
        <ele>317.842859</ele>
        <time>2021-11-14T17:11:20.868Z</time>
      </trkpt>
      <trkpt lat="47.560040" lon="8.059827">
        <ele>317.798032</ele>
        <time>2021-11-14T17:11:22.085Z</time>
      </trkpt>
      <trkpt lat="47.560019" lon="8.059741">
        <ele>317.764891</ele>
        <time>2021-11-14T17:11:22.975Z</time>
      </trkpt>
      <trkpt lat="47.559979" lon="8.059591">
        <ele>317.706446</ele>
        <time>2021-11-14T17:11:24.437Z</time>
      </trkpt>
      <trkpt lat="47.559859" lon="8.059093">
        <ele>317.552283</ele>
        <time>2021-11-14T17:11:29.459Z</time>
      </trkpt>
      <trkpt lat="47.559725" lon="8.058554">
        <ele>317.454447</ele>
        <time>2021-11-14T17:11:34.869Z</time>
      </trkpt>
      <trkpt lat="47.559654" lon="8.058257">
        <ele>317.400781</ele>
        <time>2021-11-14T17:11:37.820Z</time>
      </trkpt>
      <trkpt lat="47.559579" lon="8.057955">
        <ele>317.345970</ele>
        <time>2021-11-14T17:11:40.725Z</time>
      </trkpt>
      <trkpt lat="47.559548" lon="8.057827">
        <ele>317.322807</ele>
        <time>2021-11-14T17:11:42.020Z</time>
      </trkpt>
      <trkpt lat="47.559447" lon="8.057490">
        <ele>317.260001</ele>
        <time>2021-11-14T17:11:45.448Z</time>
      </trkpt>
      <trkpt lat="47.559294" lon="8.057130">
        <ele>317.187537</ele>
        <time>2021-11-14T17:11:49.587Z</time>
      </trkpt>
      <trkpt lat="47.559116" lon="8.056760">
        <ele>317.126528</ele>
        <time>2021-11-14T17:11:54.025Z</time>
      </trkpt>
      <trkpt lat="47.558662" lon="8.056061">
        <ele>317.087889</ele>
        <time>2021-11-14T17:12:03.362Z</time>
      </trkpt>
      <trkpt lat="47.558447" lon="8.055831">
        <ele>317.072239</ele>
        <time>2021-11-14T17:12:06.894Z</time>
      </trkpt>
      <trkpt lat="47.558239" lon="8.055639">
        <ele>317.057776</ele>
        <time>2021-11-14T17:12:10.575Z</time>
      </trkpt>
      <trkpt lat="47.558012" lon="8.055477">
        <ele>317.042906</ele>
        <time>2021-11-14T17:12:14.220Z</time>
      </trkpt>
      <trkpt lat="47.557918" lon="8.055409">
        <ele>317.036732</ele>
        <time>2021-11-14T17:12:16.017Z</time>
      </trkpt>
      <trkpt lat="47.557710" lon="8.055283">
        <ele>317.023699</ele>
        <time>2021-11-14T17:12:19.382Z</time>
      </trkpt>
      <trkpt lat="47.557500" lon="8.055133">
        <ele>317.011593</ele>
        <time>2021-11-14T17:12:23.208Z</time>
      </trkpt>
      <trkpt lat="47.557273" lon="8.054941">
        <ele>316.998020</ele>
        <time>2021-11-14T17:12:27.448Z</time>
      </trkpt>
      <trkpt lat="47.557097" lon="8.054768">
        <ele>316.987053</ele>
        <time>2021-11-14T17:12:30.412Z</time>
      </trkpt>
      <trkpt lat="47.557019" lon="8.054678">
        <ele>316.981919</ele>
        <time>2021-11-14T17:12:32.217Z</time>
      </trkpt>
      <trkpt lat="47.556494" lon="8.054073">
        <ele>316.947383</ele>
        <time>2021-11-14T17:12:41.069Z</time>
      </trkpt>
      <trkpt lat="47.556239" lon="8.053780">
        <ele>316.940349</ele>
        <time>2021-11-14T17:12:45.475Z</time>
      </trkpt>
      <trkpt lat="47.556032" lon="8.053510">
        <ele>317.029333</ele>
        <time>2021-11-14T17:12:49.699Z</time>
      </trkpt>
      <trkpt lat="47.555890" lon="8.053286">
        <ele>317.096256</ele>
        <time>2021-11-14T17:12:53.336Z</time>
      </trkpt>
      <trkpt lat="47.555773" lon="8.053070">
        <ele>317.156569</ele>
        <time>2021-11-14T17:12:56.276Z</time>
      </trkpt>
      <trkpt lat="47.555603" lon="8.052757">
        <ele>317.244060</ele>
        <time>2021-11-14T17:13:00.498Z</time>
      </trkpt>
      <trkpt lat="47.555259" lon="8.052135">
        <ele>317.419179</ele>
        <time>2021-11-14T17:13:09.195Z</time>
      </trkpt>
      <trkpt lat="47.554988" lon="8.051475">
        <ele>317.883838</ele>
        <time>2021-11-14T17:13:18.186Z</time>
      </trkpt>
      <trkpt lat="47.554715" lon="8.050527">
        <ele>318.994530</ele>
        <time>2021-11-14T17:13:32.977Z</time>
      </trkpt>
      <trkpt lat="47.554412" lon="8.049127">
        <ele>320.579422</ele>
        <time>2021-11-14T17:13:55.538Z</time>
      </trkpt>
      <trkpt lat="47.554309" lon="8.048719">
        <ele>321.050166</ele>
        <time>2021-11-14T17:14:02.555Z</time>
      </trkpt>
      <trkpt lat="47.553996" lon="8.047557">
        <ele>322.402215</ele>
        <time>2021-11-14T17:14:21.784Z</time>
      </trkpt>
      <trkpt lat="47.553619" lon="8.046372">
        <ele>323.103277</ele>
        <time>2021-11-14T17:14:38.221Z</time>
      </trkpt>
      <trkpt lat="47.552844" lon="8.044355">
        <ele>322.194493</ele>
        <time>2021-11-14T17:14:58.150Z</time>
      </trkpt>
      <trkpt lat="47.551627" lon="8.041127">
        <ele>317.231732</ele>
        <time>2021-11-14T17:15:24.904Z</time>
      </trkpt>
      <trkpt lat="47.551167" lon="8.039905">
        <ele>315.460012</ele>
        <time>2021-11-14T17:15:35.535Z</time>
      </trkpt>
      <trkpt lat="47.551001" lon="8.039426">
        <ele>315.337079</ele>
        <time>2021-11-14T17:15:39.890Z</time>
      </trkpt>
      <trkpt lat="47.550515" lon="8.038174">
        <ele>315.213205</ele>
        <time>2021-11-14T17:15:53.593Z</time>
      </trkpt>
      <trkpt lat="47.550424" lon="8.037956">
        <ele>315.191220</ele>
        <time>2021-11-14T17:15:56.564Z</time>
      </trkpt>
      <trkpt lat="47.550111" lon="8.037123">
        <ele>315.401108</ele>
        <time>2021-11-14T17:16:08.931Z</time>
      </trkpt>
      <trkpt lat="47.549832" lon="8.036349">
        <ele>315.879140</ele>
        <time>2021-11-14T17:16:20.214Z</time>
      </trkpt>
      <trkpt lat="47.549753" lon="8.036077">
        <ele>316.040460</ele>
        <time>2021-11-14T17:16:23.703Z</time>
      </trkpt>
      <trkpt lat="47.549699" lon="8.035900">
        <ele>316.146281</ele>
        <time>2021-11-14T17:16:26.150Z</time>
      </trkpt>
      <trkpt lat="47.549632" lon="8.035633">
        <ele>316.301468</ele>
        <time>2021-11-14T17:16:29.636Z</time>
      </trkpt>
      <trkpt lat="47.549554" lon="8.035288">
        <ele>316.499685</ele>
        <time>2021-11-14T17:16:33.928Z</time>
      </trkpt>
      <trkpt lat="47.549494" lon="8.034935">
        <ele>316.612543</ele>
        <time>2021-11-14T17:16:37.912Z</time>
      </trkpt>
      <trkpt lat="47.549442" lon="8.034584">
        <ele>316.636009</ele>
        <time>2021-11-14T17:16:41.767Z</time>
      </trkpt>
      <trkpt lat="47.549395" lon="8.034029">
        <ele>316.672533</ele>
        <time>2021-11-14T17:16:47.829Z</time>
      </trkpt>
      <trkpt lat="47.549394" lon="8.034003">
        <ele>316.674234</ele>
        <time>2021-11-14T17:16:48.143Z</time>
      </trkpt>
      <trkpt lat="47.549386" lon="8.033799">
        <ele>316.687577</ele>
        <time>2021-11-14T17:16:50.308Z</time>
      </trkpt>
      <trkpt lat="47.549374" lon="8.033423">
        <ele>316.712156</ele>
        <time>2021-11-14T17:16:53.942Z</time>
      </trkpt>
      <trkpt lat="47.549363" lon="8.032869">
        <ele>316.748347</ele>
        <time>2021-11-14T17:16:59.197Z</time>
      </trkpt>
      <trkpt lat="47.549368" lon="8.032544">
        <ele>316.769575</ele>
        <time>2021-11-14T17:17:02.172Z</time>
      </trkpt>
      <trkpt lat="47.549372" lon="8.031883">
        <ele>316.848077</ele>
        <time>2021-11-14T17:17:08.528Z</time>
      </trkpt>
      <trkpt lat="47.549378" lon="8.030790">
        <ele>316.986133</ele>
        <time>2021-11-14T17:17:19.857Z</time>
      </trkpt>
      <trkpt lat="47.549380" lon="8.030702">
        <ele>316.997254</ele>
        <time>2021-11-14T17:17:20.697Z</time>
      </trkpt>
      <trkpt lat="47.549418" lon="8.028906">
        <ele>317.455217</ele>
        <time>2021-11-14T17:17:41.405Z</time>
      </trkpt>
      <trkpt lat="47.549431" lon="8.028306">
        <ele>317.686438</ele>
        <time>2021-11-14T17:17:48.149Z</time>
      </trkpt>
      <trkpt lat="47.549445" lon="8.027599">
        <ele>317.958870</ele>
        <time>2021-11-14T17:17:56.326Z</time>
      </trkpt>
      <trkpt lat="47.549454" lon="8.027138">
        <ele>318.136508</ele>
        <time>2021-11-14T17:18:01.852Z</time>
      </trkpt>
      <trkpt lat="47.549436" lon="8.026046">
        <ele>318.459689</ele>
        <time>2021-11-14T17:18:15.136Z</time>
      </trkpt>
      <trkpt lat="47.549322" lon="8.024323">
        <ele>318.895353</ele>
        <time>2021-11-14T17:18:33.741Z</time>
      </trkpt>
      <trkpt lat="47.549268" lon="8.023385">
        <ele>318.712061</ele>
        <time>2021-11-14T17:18:43.188Z</time>
      </trkpt>
      <trkpt lat="47.549201" lon="8.022146">
        <ele>318.470054</ele>
        <time>2021-11-14T17:18:54.404Z</time>
      </trkpt>
      <trkpt lat="47.549191" lon="8.021436">
        <ele>318.092895</ele>
        <time>2021-11-14T17:19:00.372Z</time>
      </trkpt>
      <trkpt lat="47.549186" lon="8.021006">
        <ele>317.742167</ele>
        <time>2021-11-14T17:19:03.956Z</time>
      </trkpt>
      <trkpt lat="47.549208" lon="8.019997">
        <ele>316.918873</ele>
        <time>2021-11-14T17:19:12.190Z</time>
      </trkpt>
      <trkpt lat="47.549261" lon="8.017878">
        <ele>314.975773</ele>
        <time>2021-11-14T17:19:28.311Z</time>
      </trkpt>
      <trkpt lat="47.549256" lon="8.017769">
        <ele>314.868426</ele>
        <time>2021-11-14T17:19:29.176Z</time>
      </trkpt>
      <trkpt lat="47.549291" lon="8.017761">
        <ele>314.816872</ele>
        <time>2021-11-14T17:19:29.572Z</time>
      </trkpt>
      <trkpt lat="47.549324" lon="8.017738">
        <ele>314.763782</ele>
        <time>2021-11-14T17:19:29.962Z</time>
      </trkpt>
      <trkpt lat="47.549351" lon="8.017702">
        <ele>314.710904</ele>
        <time>2021-11-14T17:19:30.364Z</time>
      </trkpt>
      <trkpt lat="47.549370" lon="8.017656">
        <ele>314.657915</ele>
        <time>2021-11-14T17:19:30.823Z</time>
      </trkpt>
      <trkpt lat="47.549379" lon="8.017603">
        <ele>314.604216</ele>
        <time>2021-11-14T17:19:31.229Z</time>
      </trkpt>
      <trkpt lat="47.549377" lon="8.017547">
        <ele>314.549115</ele>
        <time>2021-11-14T17:19:31.787Z</time>
      </trkpt>
      <trkpt lat="47.549310" lon="8.017418">
        <ele>314.389181</ele>
        <time>2021-11-14T17:19:33.134Z</time>
      </trkpt>
      <trkpt lat="47.549274" lon="8.017401">
        <ele>314.334177</ele>
        <time>2021-11-14T17:19:33.615Z</time>
      </trkpt>
      <trkpt lat="47.549281" lon="8.017304">
        <ele>314.238324</ele>
        <time>2021-11-14T17:19:34.331Z</time>
      </trkpt>
      <trkpt lat="47.549431" lon="8.015998">
        <ele>313.034689</ele>
        <time>2021-11-14T17:19:45.075Z</time>
      </trkpt>
      <trkpt lat="47.549589" lon="8.015316">
        <ele>312.428587</ele>
        <time>2021-11-14T17:19:50.919Z</time>
      </trkpt>
      <trkpt lat="47.549795" lon="8.014667">
        <ele>311.825742</ele>
        <time>2021-11-14T17:19:56.735Z</time>
      </trkpt>
      <trkpt lat="47.549871" lon="8.014427">
        <ele>311.602905</ele>
        <time>2021-11-14T17:19:58.870Z</time>
      </trkpt>
      <trkpt lat="47.550001" lon="8.014034">
        <ele>311.224689</ele>
        <time>2021-11-14T17:20:02.258Z</time>
      </trkpt>
      <trkpt lat="47.550565" lon="8.012461">
        <ele>309.617061</ele>
        <time>2021-11-14T17:20:15.866Z</time>
      </trkpt>
      <trkpt lat="47.550764" lon="8.011985">
        <ele>309.111704</ele>
        <time>2021-11-14T17:20:20.365Z</time>
      </trkpt>
      <trkpt lat="47.551187" lon="8.011080">
        <ele>309.153166</ele>
        <time>2021-11-14T17:20:30.483Z</time>
      </trkpt>
      <trkpt lat="47.551275" lon="8.010934">
        <ele>309.191185</ele>
        <time>2021-11-14T17:20:32.293Z</time>
      </trkpt>
      <trkpt lat="47.551902" lon="8.009884">
        <ele>309.463489</ele>
        <time>2021-11-14T17:20:49.247Z</time>
      </trkpt>
      <trkpt lat="47.552604" lon="8.008677">
        <ele>310.309630</ele>
        <time>2021-11-14T17:21:11.727Z</time>
      </trkpt>
      <trkpt lat="47.552640" lon="8.008615">
        <ele>310.355378</ele>
        <time>2021-11-14T17:21:13.313Z</time>
      </trkpt>
      <trkpt lat="47.552935" lon="8.007851">
        <ele>310.847722</ele>
        <time>2021-11-14T17:21:22.912Z</time>
      </trkpt>
      <trkpt lat="47.553173" lon="8.006642">
        <ele>310.424535</ele>
        <time>2021-11-14T17:21:33.714Z</time>
      </trkpt>
      <trkpt lat="47.553211" lon="8.006270">
        <ele>310.221547</ele>
        <time>2021-11-14T17:21:36.928Z</time>
      </trkpt>
      <trkpt lat="47.553220" lon="8.006182">
        <ele>310.173527</ele>
        <time>2021-11-14T17:21:37.519Z</time>
      </trkpt>
      <trkpt lat="47.553251" lon="8.005657">
        <ele>309.889197</ele>
        <time>2021-11-14T17:21:41.767Z</time>
      </trkpt>
      <trkpt lat="47.553256" lon="8.004837">
        <ele>309.561616</ele>
        <time>2021-11-14T17:21:48.691Z</time>
      </trkpt>
      <trkpt lat="47.553266" lon="8.003502">
        <ele>309.725481</ele>
        <time>2021-11-14T17:22:01.279Z</time>
      </trkpt>
      <trkpt lat="47.553270" lon="8.002465">
        <ele>309.852763</ele>
        <time>2021-11-14T17:22:13.950Z</time>
      </trkpt>
      <trkpt lat="47.553271" lon="8.002109">
        <ele>309.981374</ele>
        <time>2021-11-14T17:22:18.928Z</time>
      </trkpt>
      <trkpt lat="47.553273" lon="8.001687">
        <ele>310.184706</ele>
        <time>2021-11-14T17:22:24.608Z</time>
      </trkpt>
      <trkpt lat="47.553275" lon="7.999860">
        <ele>311.064986</ele>
        <time>2021-11-14T17:22:46.795Z</time>
      </trkpt>
      <trkpt lat="47.553278" lon="7.999508">
        <ele>311.041037</ele>
        <time>2021-11-14T17:22:50.341Z</time>
      </trkpt>
      <trkpt lat="47.553287" lon="7.998380">
        <ele>310.318669</ele>
        <time>2021-11-14T17:23:00.108Z</time>
      </trkpt>
      <trkpt lat="47.553287" lon="7.997190">
        <ele>309.556649</ele>
        <time>2021-11-14T17:23:09.407Z</time>
      </trkpt>
      <trkpt lat="47.553279" lon="7.996528">
        <ele>308.952297</ele>
        <time>2021-11-14T17:23:14.423Z</time>
      </trkpt>
      <trkpt lat="47.553268" lon="7.996252">
        <ele>308.672986</ele>
        <time>2021-11-14T17:23:16.495Z</time>
      </trkpt>
      <trkpt lat="47.553246" lon="7.995617">
        <ele>308.030640</ele>
        <time>2021-11-14T17:23:21.346Z</time>
      </trkpt>
      <trkpt lat="47.553164" lon="7.993925">
        <ele>306.535112</ele>
        <time>2021-11-14T17:23:34.675Z</time>
      </trkpt>
      <trkpt lat="47.553156" lon="7.993696">
        <ele>306.419471</ele>
        <time>2021-11-14T17:23:36.675Z</time>
      </trkpt>
      <trkpt lat="47.553137" lon="7.993190">
        <ele>306.163896</ele>
        <time>2021-11-14T17:23:41.131Z</time>
      </trkpt>
      <trkpt lat="47.553130" lon="7.993014">
        <ele>306.074984</ele>
        <time>2021-11-14T17:23:42.733Z</time>
      </trkpt>
      <trkpt lat="47.553107" lon="7.992226">
        <ele>305.677218</ele>
        <time>2021-11-14T17:23:49.962Z</time>
      </trkpt>
      <trkpt lat="47.553091" lon="7.991915">
        <ele>305.519923</ele>
        <time>2021-11-14T17:23:53.112Z</time>
      </trkpt>
      <trkpt lat="47.553050" lon="7.990744">
        <ele>304.058740</ele>
        <time>2021-11-14T17:24:02.805Z</time>
      </trkpt>
      <trkpt lat="47.553126" lon="7.990240">
        <ele>303.326374</ele>
        <time>2021-11-14T17:24:06.717Z</time>
      </trkpt>
      <trkpt lat="47.553146" lon="7.990113">
        <ele>303.141432</ele>
        <time>2021-11-14T17:24:07.645Z</time>
      </trkpt>
      <trkpt lat="47.553163" lon="7.990004">
        <ele>302.982781</ele>
        <time>2021-11-14T17:24:08.430Z</time>
      </trkpt>
      <trkpt lat="47.553214" lon="7.989758">
        <ele>302.617831</ele>
        <time>2021-11-14T17:24:10.210Z</time>
      </trkpt>
      <trkpt lat="47.553253" lon="7.989578">
        <ele>302.349734</ele>
        <time>2021-11-14T17:24:11.499Z</time>
      </trkpt>
      <trkpt lat="47.553352" lon="7.989142">
        <ele>301.697371</ele>
        <time>2021-11-14T17:24:14.595Z</time>
      </trkpt>
      <trkpt lat="47.553424" lon="7.988762">
        <ele>300.748975</ele>
        <time>2021-11-14T17:24:17.240Z</time>
      </trkpt>
      <trkpt lat="47.553410" lon="7.988607">
        <ele>300.351863</ele>
        <time>2021-11-14T17:24:18.271Z</time>
      </trkpt>
      <trkpt lat="47.553343" lon="7.988401">
        <ele>299.771176</ele>
        <time>2021-11-14T17:24:19.793Z</time>
      </trkpt>
      <trkpt lat="47.553232" lon="7.988247">
        <ele>299.199022</ele>
        <time>2021-11-14T17:24:21.264Z</time>
      </trkpt>
      <trkpt lat="47.552867" lon="7.987810">
        <ele>297.433366</ele>
        <time>2021-11-14T17:24:25.833Z</time>
      </trkpt>
      <trkpt lat="47.552713" lon="7.987638">
        <ele>296.707747</ele>
        <time>2021-11-14T17:24:27.671Z</time>
      </trkpt>
      <trkpt lat="47.552504" lon="7.987369">
        <ele>295.666103</ele>
        <time>2021-11-14T17:24:30.382Z</time>
      </trkpt>
      <trkpt lat="47.552436" lon="7.987273">
        <ele>295.312701</ele>
        <time>2021-11-14T17:24:31.324Z</time>
      </trkpt>
      <trkpt lat="47.552224" lon="7.986975">
        <ele>294.741072</ele>
        <time>2021-11-14T17:24:34.310Z</time>
      </trkpt>
      <trkpt lat="47.552152" lon="7.986883">
        <ele>294.674538</ele>
        <time>2021-11-14T17:24:35.290Z</time>
      </trkpt>
      <trkpt lat="47.551971" lon="7.986555">
        <ele>294.474431</ele>
        <time>2021-11-14T17:24:38.289Z</time>
      </trkpt>
      <trkpt lat="47.551917" lon="7.986288">
        <ele>294.342784</ele>
        <time>2021-11-14T17:24:40.369Z</time>
      </trkpt>
      <trkpt lat="47.551915" lon="7.986209">
        <ele>294.305445</ele>
        <time>2021-11-14T17:24:40.930Z</time>
      </trkpt>
      <trkpt lat="47.551898" lon="7.985654">
        <ele>294.043044</ele>
        <time>2021-11-14T17:24:46.438Z</time>
      </trkpt>
      <trkpt lat="47.551939" lon="7.985151">
        <ele>293.803746</ele>
        <time>2021-11-14T17:24:52.593Z</time>
      </trkpt>
      <trkpt lat="47.551934" lon="7.984260">
        <ele>294.426320</ele>
        <time>2021-11-14T17:25:06.179Z</time>
      </trkpt>
      <trkpt lat="47.551993" lon="7.984014">
        <ele>294.887575</ele>
        <time>2021-11-14T17:25:09.784Z</time>
      </trkpt>
      <trkpt lat="47.552007" lon="7.983931">
        <ele>295.038728</ele>
        <time>2021-11-14T17:25:11.358Z</time>
      </trkpt>
      <trkpt lat="47.552005" lon="7.983849">
        <ele>295.183699</ele>
        <time>2021-11-14T17:25:13.440Z</time>
      </trkpt>
      <trkpt lat="47.551911" lon="7.983632">
        <ele>295.639265</ele>
        <time>2021-11-14T17:25:17.633Z</time>
      </trkpt>
      <trkpt lat="47.551892" lon="7.983447">
        <ele>295.969883</ele>
        <time>2021-11-14T17:25:20.977Z</time>
      </trkpt>
      <trkpt lat="47.551861" lon="7.981113">
        <ele>299.249868</ele>
        <time>2021-11-14T17:26:04.267Z</time>
      </trkpt>
      <trkpt lat="47.551865" lon="7.980584">
        <ele>299.741838</ele>
        <time>2021-11-14T17:26:10.907Z</time>
      </trkpt>
      <trkpt lat="47.551873" lon="7.980135">
        <ele>300.159527</ele>
        <time>2021-11-14T17:26:15.664Z</time>
      </trkpt>
      <trkpt lat="47.551933" lon="7.979363">
        <ele>300.753613</ele>
        <time>2021-11-14T17:26:24.022Z</time>
      </trkpt>
      <trkpt lat="47.551923" lon="7.979308">
        <ele>300.732957</ele>
        <time>2021-11-14T17:26:24.390Z</time>
      </trkpt>
      <trkpt lat="47.551901" lon="7.979190">
        <ele>300.688564</ele>
        <time>2021-11-14T17:26:25.361Z</time>
      </trkpt>
      <trkpt lat="47.551829" lon="7.976305">
        <ele>299.861189</ele>
        <time>2021-11-14T17:26:50.410Z</time>
      </trkpt>
      <trkpt lat="47.551793" lon="7.974325">
        <ele>300.011089</ele>
        <time>2021-11-14T17:27:12.523Z</time>
      </trkpt>
      <trkpt lat="47.551755" lon="7.972603">
        <ele>299.743576</ele>
        <time>2021-11-14T17:27:29.821Z</time>
      </trkpt>
      <trkpt lat="47.551725" lon="7.970823">
        <ele>299.348893</ele>
        <time>2021-11-14T17:27:45.050Z</time>
      </trkpt>
      <trkpt lat="47.551734" lon="7.970034">
        <ele>299.121262</ele>
        <time>2021-11-14T17:27:52.010Z</time>
      </trkpt>
      <trkpt lat="47.551750" lon="7.968659">
        <ele>298.795496</ele>
        <time>2021-11-14T17:28:05.200Z</time>
      </trkpt>
      <trkpt lat="47.551825" lon="7.968445">
        <ele>298.836646</ele>
        <time>2021-11-14T17:28:07.452Z</time>
      </trkpt>
      <trkpt lat="47.551847" lon="7.968315">
        <ele>298.859518</ele>
        <time>2021-11-14T17:28:08.923Z</time>
      </trkpt>
      <trkpt lat="47.551839" lon="7.968208">
        <ele>298.877890</ele>
        <time>2021-11-14T17:28:10.125Z</time>
      </trkpt>
      <trkpt lat="47.551767" lon="7.967910">
        <ele>298.931904</ele>
        <time>2021-11-14T17:28:13.358Z</time>
      </trkpt>
      <trkpt lat="47.551902" lon="7.964650">
        <ele>299.458491</ele>
        <time>2021-11-14T17:28:49.759Z</time>
      </trkpt>
      <trkpt lat="47.551918" lon="7.963725">
        <ele>299.598075</ele>
        <time>2021-11-14T17:28:59.157Z</time>
      </trkpt>
      <trkpt lat="47.551906" lon="7.962453">
        <ele>299.307043</ele>
        <time>2021-11-14T17:29:11.086Z</time>
      </trkpt>
      <trkpt lat="47.551859" lon="7.961133">
        <ele>298.919426</ele>
        <time>2021-11-14T17:29:22.671Z</time>
      </trkpt>
      <trkpt lat="47.551894" lon="7.960729">
        <ele>298.814759</ele>
        <time>2021-11-14T17:29:26.422Z</time>
      </trkpt>
      <trkpt lat="47.551882" lon="7.960631">
        <ele>298.795257</ele>
        <time>2021-11-14T17:29:27.191Z</time>
      </trkpt>
      <trkpt lat="47.551865" lon="7.960528">
        <ele>298.774494</ele>
        <time>2021-11-14T17:29:28.137Z</time>
      </trkpt>
      <trkpt lat="47.551677" lon="7.960100">
        <ele>298.674500</ele>
        <time>2021-11-14T17:29:32.661Z</time>
      </trkpt>
      <trkpt lat="47.551300" lon="7.958844">
        <ele>298.405333</ele>
        <time>2021-11-14T17:29:45.572Z</time>
      </trkpt>
      <trkpt lat="47.550869" lon="7.957700">
        <ele>298.357460</ele>
        <time>2021-11-14T17:29:58.936Z</time>
      </trkpt>
      <trkpt lat="47.550745" lon="7.957569">
        <ele>298.366315</ele>
        <time>2021-11-14T17:30:01.175Z</time>
      </trkpt>
      <trkpt lat="47.550735" lon="7.957541">
        <ele>298.367558</ele>
        <time>2021-11-14T17:30:01.617Z</time>
      </trkpt>
      <trkpt lat="47.550613" lon="7.957254">
        <ele>298.380869</ele>
        <time>2021-11-14T17:30:04.955Z</time>
      </trkpt>
      <trkpt lat="47.550549" lon="7.957126">
        <ele>298.387120</ele>
        <time>2021-11-14T17:30:06.503Z</time>
      </trkpt>
      <trkpt lat="47.550445" lon="7.956918">
        <ele>298.397278</ele>
        <time>2021-11-14T17:30:09.176Z</time>
      </trkpt>
      <trkpt lat="47.550380" lon="7.956806">
        <ele>298.403075</ele>
        <time>2021-11-14T17:30:10.661Z</time>
      </trkpt>
      <trkpt lat="47.550205" lon="7.956552">
        <ele>298.417319</ele>
        <time>2021-11-14T17:30:14.370Z</time>
      </trkpt>
      <trkpt lat="47.549444" lon="7.955496">
        <ele>298.540053</ele>
        <time>2021-11-14T17:30:30.737Z</time>
      </trkpt>
      <trkpt lat="47.549157" lon="7.955099">
        <ele>298.590828</ele>
        <time>2021-11-14T17:30:36.538Z</time>
      </trkpt>
      <trkpt lat="47.549042" lon="7.954942">
        <ele>298.611049</ele>
        <time>2021-11-14T17:30:38.889Z</time>
      </trkpt>
      <trkpt lat="47.548833" lon="7.954652">
        <ele>298.648078</ele>
        <time>2021-11-14T17:30:43.246Z</time>
      </trkpt>
      <trkpt lat="47.548542" lon="7.954269">
        <ele>298.748434</ele>
        <time>2021-11-14T17:30:49.263Z</time>
      </trkpt>
      <trkpt lat="47.548342" lon="7.954009">
        <ele>298.827404</ele>
        <time>2021-11-14T17:30:53.446Z</time>
      </trkpt>
      <trkpt lat="47.548251" lon="7.953895">
        <ele>298.862774</ele>
        <time>2021-11-14T17:30:55.374Z</time>
      </trkpt>
      <trkpt lat="47.548115" lon="7.953729">
        <ele>298.915072</ele>
        <time>2021-11-14T17:30:58.242Z</time>
      </trkpt>
      <trkpt lat="47.547994" lon="7.953584">
        <ele>298.961261</ele>
        <time>2021-11-14T17:31:00.804Z</time>
      </trkpt>
      <trkpt lat="47.547871" lon="7.953437">
        <ele>299.008164</ele>
        <time>2021-11-14T17:31:03.395Z</time>
      </trkpt>
      <trkpt lat="47.547797" lon="7.953355">
        <ele>299.035590</ele>
        <time>2021-11-14T17:31:04.899Z</time>
      </trkpt>
      <trkpt lat="47.547624" lon="7.953160">
        <ele>299.100107</ele>
        <time>2021-11-14T17:31:08.392Z</time>
      </trkpt>
      <trkpt lat="47.547550" lon="7.953078">
        <ele>299.127533</ele>
        <time>2021-11-14T17:31:09.893Z</time>
      </trkpt>
      <trkpt lat="47.547458" lon="7.952975">
        <ele>299.161758</ele>
        <time>2021-11-14T17:31:11.721Z</time>
      </trkpt>
      <trkpt lat="47.547400" lon="7.952910">
        <ele>299.183342</ele>
        <time>2021-11-14T17:31:12.887Z</time>
      </trkpt>
      <trkpt lat="47.547090" lon="7.952543">
        <ele>299.321520</ele>
        <time>2021-11-14T17:31:19.275Z</time>
      </trkpt>
      <trkpt lat="47.546935" lon="7.952372">
        <ele>299.389763</ele>
        <time>2021-11-14T17:31:22.433Z</time>
      </trkpt>
      <trkpt lat="47.546776" lon="7.952185">
        <ele>299.461452</ele>
        <time>2021-11-14T17:31:25.876Z</time>
      </trkpt>
      <trkpt lat="47.546695" lon="7.952091">
        <ele>299.497786</ele>
        <time>2021-11-14T17:31:27.651Z</time>
      </trkpt>
      <trkpt lat="47.546634" lon="7.952024">
        <ele>299.524602</ele>
        <time>2021-11-14T17:31:28.974Z</time>
      </trkpt>
      <trkpt lat="47.546421" lon="7.951793">
        <ele>299.617818</ele>
        <time>2021-11-14T17:31:33.537Z</time>
      </trkpt>
      <trkpt lat="47.546231" lon="7.951558">
        <ele>299.705221</ele>
        <time>2021-11-14T17:31:37.695Z</time>
      </trkpt>
      <trkpt lat="47.546212" lon="7.951535">
        <ele>299.713885</ele>
        <time>2021-11-14T17:31:38.105Z</time>
      </trkpt>
      <trkpt lat="47.546135" lon="7.951406">
        <ele>299.754932</ele>
        <time>2021-11-14T17:31:39.868Z</time>
      </trkpt>
      <trkpt lat="47.545886" lon="7.951110">
        <ele>299.778876</ele>
        <time>2021-11-14T17:31:44.734Z</time>
      </trkpt>
      <trkpt lat="47.545824" lon="7.951061">
        <ele>299.747045</ele>
        <time>2021-11-14T17:31:45.783Z</time>
      </trkpt>
      <trkpt lat="47.545759" lon="7.950982">
        <ele>299.708960</ele>
        <time>2021-11-14T17:31:47.055Z</time>
      </trkpt>
      <trkpt lat="47.545727" lon="7.950947">
        <ele>299.690942</ele>
        <time>2021-11-14T17:31:47.791Z</time>
      </trkpt>
      <trkpt lat="47.545625" lon="7.950829">
        <ele>299.632320</ele>
        <time>2021-11-14T17:31:49.485Z</time>
      </trkpt>
      <trkpt lat="47.545567" lon="7.950765">
        <ele>299.599560</ele>
        <time>2021-11-14T17:31:50.487Z</time>
      </trkpt>
      <trkpt lat="47.545494" lon="7.950684">
        <ele>299.558245</ele>
        <time>2021-11-14T17:31:51.729Z</time>
      </trkpt>
      <trkpt lat="47.545434" lon="7.950668">
        <ele>299.530629</ele>
        <time>2021-11-14T17:31:52.717Z</time>
      </trkpt>
      <trkpt lat="47.545166" lon="7.950366">
        <ele>299.378101</ele>
        <time>2021-11-14T17:31:57.078Z</time>
      </trkpt>
      <trkpt lat="47.544901" lon="7.950044">
        <ele>299.222848</ele>
        <time>2021-11-14T17:32:01.313Z</time>
      </trkpt>
      <trkpt lat="47.544521" lon="7.949558">
        <ele>299.040124</ele>
        <time>2021-11-14T17:32:07.502Z</time>
      </trkpt>
      <trkpt lat="47.544239" lon="7.949202">
        <ele>299.276028</ele>
        <time>2021-11-14T17:32:12.410Z</time>
      </trkpt>
      <trkpt lat="47.543864" lon="7.948694">
        <ele>299.599574</ele>
        <time>2021-11-14T17:32:20.374Z</time>
      </trkpt>
      <trkpt lat="47.543760" lon="7.948548">
        <ele>299.690802</ele>
        <time>2021-11-14T17:32:22.616Z</time>
      </trkpt>
      <trkpt lat="47.543579" lon="7.948287">
        <ele>299.851629</ele>
        <time>2021-11-14T17:32:28.333Z</time>
      </trkpt>
      <trkpt lat="47.543532" lon="7.948214">
        <ele>299.894988</ele>
        <time>2021-11-14T17:32:29.459Z</time>
      </trkpt>
      <trkpt lat="47.543435" lon="7.948000">
        <ele>300.005778</ele>
        <time>2021-11-14T17:32:32.521Z</time>
      </trkpt>
      <trkpt lat="47.543407" lon="7.947938">
        <ele>300.037839</ele>
        <time>2021-11-14T17:32:34.379Z</time>
      </trkpt>
      <trkpt lat="47.543280" lon="7.947656">
        <ele>300.261538</ele>
        <time>2021-11-14T17:32:38.865Z</time>
      </trkpt>
      <trkpt lat="47.543142" lon="7.947250">
        <ele>301.083986</ele>
        <time>2021-11-14T17:32:46.329Z</time>
      </trkpt>
      <trkpt lat="47.543086" lon="7.947052">
        <ele>301.472403</ele>
        <time>2021-11-14T17:32:49.759Z</time>
      </trkpt>
      <trkpt lat="47.543056" lon="7.946935">
        <ele>301.698850</ele>
        <time>2021-11-14T17:32:52.600Z</time>
      </trkpt>
      <trkpt lat="47.543045" lon="7.946881">
        <ele>301.800904</ele>
        <time>2021-11-14T17:32:53.757Z</time>
      </trkpt>
      <trkpt lat="47.542982" lon="7.946547">
        <ele>302.428364</ele>
        <time>2021-11-14T17:32:59.157Z</time>
      </trkpt>
      <trkpt lat="47.542974" lon="7.946495">
        <ele>302.524861</ele>
        <time>2021-11-14T17:33:00.797Z</time>
      </trkpt>
      <trkpt lat="47.542960" lon="7.946400">
        <ele>302.700794</ele>
        <time>2021-11-14T17:33:02.863Z</time>
      </trkpt>
      <trkpt lat="47.542916" lon="7.945730">
        <ele>303.918760</ele>
        <time>2021-11-14T17:33:15.528Z</time>
      </trkpt>
      <trkpt lat="47.542913" lon="7.945267">
        <ele>304.756512</ele>
        <time>2021-11-14T17:33:24.024Z</time>
      </trkpt>
      <trkpt lat="47.543007" lon="7.943867">
        <ele>305.946140</ele>
        <time>2021-11-14T17:33:45.191Z</time>
      </trkpt>
      <trkpt lat="47.543161" lon="7.942213">
        <ele>306.782358</ele>
        <time>2021-11-14T17:34:03.597Z</time>
      </trkpt>
      <trkpt lat="47.543435" lon="7.940670">
        <ele>305.656914</ele>
        <time>2021-11-14T17:34:16.545Z</time>
      </trkpt>
      <trkpt lat="47.543826" lon="7.939433">
        <ele>304.398678</ele>
        <time>2021-11-14T17:34:26.946Z</time>
      </trkpt>
      <trkpt lat="47.544472" lon="7.937932">
        <ele>302.246564</ele>
        <time>2021-11-14T17:34:40.270Z</time>
      </trkpt>
      <trkpt lat="47.544705" lon="7.937395">
        <ele>301.513518</ele>
        <time>2021-11-14T17:34:45.110Z</time>
      </trkpt>
      <trkpt lat="47.544903" lon="7.936917">
        <ele>300.899512</ele>
        <time>2021-11-14T17:34:49.370Z</time>
      </trkpt>
      <trkpt lat="47.545074" lon="7.936484">
        <ele>300.350282</ele>
        <time>2021-11-14T17:34:53.201Z</time>
      </trkpt>
      <trkpt lat="47.545457" lon="7.935110">
        <ele>298.914223</ele>
        <time>2021-11-14T17:35:04.570Z</time>
      </trkpt>
      <trkpt lat="47.545674" lon="7.933625">
        <ele>298.551302</ele>
        <time>2021-11-14T17:35:17.650Z</time>
      </trkpt>
      <trkpt lat="47.545702" lon="7.933290">
        <ele>298.470674</ele>
        <time>2021-11-14T17:35:21.230Z</time>
      </trkpt>
      <trkpt lat="47.545724" lon="7.932758">
        <ele>298.343364</ele>
        <time>2021-11-14T17:35:27.496Z</time>
      </trkpt>
      <trkpt lat="47.545721" lon="7.931992">
        <ele>299.193088</ele>
        <time>2021-11-14T17:35:37.536Z</time>
      </trkpt>
      <trkpt lat="47.545696" lon="7.931497">
        <ele>299.791488</ele>
        <time>2021-11-14T17:35:44.741Z</time>
      </trkpt>
      <trkpt lat="47.545661" lon="7.930955">
        <ele>300.447863</ele>
        <time>2021-11-14T17:35:53.436Z</time>
      </trkpt>
      <trkpt lat="47.545563" lon="7.929641">
        <ele>301.660624</ele>
        <time>2021-11-14T17:36:15.776Z</time>
      </trkpt>
      <trkpt lat="47.545475" lon="7.928419">
        <ele>302.009111</ele>
        <time>2021-11-14T17:36:32.079Z</time>
      </trkpt>
      <trkpt lat="47.545421" lon="7.927686">
        <ele>302.218202</ele>
        <time>2021-11-14T17:36:38.182Z</time>
      </trkpt>
      <trkpt lat="47.545406" lon="7.927306">
        <ele>302.089104</ele>
        <time>2021-11-14T17:36:41.086Z</time>
      </trkpt>
      <trkpt lat="47.545407" lon="7.927001">
        <ele>301.418387</ele>
        <time>2021-11-14T17:36:43.373Z</time>
      </trkpt>
      <trkpt lat="47.545409" lon="7.926773">
        <ele>300.916962</ele>
        <time>2021-11-14T17:36:45.002Z</time>
      </trkpt>
      <trkpt lat="47.545417" lon="7.925848">
        <ele>298.882678</ele>
        <time>2021-11-14T17:36:51.337Z</time>
      </trkpt>
      <trkpt lat="47.545446" lon="7.925350">
        <ele>297.783486</ele>
        <time>2021-11-14T17:36:54.629Z</time>
      </trkpt>
      <trkpt lat="47.545466" lon="7.924880">
        <ele>296.747883</ele>
        <time>2021-11-14T17:36:57.682Z</time>
      </trkpt>
      <trkpt lat="47.545481" lon="7.924396">
        <ele>295.755861</ele>
        <time>2021-11-14T17:37:00.766Z</time>
      </trkpt>
      <trkpt lat="47.545521" lon="7.923709">
        <ele>294.386613</ele>
        <time>2021-11-14T17:37:05.291Z</time>
      </trkpt>
      <trkpt lat="47.545536" lon="7.923407">
        <ele>293.785308</ele>
        <time>2021-11-14T17:37:07.439Z</time>
      </trkpt>
      <trkpt lat="47.545553" lon="7.923142">
        <ele>293.256724</ele>
        <time>2021-11-14T17:37:09.270Z</time>
      </trkpt>
      <trkpt lat="47.545587" lon="7.922895">
        <ele>292.756159</ele>
        <time>2021-11-14T17:37:11.204Z</time>
      </trkpt>
      <trkpt lat="47.545641" lon="7.922610">
        <ele>292.168360</ele>
        <time>2021-11-14T17:37:13.349Z</time>
      </trkpt>
      <trkpt lat="47.545690" lon="7.922369">
        <ele>291.668568</ele>
        <time>2021-11-14T17:37:15.356Z</time>
      </trkpt>
      <trkpt lat="47.545699" lon="7.922325">
        <ele>291.577273</ele>
        <time>2021-11-14T17:37:15.650Z</time>
      </trkpt>
      <trkpt lat="47.545714" lon="7.922249">
        <ele>291.420041</ele>
        <time>2021-11-14T17:37:16.240Z</time>
      </trkpt>
      <trkpt lat="47.545778" lon="7.921947">
        <ele>291.069811</ele>
        <time>2021-11-14T17:37:18.942Z</time>
      </trkpt>
      <trkpt lat="47.545810" lon="7.921755">
        <ele>290.983499</ele>
        <time>2021-11-14T17:37:20.423Z</time>
      </trkpt>
      <trkpt lat="47.545881" lon="7.921096">
        <ele>290.692248</ele>
        <time>2021-11-14T17:37:25.885Z</time>
      </trkpt>
      <trkpt lat="47.545913" lon="7.920765">
        <ele>290.546313</ele>
        <time>2021-11-14T17:37:28.778Z</time>
      </trkpt>
      <trkpt lat="47.545973" lon="7.920313">
        <ele>290.345267</ele>
        <time>2021-11-14T17:37:33.248Z</time>
      </trkpt>
      <trkpt lat="47.546128" lon="7.919617">
        <ele>290.025403</ele>
        <time>2021-11-14T17:37:40.489Z</time>
      </trkpt>
      <trkpt lat="47.546262" lon="7.919081">
        <ele>289.835704</ele>
        <time>2021-11-14T17:37:46.537Z</time>
      </trkpt>
      <trkpt lat="47.546821" lon="7.916867">
        <ele>289.115836</ele>
        <time>2021-11-14T17:38:07.205Z</time>
      </trkpt>
      <trkpt lat="47.547032" lon="7.916218">
        <ele>288.960725</ele>
        <time>2021-11-14T17:38:13.512Z</time>
      </trkpt>
      <trkpt lat="47.547091" lon="7.916039">
        <ele>288.917832</ele>
        <time>2021-11-14T17:38:15.286Z</time>
      </trkpt>
      <trkpt lat="47.547113" lon="7.915971">
        <ele>288.901595</ele>
        <time>2021-11-14T17:38:15.877Z</time>
      </trkpt>
      <trkpt lat="47.547423" lon="7.915080">
        <ele>288.685755</ele>
        <time>2021-11-14T17:38:25.364Z</time>
      </trkpt>
      <trkpt lat="47.547994" lon="7.913433">
        <ele>289.128496</ele>
        <time>2021-11-14T17:38:45.068Z</time>
      </trkpt>
      <trkpt lat="47.548027" lon="7.913334">
        <ele>289.172886</ele>
        <time>2021-11-14T17:38:46.427Z</time>
      </trkpt>
      <trkpt lat="47.548412" lon="7.912168">
        <ele>289.733819</ele>
        <time>2021-11-14T17:39:02.830Z</time>
      </trkpt>
      <trkpt lat="47.549012" lon="7.910340">
        <ele>291.295995</ele>
        <time>2021-11-14T17:39:29.770Z</time>
      </trkpt>
      <trkpt lat="47.549102" lon="7.910058">
        <ele>291.535725</ele>
        <time>2021-11-14T17:39:33.927Z</time>
      </trkpt>
      <trkpt lat="47.549195" lon="7.909756">
        <ele>291.835273</ele>
        <time>2021-11-14T17:39:38.191Z</time>
      </trkpt>
      <trkpt lat="47.549241" lon="7.909603">
        <ele>292.026862</ele>
        <time>2021-11-14T17:39:40.419Z</time>
      </trkpt>
      <trkpt lat="47.549315" lon="7.909358">
        <ele>292.333891</ele>
        <time>2021-11-14T17:39:43.800Z</time>
      </trkpt>
      <trkpt lat="47.549387" lon="7.909120">
        <ele>292.632226</ele>
        <time>2021-11-14T17:39:47.264Z</time>
      </trkpt>
      <trkpt lat="47.549520" lon="7.908678">
        <ele>293.185782</ele>
        <time>2021-11-14T17:39:53.517Z</time>
      </trkpt>
      <trkpt lat="47.549539" lon="7.908625">
        <ele>293.254427</ele>
        <time>2021-11-14T17:39:54.267Z</time>
      </trkpt>
      <trkpt lat="47.550497" lon="7.905558">
        <ele>298.541429</ele>
        <time>2021-11-14T17:40:49.127Z</time>
      </trkpt>
      <trkpt lat="47.550283" lon="7.905413">
        <ele>299.179190</ele>
        <time>2021-11-14T17:40:57.294Z</time>
      </trkpt>
      <trkpt lat="47.550067" lon="7.905245">
        <ele>299.930678</ele>
        <time>2021-11-14T17:41:05.980Z</time>
      </trkpt>
      <trkpt lat="47.549867" lon="7.905155">
        <ele>300.732343</ele>
        <time>2021-11-14T17:41:13.608Z</time>
      </trkpt>
      <trkpt lat="47.549868" lon="7.905010">
        <ele>301.107716</ele>
        <time>2021-11-14T17:41:17.014Z</time>
      </trkpt>
      <trkpt lat="47.550025" lon="7.904774">
        <ele>301.965504</ele>
        <time>2021-11-14T17:41:25.165Z</time>
      </trkpt>
      <trkpt lat="47.550302" lon="7.904164">
        <ele>303.868686</ele>
        <time>2021-11-14T17:41:43.464Z</time>
      </trkpt>
      <trkpt lat="47.550498" lon="7.903445">
        <ele>305.875975</ele>
        <time>2021-11-14T17:42:03.036Z</time>
      </trkpt>
      <trkpt lat="47.550688" lon="7.902451">
        <ele>308.524913</ele>
        <time>2021-11-14T17:42:25.584Z</time>
      </trkpt>
      <trkpt lat="47.550757" lon="7.901591">
        <ele>310.738790</ele>
        <time>2021-11-14T17:42:45.380Z</time>
      </trkpt>
      <trkpt lat="47.550769" lon="7.901362">
        <ele>311.325939</ele>
        <time>2021-11-14T17:42:51.288Z</time>
      </trkpt>
      <trkpt lat="47.550801" lon="7.900244">
        <ele>314.258179</ele>
        <time>2021-11-14T17:43:15.686Z</time>
      </trkpt>
      <trkpt lat="47.550819" lon="7.898109">
        <ele>320.175375</ele>
        <time>2021-11-14T17:44:02.726Z</time>
      </trkpt>
      <trkpt lat="47.550648" lon="7.896481">
        <ele>322.666407</ele>
        <time>2021-11-14T17:44:30.381Z</time>
      </trkpt>
      <trkpt lat="47.550639" lon="7.896345">
        <ele>322.849771</ele>
        <time>2021-11-14T17:44:32.756Z</time>
      </trkpt>
      <trkpt lat="47.550660" lon="7.896255">
        <ele>322.977548</ele>
        <time>2021-11-14T17:44:33.557Z</time>
      </trkpt>
      <trkpt lat="47.550838" lon="7.895509">
        <ele>324.039261</ele>
        <time>2021-11-14T17:44:43.725Z</time>
      </trkpt>
      <trkpt lat="47.550878" lon="7.895158">
        <ele>324.483187</ele>
        <time>2021-11-14T17:44:47.787Z</time>
      </trkpt>
      <trkpt lat="47.550908" lon="7.894308">
        <ele>325.452118</ele>
        <time>2021-11-14T17:44:58.259Z</time>
      </trkpt>
      <trkpt lat="47.550892" lon="7.893176">
        <ele>326.741029</ele>
        <time>2021-11-14T17:45:12.977Z</time>
      </trkpt>
      <trkpt lat="47.550904" lon="7.891725">
        <ele>330.591506</ele>
        <time>2021-11-14T17:45:42.739Z</time>
      </trkpt>
      <trkpt lat="47.550915" lon="7.890600">
        <ele>334.516968</ele>
        <time>2021-11-14T17:46:11.579Z</time>
      </trkpt>
      <trkpt lat="47.550833" lon="7.889069">
        <ele>340.530906</ele>
        <time>2021-11-14T17:46:54.213Z</time>
      </trkpt>
      <trkpt lat="47.550831" lon="7.888611">
        <ele>342.451267</ele>
        <time>2021-11-14T17:47:06.783Z</time>
      </trkpt>
      <trkpt lat="47.550789" lon="7.887816">
        <ele>345.794773</ele>
        <time>2021-11-14T17:47:27.394Z</time>
      </trkpt>
      <trkpt lat="47.550758" lon="7.887295">
        <ele>347.961338</ele>
        <time>2021-11-14T17:47:41.216Z</time>
      </trkpt>
      <trkpt lat="47.550677" lon="7.886476">
        <ele>350.945764</ele>
        <time>2021-11-14T17:48:02.705Z</time>
      </trkpt>
      <trkpt lat="47.550548" lon="7.885799">
        <ele>353.482091</ele>
        <time>2021-11-14T17:48:19.908Z</time>
      </trkpt>
      <trkpt lat="47.550391" lon="7.885109">
        <ele>356.107453</ele>
        <time>2021-11-14T17:48:37.545Z</time>
      </trkpt>
      <trkpt lat="47.550332" lon="7.884727">
        <ele>357.489074</ele>
        <time>2021-11-14T17:48:46.236Z</time>
      </trkpt>
      <trkpt lat="47.550234" lon="7.883221">
        <ele>361.429594</ele>
        <time>2021-11-14T17:49:19.067Z</time>
      </trkpt>
      <trkpt lat="47.549927" lon="7.881490">
        <ele>366.112479</ele>
        <time>2021-11-14T17:49:51.331Z</time>
      </trkpt>
      <trkpt lat="47.549726" lon="7.880786">
        <ele>368.127884</ele>
        <time>2021-11-14T17:50:07.307Z</time>
      </trkpt>
      <trkpt lat="47.549327" lon="7.879547">
        <ele>371.720110</ele>
        <time>2021-11-14T17:50:37.091Z</time>
      </trkpt>
      <trkpt lat="47.549318" lon="7.879398">
        <ele>372.085647</ele>
        <time>2021-11-14T17:50:40.280Z</time>
      </trkpt>
      <trkpt lat="47.549140" lon="7.879391">
        <ele>372.730278</ele>
        <time>2021-11-14T17:50:47.150Z</time>
      </trkpt>
      <trkpt lat="47.548718" lon="7.879258">
        <ele>374.292207</ele>
        <time>2021-11-14T17:51:00.821Z</time>
      </trkpt>
      <trkpt lat="47.548422" lon="7.878959">
        <ele>375.589170</ele>
        <time>2021-11-14T17:51:11.468Z</time>
      </trkpt>
      <trkpt lat="47.548234" lon="7.878638">
        <ele>376.627668</ele>
        <time>2021-11-14T17:51:19.900Z</time>
      </trkpt>
      <trkpt lat="47.547992" lon="7.877974">
        <ele>377.792014</ele>
        <time>2021-11-14T17:51:32.997Z</time>
      </trkpt>
      <trkpt lat="47.547574" lon="7.876801">
        <ele>377.271945</ele>
        <time>2021-11-14T17:51:46.760Z</time>
      </trkpt>
      <trkpt lat="47.547126" lon="7.875801">
        <ele>376.513539</ele>
        <time>2021-11-14T17:51:55.543Z</time>
      </trkpt>
      <trkpt lat="47.546309" lon="7.874154">
        <ele>369.920447</ele>
        <time>2021-11-14T17:52:08.731Z</time>
      </trkpt>
      <trkpt lat="47.546135" lon="7.873859">
        <ele>368.656740</ele>
        <time>2021-11-14T17:52:11.113Z</time>
      </trkpt>
      <trkpt lat="47.546077" lon="7.873763">
        <ele>368.239175</ele>
        <time>2021-11-14T17:52:11.924Z</time>
      </trkpt>
      <trkpt lat="47.545934" lon="7.873549">
        <ele>366.846864</ele>
        <time>2021-11-14T17:52:13.729Z</time>
      </trkpt>
      <trkpt lat="47.545746" lon="7.873302">
        <ele>365.125626</ele>
        <time>2021-11-14T17:52:16.017Z</time>
      </trkpt>
      <trkpt lat="47.545515" lon="7.873015">
        <ele>363.060513</ele>
        <time>2021-11-14T17:52:18.716Z</time>
      </trkpt>
      <trkpt lat="47.545478" lon="7.872968">
        <ele>362.726655</ele>
        <time>2021-11-14T17:52:19.158Z</time>
      </trkpt>
      <trkpt lat="47.545375" lon="7.872836">
        <ele>361.793762</ele>
        <time>2021-11-14T17:52:20.351Z</time>
      </trkpt>
      <trkpt lat="47.545131" lon="7.872664">
        <ele>359.942824</ele>
        <time>2021-11-14T17:52:22.810Z</time>
      </trkpt>
      <trkpt lat="47.544883" lon="7.872555">
        <ele>358.170864</ele>
        <time>2021-11-14T17:52:25.133Z</time>
      </trkpt>
      <trkpt lat="47.544390" lon="7.872423">
        <ele>354.907352</ele>
        <time>2021-11-14T17:52:29.597Z</time>
      </trkpt>
      <trkpt lat="47.543332" lon="7.872237">
        <ele>348.644321</ele>
        <time>2021-11-14T17:52:39.367Z</time>
      </trkpt>
      <trkpt lat="47.543251" lon="7.872152">
        <ele>348.060808</ele>
        <time>2021-11-14T17:52:40.306Z</time>
      </trkpt>
      <trkpt lat="47.543233" lon="7.872082">
        <ele>347.763566</ele>
        <time>2021-11-14T17:52:40.727Z</time>
      </trkpt>
      <trkpt lat="47.543013" lon="7.872182">
        <ele>346.410800</ele>
        <time>2021-11-14T17:52:42.965Z</time>
      </trkpt>
      <trkpt lat="47.542919" lon="7.872226">
        <ele>345.831299</ele>
        <time>2021-11-14T17:52:43.887Z</time>
      </trkpt>
      <trkpt lat="47.542814" lon="7.872280">
        <ele>345.351937</ele>
        <time>2021-11-14T17:52:44.942Z</time>
      </trkpt>
      <trkpt lat="47.542714" lon="7.872334">
        <ele>345.351937</ele>
        <time>2021-11-14T17:52:46.027Z</time>
      </trkpt>
      <trkpt lat="47.542537" lon="7.872430">
        <ele>345.351937</ele>
        <time>2021-11-14T17:52:47.750Z</time>
      </trkpt>
      <trkpt lat="47.542436" lon="7.872494">
        <ele>345.351937</ele>
        <time>2021-11-14T17:52:49.092Z</time>
      </trkpt>
      <trkpt lat="47.542394" lon="7.872341">
        <ele>345.351937</ele>
        <time>2021-11-14T17:52:50.165Z</time>
      </trkpt>
      <trkpt lat="47.542251" lon="7.871955">
        <ele>345.351937</ele>
        <time>2021-11-14T17:52:53.134Z</time>
      </trkpt>
      <trkpt lat="47.542218" lon="7.871866">
        <ele>345.351937</ele>
        <time>2021-11-14T17:52:53.811Z</time>
      </trkpt>
      <trkpt lat="47.542091" lon="7.871721">
        <ele>345.351937</ele>
        <time>2021-11-14T17:52:55.326Z</time>
      </trkpt>
      <trkpt lat="47.542067" lon="7.871664">
        <ele>345.351937</ele>
        <time>2021-11-14T17:52:56.062Z</time>
      </trkpt>
      <trkpt lat="47.542039" lon="7.871556">
        <ele>345.351937</ele>
        <time>2021-11-14T17:52:56.962Z</time>
      </trkpt>
      <trkpt lat="47.541953" lon="7.871286">
        <ele>345.351937</ele>
        <time>2021-11-14T17:52:59.107Z</time>
      </trkpt>
      <trkpt lat="47.541849" lon="7.871124">
        <ele>345.351937</ele>
        <time>2021-11-14T17:53:00.954Z</time>
      </trkpt>
    </trkseg>
  </trk>
</gpx>